<?xml version="1.0" encoding="UTF-8" standalone="no" ?>
<gpx xmlns="http://www.topografix.com/GPX/1/1" xmlns:xsi="http://www.w3.org/2001/XMLSchema-instance" xsi:schemaLocation="http://www.topografix.com/GPX/1/1 http://www.topografix.com/GPX/1/1/gpx.xsd" version="1.1" creator="VisuGPX - https://www.visugpx.com">
  <metadata>
    <name>Ténébra et Limpio</name>
    <desc><![CDATA[Une balade tranquille
avec une boucle près du retour mais c\'est imprévu !]]></desc>
  </metadata>
  <trk>
    <name><![CDATA[Ténébra et Limpio_1]]></name>
    <trkseg>
      <trkpt lat="48.70514" lon="1.75483">
        <ele>182.7</ele>
        <time>2014-08-12T10:41:37Z</time>
      </trkpt>
      <trkpt lat="48.70508" lon="1.75484">
        <ele>182.7</ele>
        <time>2014-08-12T10:41:42Z</time>
      </trkpt>
      <trkpt lat="48.70502" lon="1.75482">
        <ele>184.5986</ele>
        <time>2014-08-12T10:41:47Z</time>
      </trkpt>
      <trkpt lat="48.70499" lon="1.75481">
        <ele>184.5986</ele>
        <time>2014-08-12T10:41:52Z</time>
      </trkpt>
      <trkpt lat="48.70494" lon="1.75483">
        <ele>184.5986</ele>
        <time>2014-08-12T10:41:57Z</time>
      </trkpt>
      <trkpt lat="48.70487" lon="1.75479">
        <ele>186.62498</ele>
        <time>2014-08-12T10:42:02Z</time>
      </trkpt>
      <trkpt lat="48.70479" lon="1.75474">
        <ele>188.49898</ele>
        <time>2014-08-12T10:42:09Z</time>
      </trkpt>
      <trkpt lat="48.70474" lon="1.7547">
        <ele>188.49898</ele>
        <time>2014-08-12T10:42:13Z</time>
      </trkpt>
      <trkpt lat="48.70464" lon="1.75463">
        <ele>190.26384</ele>
        <time>2014-08-12T10:42:19Z</time>
      </trkpt>
      <trkpt lat="48.70459" lon="1.75458">
        <ele>190.26384</ele>
        <time>2014-08-12T10:42:23Z</time>
      </trkpt>
      <trkpt lat="48.70456" lon="1.75455">
        <ele>191.18164</ele>
        <time>2014-08-12T10:42:28Z</time>
      </trkpt>
      <trkpt lat="48.70453" lon="1.75451">
        <ele>191.18164</ele>
        <time>2014-08-12T10:42:32Z</time>
      </trkpt>
      <trkpt lat="48.70445" lon="1.75446">
        <ele>192.17061</ele>
        <time>2014-08-12T10:42:39Z</time>
      </trkpt>
      <trkpt lat="48.70437" lon="1.75443">
        <ele>192.17061</ele>
        <time>2014-08-12T10:42:44Z</time>
      </trkpt>
      <trkpt lat="48.70435" lon="1.75443">
        <ele>193.18295</ele>
        <time>2014-08-12T10:42:49Z</time>
      </trkpt>
      <trkpt lat="48.70429" lon="1.7544">
        <ele>193.18295</ele>
        <time>2014-08-12T10:42:54Z</time>
      </trkpt>
      <trkpt lat="48.70426" lon="1.75437">
        <ele>194.81177</ele>
        <time>2014-08-12T10:42:59Z</time>
      </trkpt>
      <trkpt lat="48.7042" lon="1.75432">
        <ele>194.81177</ele>
        <time>2014-08-12T10:43:04Z</time>
      </trkpt>
      <trkpt lat="48.70416" lon="1.75431">
        <ele>196.76096</ele>
        <time>2014-08-12T10:43:09Z</time>
      </trkpt>
      <trkpt lat="48.70412" lon="1.7543">
        <ele>196.76096</ele>
        <time>2014-08-12T10:43:14Z</time>
      </trkpt>
      <trkpt lat="48.70404" lon="1.75427">
        <ele>198.19249</ele>
        <time>2014-08-12T10:43:19Z</time>
      </trkpt>
      <trkpt lat="48.70396" lon="1.75426">
        <ele>198.19249</ele>
        <time>2014-08-12T10:43:24Z</time>
      </trkpt>
      <trkpt lat="48.7039" lon="1.75424">
        <ele>199.58615</ele>
        <time>2014-08-12T10:43:29Z</time>
      </trkpt>
      <trkpt lat="48.70386" lon="1.7542">
        <ele>199.58615</ele>
        <time>2014-08-12T10:43:34Z</time>
      </trkpt>
      <trkpt lat="48.70382" lon="1.75416">
        <ele>200.77834</ele>
        <time>2014-08-12T10:43:39Z</time>
      </trkpt>
      <trkpt lat="48.70374" lon="1.75411">
        <ele>200.77834</ele>
        <time>2014-08-12T10:43:44Z</time>
      </trkpt>
      <trkpt lat="48.70377" lon="1.75414">
        <ele>201.73851</ele>
        <time>2014-08-12T10:43:49Z</time>
      </trkpt>
      <trkpt lat="48.70377" lon="1.75415">
        <ele>201.73851</ele>
        <time>2014-08-12T10:43:54Z</time>
      </trkpt>
      <trkpt lat="48.70376" lon="1.75411">
        <ele>201.73851</ele>
        <time>2014-08-12T10:43:59Z</time>
      </trkpt>
      <trkpt lat="48.70374" lon="1.75407">
        <ele>201.73851</ele>
        <time>2014-08-12T10:44:03Z</time>
      </trkpt>
      <trkpt lat="48.70373" lon="1.75404">
        <ele>202.52606</ele>
        <time>2014-08-12T10:44:10Z</time>
      </trkpt>
      <trkpt lat="48.70368" lon="1.754">
        <ele>202.52606</ele>
        <time>2014-08-12T10:44:14Z</time>
      </trkpt>
      <trkpt lat="48.70359" lon="1.75394">
        <ele>203.03217</ele>
        <time>2014-08-12T10:44:19Z</time>
      </trkpt>
      <trkpt lat="48.70356" lon="1.75392">
        <ele>203.03217</ele>
        <time>2014-08-12T10:44:24Z</time>
      </trkpt>
      <trkpt lat="48.70358" lon="1.75389">
        <ele>203.03217</ele>
        <time>2014-08-12T10:44:29Z</time>
      </trkpt>
      <trkpt lat="48.70357" lon="1.75391">
        <ele>203.03217</ele>
        <time>2014-08-12T10:44:34Z</time>
      </trkpt>
      <trkpt lat="48.70353" lon="1.7539">
        <ele>203.42627</ele>
        <time>2014-08-12T10:44:39Z</time>
      </trkpt>
      <trkpt lat="48.70348" lon="1.75385">
        <ele>203.42627</ele>
        <time>2014-08-12T10:44:44Z</time>
      </trkpt>
      <trkpt lat="48.70346" lon="1.75382">
        <ele>203.8605</ele>
        <time>2014-08-12T10:44:49Z</time>
      </trkpt>
      <trkpt lat="48.7034" lon="1.75377">
        <ele>203.8605</ele>
        <time>2014-08-12T10:44:54Z</time>
      </trkpt>
      <trkpt lat="48.70335" lon="1.75374">
        <ele>204.35461</ele>
        <time>2014-08-12T10:44:59Z</time>
      </trkpt>
      <trkpt lat="48.70335" lon="1.75371">
        <ele>204.35461</ele>
        <time>2014-08-12T10:45:04Z</time>
      </trkpt>
      <trkpt lat="48.70333" lon="1.7537">
        <ele>204.35461</ele>
        <time>2014-08-12T10:45:09Z</time>
      </trkpt>
      <trkpt lat="48.70323" lon="1.75349">
        <ele>204.68489</ele>
        <time>2014-08-12T10:45:14Z</time>
      </trkpt>
      <trkpt lat="48.70318" lon="1.75342">
        <ele>204.68489</ele>
        <time>2014-08-12T10:45:19Z</time>
      </trkpt>
      <trkpt lat="48.70314" lon="1.7533">
        <ele>204.4831</ele>
        <time>2014-08-12T10:45:24Z</time>
      </trkpt>
      <trkpt lat="48.70311" lon="1.75326">
        <ele>204.4831</ele>
        <time>2014-08-12T10:45:29Z</time>
      </trkpt>
      <trkpt lat="48.70298" lon="1.75326">
        <ele>204.09486</ele>
        <time>2014-08-12T10:45:39Z</time>
      </trkpt>
      <trkpt lat="48.70298" lon="1.75328">
        <ele>204.09486</ele>
        <time>2014-08-12T10:45:44Z</time>
      </trkpt>
      <trkpt lat="48.70301" lon="1.75328">
        <ele>204.09486</ele>
        <time>2014-08-12T10:45:47Z</time>
      </trkpt>
      <trkpt lat="48.70299" lon="1.75334">
        <ele>204.09486</ele>
        <time>2014-08-12T10:45:53Z</time>
      </trkpt>
      <trkpt lat="48.70297" lon="1.75337">
        <ele>202.78642</ele>
        <time>2014-08-12T10:45:59Z</time>
      </trkpt>
      <trkpt lat="48.70297" lon="1.75335">
        <ele>202.78642</ele>
        <time>2014-08-12T10:46:04Z</time>
      </trkpt>
      <trkpt lat="48.703" lon="1.75327">
        <ele>202.78642</ele>
        <time>2014-08-12T10:46:17Z</time>
      </trkpt>
      <trkpt lat="48.70306" lon="1.75327">
        <ele>201.53789</ele>
        <time>2014-08-12T10:46:23Z</time>
      </trkpt>
      <trkpt lat="48.70318" lon="1.75323">
        <ele>200.6275</ele>
        <time>2014-08-12T10:46:30Z</time>
      </trkpt>
      <trkpt lat="48.70316" lon="1.75319">
        <ele>200.6275</ele>
        <time>2014-08-12T10:46:34Z</time>
      </trkpt>
      <trkpt lat="48.70306" lon="1.75309">
        <ele>199.6856</ele>
        <time>2014-08-12T10:46:39Z</time>
      </trkpt>
      <trkpt lat="48.70301" lon="1.75305">
        <ele>199.6856</ele>
        <time>2014-08-12T10:46:44Z</time>
      </trkpt>
      <trkpt lat="48.70296" lon="1.75301">
        <ele>198.75993</ele>
        <time>2014-08-12T10:46:49Z</time>
      </trkpt>
      <trkpt lat="48.70292" lon="1.753">
        <ele>198.75993</ele>
        <time>2014-08-12T10:46:54Z</time>
      </trkpt>
      <trkpt lat="48.70284" lon="1.75294">
        <ele>197.96342</ele>
        <time>2014-08-12T10:46:59Z</time>
      </trkpt>
      <trkpt lat="48.70278" lon="1.75289">
        <ele>197.96342</ele>
        <time>2014-08-12T10:47:04Z</time>
      </trkpt>
      <trkpt lat="48.70268" lon="1.75282">
        <ele>197.14256</ele>
        <time>2014-08-12T10:47:09Z</time>
      </trkpt>
      <trkpt lat="48.70256" lon="1.75274">
        <ele>196.07535</ele>
        <time>2014-08-12T10:47:14Z</time>
      </trkpt>
      <trkpt lat="48.70251" lon="1.75268">
        <ele>196.07535</ele>
        <time>2014-08-12T10:47:17Z</time>
      </trkpt>
      <trkpt lat="48.70248" lon="1.75266">
        <ele>194.65775</ele>
        <time>2014-08-12T10:47:22Z</time>
      </trkpt>
      <trkpt lat="48.70244" lon="1.75264">
        <ele>194.65775</ele>
        <time>2014-08-12T10:47:27Z</time>
      </trkpt>
      <trkpt lat="48.70244" lon="1.75256">
        <ele>193.21056</ele>
        <time>2014-08-12T10:47:32Z</time>
      </trkpt>
      <trkpt lat="48.70241" lon="1.7525">
        <ele>193.21056</ele>
        <time>2014-08-12T10:47:37Z</time>
      </trkpt>
      <trkpt lat="48.70239" lon="1.75248">
        <ele>193.21056</ele>
        <time>2014-08-12T10:47:42Z</time>
      </trkpt>
      <trkpt lat="48.70232" lon="1.75244">
        <ele>191.59792</ele>
        <time>2014-08-12T10:47:47Z</time>
      </trkpt>
      <trkpt lat="48.70227" lon="1.75243">
        <ele>191.59792</ele>
        <time>2014-08-12T10:47:52Z</time>
      </trkpt>
      <trkpt lat="48.70224" lon="1.75243">
        <ele>191.59792</ele>
        <time>2014-08-12T10:47:57Z</time>
      </trkpt>
      <trkpt lat="48.70214" lon="1.75245">
        <ele>189.59718</ele>
        <time>2014-08-12T10:48:02Z</time>
      </trkpt>
      <trkpt lat="48.70203" lon="1.75248">
        <ele>187.51543</ele>
        <time>2014-08-12T10:48:07Z</time>
      </trkpt>
      <trkpt lat="48.70197" lon="1.75251">
        <ele>187.51543</ele>
        <time>2014-08-12T10:48:12Z</time>
      </trkpt>
      <trkpt lat="48.70189" lon="1.75252">
        <ele>185.33336</ele>
        <time>2014-08-12T10:48:17Z</time>
      </trkpt>
      <trkpt lat="48.70185" lon="1.75254">
        <ele>185.33336</ele>
        <time>2014-08-12T10:48:22Z</time>
      </trkpt>
      <trkpt lat="48.70179" lon="1.75256">
        <ele>183.2579</ele>
        <time>2014-08-12T10:48:27Z</time>
      </trkpt>
      <trkpt lat="48.70175" lon="1.75262">
        <ele>183.2579</ele>
        <time>2014-08-12T10:48:32Z</time>
      </trkpt>
      <trkpt lat="48.7017" lon="1.75265">
        <ele>181.44301</ele>
        <time>2014-08-12T10:48:37Z</time>
      </trkpt>
      <trkpt lat="48.70165" lon="1.75266">
        <ele>181.44301</ele>
        <time>2014-08-12T10:48:42Z</time>
      </trkpt>
      <trkpt lat="48.70158" lon="1.75266">
        <ele>179.69473</ele>
        <time>2014-08-12T10:48:48Z</time>
      </trkpt>
      <trkpt lat="48.70151" lon="1.7527">
        <ele>179.69473</ele>
        <time>2014-08-12T10:48:55Z</time>
      </trkpt>
      <trkpt lat="48.70147" lon="1.75274">
        <ele>178.02933</ele>
        <time>2014-08-12T10:48:59Z</time>
      </trkpt>
      <trkpt lat="48.70143" lon="1.75279">
        <ele>178.02933</ele>
        <time>2014-08-12T10:49:04Z</time>
      </trkpt>
      <trkpt lat="48.70136" lon="1.75279">
        <ele>176.50539</ele>
        <time>2014-08-12T10:49:09Z</time>
      </trkpt>
      <trkpt lat="48.70133" lon="1.75278">
        <ele>176.50539</ele>
        <time>2014-08-12T10:49:12Z</time>
      </trkpt>
      <trkpt lat="48.70121" lon="1.7529">
        <ele>175.09137</ele>
        <time>2014-08-12T10:49:18Z</time>
      </trkpt>
      <trkpt lat="48.70107" lon="1.75305">
        <ele>173.84415</ele>
        <time>2014-08-12T10:49:25Z</time>
      </trkpt>
      <trkpt lat="48.70105" lon="1.7531">
        <ele>173.84415</ele>
        <time>2014-08-12T10:49:29Z</time>
      </trkpt>
      <trkpt lat="48.70099" lon="1.7531">
        <ele>172.75801</ele>
        <time>2014-08-12T10:49:34Z</time>
      </trkpt>
      <trkpt lat="48.70089" lon="1.75318">
        <ele>171.81165</ele>
        <time>2014-08-12T10:49:39Z</time>
      </trkpt>
      <trkpt lat="48.70083" lon="1.7532">
        <ele>171.81165</ele>
        <time>2014-08-12T10:49:44Z</time>
      </trkpt>
      <trkpt lat="48.70075" lon="1.75323">
        <ele>170.9986</ele>
        <time>2014-08-12T10:49:49Z</time>
      </trkpt>
      <trkpt lat="48.70062" lon="1.75325">
        <ele>170.32655</ele>
        <time>2014-08-12T10:49:54Z</time>
      </trkpt>
      <trkpt lat="48.70058" lon="1.75326">
        <ele>170.32655</ele>
        <time>2014-08-12T10:49:59Z</time>
      </trkpt>
      <trkpt lat="48.70054" lon="1.75326">
        <ele>170.32655</ele>
        <time>2014-08-12T10:50:04Z</time>
      </trkpt>
      <trkpt lat="48.70049" lon="1.75325">
        <ele>169.80165</ele>
        <time>2014-08-12T10:50:09Z</time>
      </trkpt>
      <trkpt lat="48.70044" lon="1.75327">
        <ele>169.80165</ele>
        <time>2014-08-12T10:50:14Z</time>
      </trkpt>
      <trkpt lat="48.70037" lon="1.75332">
        <ele>169.36845</ele>
        <time>2014-08-12T10:50:19Z</time>
      </trkpt>
      <trkpt lat="48.7003" lon="1.75336">
        <ele>169.36845</ele>
        <time>2014-08-12T10:50:24Z</time>
      </trkpt>
      <trkpt lat="48.70026" lon="1.7534">
        <ele>169.06471</ele>
        <time>2014-08-12T10:50:29Z</time>
      </trkpt>
      <trkpt lat="48.70023" lon="1.75344">
        <ele>169.06471</ele>
        <time>2014-08-12T10:50:34Z</time>
      </trkpt>
      <trkpt lat="48.70018" lon="1.75345">
        <ele>168.9248</ele>
        <time>2014-08-12T10:50:39Z</time>
      </trkpt>
      <trkpt lat="48.70011" lon="1.75348">
        <ele>168.9248</ele>
        <time>2014-08-12T10:50:43Z</time>
      </trkpt>
      <trkpt lat="48.70002" lon="1.75355">
        <ele>168.9646</ele>
        <time>2014-08-12T10:50:49Z</time>
      </trkpt>
      <trkpt lat="48.7" lon="1.75356">
        <ele>168.9646</ele>
        <time>2014-08-12T10:50:54Z</time>
      </trkpt>
      <trkpt lat="48.69994" lon="1.75357">
        <ele>168.9646</ele>
        <time>2014-08-12T10:50:59Z</time>
      </trkpt>
      <trkpt lat="48.69986" lon="1.75362">
        <ele>169.24316</ele>
        <time>2014-08-12T10:51:04Z</time>
      </trkpt>
      <trkpt lat="48.69983" lon="1.75365">
        <ele>169.24316</ele>
        <time>2014-08-12T10:51:09Z</time>
      </trkpt>
      <trkpt lat="48.69976" lon="1.7537">
        <ele>169.64792</ele>
        <time>2014-08-12T10:51:14Z</time>
      </trkpt>
      <trkpt lat="48.69972" lon="1.75373">
        <ele>169.64792</ele>
        <time>2014-08-12T10:51:19Z</time>
      </trkpt>
      <trkpt lat="48.69968" lon="1.75378">
        <ele>170.22528</ele>
        <time>2014-08-12T10:51:24Z</time>
      </trkpt>
      <trkpt lat="48.69961" lon="1.75383">
        <ele>170.22528</ele>
        <time>2014-08-12T10:51:29Z</time>
      </trkpt>
      <trkpt lat="48.69953" lon="1.75387">
        <ele>170.83658</ele>
        <time>2014-08-12T10:51:34Z</time>
      </trkpt>
      <trkpt lat="48.69946" lon="1.75388">
        <ele>170.83658</ele>
        <time>2014-08-12T10:51:39Z</time>
      </trkpt>
      <trkpt lat="48.69935" lon="1.75392">
        <ele>171.48973</ele>
        <time>2014-08-12T10:51:44Z</time>
      </trkpt>
      <trkpt lat="48.69929" lon="1.75393">
        <ele>171.48973</ele>
        <time>2014-08-12T10:51:49Z</time>
      </trkpt>
      <trkpt lat="48.69924" lon="1.75395">
        <ele>172.17708</ele>
        <time>2014-08-12T10:51:54Z</time>
      </trkpt>
      <trkpt lat="48.69917" lon="1.75396">
        <ele>172.17708</ele>
        <time>2014-08-12T10:51:59Z</time>
      </trkpt>
      <trkpt lat="48.6991" lon="1.754">
        <ele>172.92169</ele>
        <time>2014-08-12T10:52:04Z</time>
      </trkpt>
      <trkpt lat="48.69906" lon="1.75405">
        <ele>172.92169</ele>
        <time>2014-08-12T10:52:09Z</time>
      </trkpt>
      <trkpt lat="48.69902" lon="1.75405">
        <ele>172.92169</ele>
        <time>2014-08-12T10:52:12Z</time>
      </trkpt>
      <trkpt lat="48.69897" lon="1.75401">
        <ele>173.7896</ele>
        <time>2014-08-12T10:52:17Z</time>
      </trkpt>
      <trkpt lat="48.69884" lon="1.7539">
        <ele>174.64697</ele>
        <time>2014-08-12T10:52:22Z</time>
      </trkpt>
      <trkpt lat="48.69877" lon="1.75376">
        <ele>175.49063</ele>
        <time>2014-08-12T10:52:30Z</time>
      </trkpt>
      <trkpt lat="48.69874" lon="1.75369">
        <ele>175.49063</ele>
        <time>2014-08-12T10:52:34Z</time>
      </trkpt>
      <trkpt lat="48.69871" lon="1.75357">
        <ele>176.39212</ele>
        <time>2014-08-12T10:52:39Z</time>
      </trkpt>
      <trkpt lat="48.69868" lon="1.75345">
        <ele>176.39212</ele>
        <time>2014-08-12T10:52:44Z</time>
      </trkpt>
      <trkpt lat="48.69865" lon="1.75333">
        <ele>177.32803</ele>
        <time>2014-08-12T10:52:49Z</time>
      </trkpt>
      <trkpt lat="48.69864" lon="1.75326">
        <ele>177.32803</ele>
        <time>2014-08-12T10:52:53Z</time>
      </trkpt>
      <trkpt lat="48.69861" lon="1.75307">
        <ele>178.24742</ele>
        <time>2014-08-12T10:53:00Z</time>
      </trkpt>
      <trkpt lat="48.69858" lon="1.75299">
        <ele>178.24742</ele>
        <time>2014-08-12T10:53:04Z</time>
      </trkpt>
      <trkpt lat="48.69856" lon="1.75285">
        <ele>179.11847</ele>
        <time>2014-08-12T10:53:09Z</time>
      </trkpt>
      <trkpt lat="48.69856" lon="1.75276">
        <ele>179.11847</ele>
        <time>2014-08-12T10:53:14Z</time>
      </trkpt>
      <trkpt lat="48.69856" lon="1.75267">
        <ele>179.83871</ele>
        <time>2014-08-12T10:53:19Z</time>
      </trkpt>
      <trkpt lat="48.69855" lon="1.75258">
        <ele>179.83871</ele>
        <time>2014-08-12T10:53:24Z</time>
      </trkpt>
      <trkpt lat="48.69856" lon="1.75251">
        <ele>180.5055</ele>
        <time>2014-08-12T10:53:29Z</time>
      </trkpt>
      <trkpt lat="48.69854" lon="1.75245">
        <ele>180.5055</ele>
        <time>2014-08-12T10:53:34Z</time>
      </trkpt>
      <trkpt lat="48.69853" lon="1.75236">
        <ele>181.16432</ele>
        <time>2014-08-12T10:53:39Z</time>
      </trkpt>
      <trkpt lat="48.69854" lon="1.75227">
        <ele>181.16432</ele>
        <time>2014-08-12T10:53:43Z</time>
      </trkpt>
      <trkpt lat="48.69849" lon="1.75213">
        <ele>181.85707</ele>
        <time>2014-08-12T10:53:50Z</time>
      </trkpt>
      <trkpt lat="48.69848" lon="1.75203">
        <ele>181.85707</ele>
        <time>2014-08-12T10:53:54Z</time>
      </trkpt>
      <trkpt lat="48.69843" lon="1.75189">
        <ele>182.54924</ele>
        <time>2014-08-12T10:53:59Z</time>
      </trkpt>
      <trkpt lat="48.69841" lon="1.75184">
        <ele>182.54924</ele>
        <time>2014-08-12T10:54:04Z</time>
      </trkpt>
      <trkpt lat="48.69839" lon="1.75174">
        <ele>183.16551</ele>
        <time>2014-08-12T10:54:09Z</time>
      </trkpt>
      <trkpt lat="48.69838" lon="1.75165">
        <ele>183.16551</ele>
        <time>2014-08-12T10:54:14Z</time>
      </trkpt>
      <trkpt lat="48.69836" lon="1.7516">
        <ele>183.7095</ele>
        <time>2014-08-12T10:54:19Z</time>
      </trkpt>
      <trkpt lat="48.69836" lon="1.75151">
        <ele>183.7095</ele>
        <time>2014-08-12T10:54:24Z</time>
      </trkpt>
      <trkpt lat="48.69837" lon="1.7514">
        <ele>184.22838</ele>
        <time>2014-08-12T10:54:29Z</time>
      </trkpt>
      <trkpt lat="48.69833" lon="1.75129">
        <ele>184.22838</ele>
        <time>2014-08-12T10:54:34Z</time>
      </trkpt>
      <trkpt lat="48.69831" lon="1.75118">
        <ele>184.79465</ele>
        <time>2014-08-12T10:54:39Z</time>
      </trkpt>
      <trkpt lat="48.6983" lon="1.75113">
        <ele>184.79465</ele>
        <time>2014-08-12T10:54:42Z</time>
      </trkpt>
      <trkpt lat="48.69828" lon="1.75098">
        <ele>185.25784</ele>
        <time>2014-08-12T10:54:50Z</time>
      </trkpt>
      <trkpt lat="48.69827" lon="1.75085">
        <ele>185.25784</ele>
        <time>2014-08-12T10:54:53Z</time>
      </trkpt>
      <trkpt lat="48.69828" lon="1.75068">
        <ele>185.49394</ele>
        <time>2014-08-12T10:55:00Z</time>
      </trkpt>
      <trkpt lat="48.69826" lon="1.75058">
        <ele>185.49394</ele>
        <time>2014-08-12T10:55:04Z</time>
      </trkpt>
      <trkpt lat="48.69823" lon="1.75048">
        <ele>185.51923</ele>
        <time>2014-08-12T10:55:09Z</time>
      </trkpt>
      <trkpt lat="48.6982" lon="1.75041">
        <ele>185.51923</ele>
        <time>2014-08-12T10:55:14Z</time>
      </trkpt>
      <trkpt lat="48.69817" lon="1.75032">
        <ele>185.32036</ele>
        <time>2014-08-12T10:55:19Z</time>
      </trkpt>
      <trkpt lat="48.69815" lon="1.75022">
        <ele>185.32036</ele>
        <time>2014-08-12T10:55:24Z</time>
      </trkpt>
      <trkpt lat="48.69814" lon="1.75016">
        <ele>185.0445</ele>
        <time>2014-08-12T10:55:29Z</time>
      </trkpt>
      <trkpt lat="48.69813" lon="1.75005">
        <ele>185.0445</ele>
        <time>2014-08-12T10:55:34Z</time>
      </trkpt>
      <trkpt lat="48.69812" lon="1.74996">
        <ele>184.6691</ele>
        <time>2014-08-12T10:55:39Z</time>
      </trkpt>
      <trkpt lat="48.69813" lon="1.74987">
        <ele>184.6691</ele>
        <time>2014-08-12T10:55:44Z</time>
      </trkpt>
      <trkpt lat="48.69812" lon="1.74975">
        <ele>184.1448</ele>
        <time>2014-08-12T10:55:49Z</time>
      </trkpt>
      <trkpt lat="48.69812" lon="1.74967">
        <ele>184.1448</ele>
        <time>2014-08-12T10:55:54Z</time>
      </trkpt>
      <trkpt lat="48.69809" lon="1.7496">
        <ele>183.5995</ele>
        <time>2014-08-12T10:55:59Z</time>
      </trkpt>
      <trkpt lat="48.69806" lon="1.74951">
        <ele>183.5995</ele>
        <time>2014-08-12T10:56:04Z</time>
      </trkpt>
      <trkpt lat="48.69805" lon="1.74936">
        <ele>182.97855</ele>
        <time>2014-08-12T10:56:09Z</time>
      </trkpt>
      <trkpt lat="48.69804" lon="1.74921">
        <ele>182.26048</ele>
        <time>2014-08-12T10:56:14Z</time>
      </trkpt>
      <trkpt lat="48.69805" lon="1.74904">
        <ele>181.51224</ele>
        <time>2014-08-12T10:56:19Z</time>
      </trkpt>
      <trkpt lat="48.69809" lon="1.74897">
        <ele>181.51224</ele>
        <time>2014-08-12T10:56:24Z</time>
      </trkpt>
      <trkpt lat="48.69814" lon="1.74891">
        <ele>180.70944</ele>
        <time>2014-08-12T10:56:29Z</time>
      </trkpt>
      <trkpt lat="48.69824" lon="1.74886">
        <ele>179.80083</ele>
        <time>2014-08-12T10:56:34Z</time>
      </trkpt>
      <trkpt lat="48.69832" lon="1.74882">
        <ele>178.8113</ele>
        <time>2014-08-12T10:56:39Z</time>
      </trkpt>
      <trkpt lat="48.69836" lon="1.74878">
        <ele>178.8113</ele>
        <time>2014-08-12T10:56:44Z</time>
      </trkpt>
      <trkpt lat="48.69845" lon="1.74872">
        <ele>177.59114</ele>
        <time>2014-08-12T10:56:49Z</time>
      </trkpt>
      <trkpt lat="48.69854" lon="1.74869">
        <ele>176.31952</ele>
        <time>2014-08-12T10:56:54Z</time>
      </trkpt>
      <trkpt lat="48.69861" lon="1.74865">
        <ele>176.31952</ele>
        <time>2014-08-12T10:56:59Z</time>
      </trkpt>
      <trkpt lat="48.69866" lon="1.7486">
        <ele>175.01831</ele>
        <time>2014-08-12T10:57:02Z</time>
      </trkpt>
      <trkpt lat="48.69871" lon="1.74857">
        <ele>175.01831</ele>
        <time>2014-08-12T10:57:10Z</time>
      </trkpt>
      <trkpt lat="48.69875" lon="1.74856">
        <ele>173.73676</ele>
        <time>2014-08-12T10:57:13Z</time>
      </trkpt>
      <trkpt lat="48.69877" lon="1.74852">
        <ele>173.73676</ele>
        <time>2014-08-12T10:57:19Z</time>
      </trkpt>
      <trkpt lat="48.69881" lon="1.74848">
        <ele>173.73676</ele>
        <time>2014-08-12T10:57:24Z</time>
      </trkpt>
      <trkpt lat="48.69888" lon="1.74847">
        <ele>172.53477</ele>
        <time>2014-08-12T10:57:29Z</time>
      </trkpt>
      <trkpt lat="48.69894" lon="1.74843">
        <ele>172.53477</ele>
        <time>2014-08-12T10:57:33Z</time>
      </trkpt>
      <trkpt lat="48.69907" lon="1.74837">
        <ele>171.4388</ele>
        <time>2014-08-12T10:57:40Z</time>
      </trkpt>
      <trkpt lat="48.69918" lon="1.74833">
        <ele>170.58836</ele>
        <time>2014-08-12T10:57:44Z</time>
      </trkpt>
      <trkpt lat="48.69938" lon="1.74823">
        <ele>169.7514</ele>
        <time>2014-08-12T10:57:49Z</time>
      </trkpt>
      <trkpt lat="48.69948" lon="1.7482">
        <ele>168.95798</ele>
        <time>2014-08-12T10:57:54Z</time>
      </trkpt>
      <trkpt lat="48.69954" lon="1.74818">
        <ele>168.95798</ele>
        <time>2014-08-12T10:57:58Z</time>
      </trkpt>
      <trkpt lat="48.6996" lon="1.74815">
        <ele>168.03386</ele>
        <time>2014-08-12T10:58:04Z</time>
      </trkpt>
      <trkpt lat="48.69964" lon="1.74814">
        <ele>168.03386</ele>
        <time>2014-08-12T10:58:09Z</time>
      </trkpt>
      <trkpt lat="48.69976" lon="1.74809">
        <ele>166.97652</ele>
        <time>2014-08-12T10:58:14Z</time>
      </trkpt>
      <trkpt lat="48.69982" lon="1.74806">
        <ele>166.97652</ele>
        <time>2014-08-12T10:58:19Z</time>
      </trkpt>
      <trkpt lat="48.69983" lon="1.74805">
        <ele>166.97652</ele>
        <time>2014-08-12T10:58:24Z</time>
      </trkpt>
      <trkpt lat="48.69994" lon="1.74797">
        <ele>166.10129</ele>
        <time>2014-08-12T10:58:29Z</time>
      </trkpt>
      <trkpt lat="48.70003" lon="1.74792">
        <ele>165.07951</ele>
        <time>2014-08-12T10:58:34Z</time>
      </trkpt>
      <trkpt lat="48.70011" lon="1.74793">
        <ele>165.07951</ele>
        <time>2014-08-12T10:58:39Z</time>
      </trkpt>
      <trkpt lat="48.70017" lon="1.74788">
        <ele>163.98204</ele>
        <time>2014-08-12T10:58:44Z</time>
      </trkpt>
      <trkpt lat="48.70021" lon="1.74786">
        <ele>163.98204</ele>
        <time>2014-08-12T10:58:49Z</time>
      </trkpt>
      <trkpt lat="48.70023" lon="1.74786">
        <ele>163.98204</ele>
        <time>2014-08-12T10:58:54Z</time>
      </trkpt>
      <trkpt lat="48.70034" lon="1.74781">
        <ele>162.86023</ele>
        <time>2014-08-12T10:58:58Z</time>
      </trkpt>
      <trkpt lat="48.70045" lon="1.7478">
        <ele>161.87704</ele>
        <time>2014-08-12T10:59:03Z</time>
      </trkpt>
      <trkpt lat="48.70055" lon="1.74774">
        <ele>160.80797</ele>
        <time>2014-08-12T10:59:10Z</time>
      </trkpt>
      <trkpt lat="48.70058" lon="1.74772">
        <ele>160.80797</ele>
        <time>2014-08-12T10:59:14Z</time>
      </trkpt>
      <trkpt lat="48.70063" lon="1.74768">
        <ele>160.80797</ele>
        <time>2014-08-12T10:59:19Z</time>
      </trkpt>
      <trkpt lat="48.70068" lon="1.74766">
        <ele>159.7481</ele>
        <time>2014-08-12T10:59:24Z</time>
      </trkpt>
      <trkpt lat="48.70075" lon="1.74766">
        <ele>159.7481</ele>
        <time>2014-08-12T10:59:29Z</time>
      </trkpt>
      <trkpt lat="48.70082" lon="1.74762">
        <ele>158.87186</ele>
        <time>2014-08-12T10:59:34Z</time>
      </trkpt>
      <trkpt lat="48.70088" lon="1.74759">
        <ele>158.87186</ele>
        <time>2014-08-12T10:59:39Z</time>
      </trkpt>
      <trkpt lat="48.70096" lon="1.74755">
        <ele>157.87888</ele>
        <time>2014-08-12T10:59:44Z</time>
      </trkpt>
      <trkpt lat="48.70102" lon="1.74752">
        <ele>157.87888</ele>
        <time>2014-08-12T10:59:49Z</time>
      </trkpt>
      <trkpt lat="48.7011" lon="1.74742">
        <ele>156.92366</ele>
        <time>2014-08-12T10:59:54Z</time>
      </trkpt>
      <trkpt lat="48.70122" lon="1.74735">
        <ele>155.9041</ele>
        <time>2014-08-12T10:59:59Z</time>
      </trkpt>
      <trkpt lat="48.70126" lon="1.7473">
        <ele>155.9041</ele>
        <time>2014-08-12T11:00:02Z</time>
      </trkpt>
      <trkpt lat="48.70137" lon="1.74726">
        <ele>154.85542</ele>
        <time>2014-08-12T11:00:07Z</time>
      </trkpt>
      <trkpt lat="48.70144" lon="1.74718">
        <ele>154.85542</ele>
        <time>2014-08-12T11:00:14Z</time>
      </trkpt>
      <trkpt lat="48.70154" lon="1.74712">
        <ele>153.91124</ele>
        <time>2014-08-12T11:00:19Z</time>
      </trkpt>
      <trkpt lat="48.70161" lon="1.7471">
        <ele>153.91124</ele>
        <time>2014-08-12T11:00:24Z</time>
      </trkpt>
      <trkpt lat="48.70168" lon="1.74709">
        <ele>152.96423</ele>
        <time>2014-08-12T11:00:29Z</time>
      </trkpt>
      <trkpt lat="48.7017" lon="1.74708">
        <ele>152.96423</ele>
        <time>2014-08-12T11:00:34Z</time>
      </trkpt>
      <trkpt lat="48.70173" lon="1.74707">
        <ele>152.96423</ele>
        <time>2014-08-12T11:00:39Z</time>
      </trkpt>
      <trkpt lat="48.70188" lon="1.74701">
        <ele>151.97261</ele>
        <time>2014-08-12T11:00:42Z</time>
      </trkpt>
      <trkpt lat="48.70202" lon="1.74704">
        <ele>150.941</ele>
        <time>2014-08-12T11:00:49Z</time>
      </trkpt>
      <trkpt lat="48.70208" lon="1.747">
        <ele>150.941</ele>
        <time>2014-08-12T11:00:54Z</time>
      </trkpt>
      <trkpt lat="48.70218" lon="1.74698">
        <ele>149.98897</ele>
        <time>2014-08-12T11:00:59Z</time>
      </trkpt>
      <trkpt lat="48.70224" lon="1.74692">
        <ele>149.98897</ele>
        <time>2014-08-12T11:01:04Z</time>
      </trkpt>
      <trkpt lat="48.7023" lon="1.74687">
        <ele>149.12616</ele>
        <time>2014-08-12T11:01:09Z</time>
      </trkpt>
      <trkpt lat="48.70231" lon="1.74687">
        <ele>149.12616</ele>
        <time>2014-08-12T11:01:13Z</time>
      </trkpt>
      <trkpt lat="48.70237" lon="1.7468">
        <ele>149.12616</ele>
        <time>2014-08-12T11:01:19Z</time>
      </trkpt>
      <trkpt lat="48.70242" lon="1.74678">
        <ele>148.53415</ele>
        <time>2014-08-12T11:01:23Z</time>
      </trkpt>
      <trkpt lat="48.70254" lon="1.74674">
        <ele>148.22174</ele>
        <time>2014-08-12T11:01:30Z</time>
      </trkpt>
      <trkpt lat="48.70259" lon="1.74673">
        <ele>148.22174</ele>
        <time>2014-08-12T11:01:33Z</time>
      </trkpt>
      <trkpt lat="48.70268" lon="1.7467">
        <ele>148.22513</ele>
        <time>2014-08-12T11:01:40Z</time>
      </trkpt>
      <trkpt lat="48.70276" lon="1.74665">
        <ele>148.22513</ele>
        <time>2014-08-12T11:01:44Z</time>
      </trkpt>
      <trkpt lat="48.70293" lon="1.74653">
        <ele>147.81299</ele>
        <time>2014-08-12T11:01:49Z</time>
      </trkpt>
      <trkpt lat="48.70303" lon="1.74647">
        <ele>147.34666</ele>
        <time>2014-08-12T11:01:54Z</time>
      </trkpt>
      <trkpt lat="48.7031" lon="1.74644">
        <ele>147.34666</ele>
        <time>2014-08-12T11:01:59Z</time>
      </trkpt>
      <trkpt lat="48.70317" lon="1.74643">
        <ele>147.10333</ele>
        <time>2014-08-12T11:02:04Z</time>
      </trkpt>
      <trkpt lat="48.70323" lon="1.74642">
        <ele>147.10333</ele>
        <time>2014-08-12T11:02:09Z</time>
      </trkpt>
      <trkpt lat="48.70323" lon="1.74642">
        <ele>147.10333</ele>
        <time>2014-08-12T11:02:14Z</time>
      </trkpt>
      <trkpt lat="48.70335" lon="1.74639">
        <ele>147.28152</ele>
        <time>2014-08-12T11:02:19Z</time>
      </trkpt>
      <trkpt lat="48.70344" lon="1.74636">
        <ele>147.54512</ele>
        <time>2014-08-12T11:02:24Z</time>
      </trkpt>
      <trkpt lat="48.70353" lon="1.74633">
        <ele>147.92838</ele>
        <time>2014-08-12T11:02:29Z</time>
      </trkpt>
      <trkpt lat="48.7036" lon="1.74629">
        <ele>147.92838</ele>
        <time>2014-08-12T11:02:34Z</time>
      </trkpt>
      <trkpt lat="48.70375" lon="1.7462">
        <ele>148.36176</ele>
        <time>2014-08-12T11:02:39Z</time>
      </trkpt>
      <trkpt lat="48.70385" lon="1.74617">
        <ele>148.70868</ele>
        <time>2014-08-12T11:02:44Z</time>
      </trkpt>
      <trkpt lat="48.70394" lon="1.74613">
        <ele>148.97253</ele>
        <time>2014-08-12T11:02:49Z</time>
      </trkpt>
      <trkpt lat="48.70399" lon="1.74609">
        <ele>148.97253</ele>
        <time>2014-08-12T11:02:52Z</time>
      </trkpt>
      <trkpt lat="48.70408" lon="1.74605">
        <ele>149.14232</ele>
        <time>2014-08-12T11:02:59Z</time>
      </trkpt>
      <trkpt lat="48.70416" lon="1.74602">
        <ele>149.14232</ele>
        <time>2014-08-12T11:03:04Z</time>
      </trkpt>
      <trkpt lat="48.70423" lon="1.746">
        <ele>149.53958</ele>
        <time>2014-08-12T11:03:09Z</time>
      </trkpt>
      <trkpt lat="48.70428" lon="1.74597">
        <ele>149.53958</ele>
        <time>2014-08-12T11:03:14Z</time>
      </trkpt>
      <trkpt lat="48.70432" lon="1.74592">
        <ele>150.21663</ele>
        <time>2014-08-12T11:03:19Z</time>
      </trkpt>
      <trkpt lat="48.70437" lon="1.74593">
        <ele>150.21663</ele>
        <time>2014-08-12T11:03:24Z</time>
      </trkpt>
      <trkpt lat="48.70445" lon="1.74587">
        <ele>150.9186</ele>
        <time>2014-08-12T11:03:29Z</time>
      </trkpt>
      <trkpt lat="48.70452" lon="1.74581">
        <ele>150.9186</ele>
        <time>2014-08-12T11:03:34Z</time>
      </trkpt>
      <trkpt lat="48.70457" lon="1.74576">
        <ele>151.65425</ele>
        <time>2014-08-12T11:03:39Z</time>
      </trkpt>
      <trkpt lat="48.70465" lon="1.7457">
        <ele>151.65425</ele>
        <time>2014-08-12T11:03:44Z</time>
      </trkpt>
      <trkpt lat="48.70471" lon="1.74564">
        <ele>152.51817</ele>
        <time>2014-08-12T11:03:49Z</time>
      </trkpt>
      <trkpt lat="48.70479" lon="1.74556">
        <ele>153.25185</ele>
        <time>2014-08-12T11:03:54Z</time>
      </trkpt>
      <trkpt lat="48.70484" lon="1.74548">
        <ele>153.25185</ele>
        <time>2014-08-12T11:03:59Z</time>
      </trkpt>
      <trkpt lat="48.70488" lon="1.74538">
        <ele>154.10614</ele>
        <time>2014-08-12T11:04:04Z</time>
      </trkpt>
      <trkpt lat="48.70491" lon="1.74519">
        <ele>155.05382</ele>
        <time>2014-08-12T11:04:09Z</time>
      </trkpt>
      <trkpt lat="48.70493" lon="1.74505">
        <ele>155.86772</ele>
        <time>2014-08-12T11:04:14Z</time>
      </trkpt>
      <trkpt lat="48.70496" lon="1.74496">
        <ele>155.86772</ele>
        <time>2014-08-12T11:04:19Z</time>
      </trkpt>
      <trkpt lat="48.70496" lon="1.74488">
        <ele>156.79903</ele>
        <time>2014-08-12T11:04:24Z</time>
      </trkpt>
      <trkpt lat="48.70496" lon="1.74476">
        <ele>156.79903</ele>
        <time>2014-08-12T11:04:29Z</time>
      </trkpt>
      <trkpt lat="48.70497" lon="1.74463">
        <ele>157.8352</ele>
        <time>2014-08-12T11:04:34Z</time>
      </trkpt>
      <trkpt lat="48.70499" lon="1.7445">
        <ele>157.8352</ele>
        <time>2014-08-12T11:04:39Z</time>
      </trkpt>
      <trkpt lat="48.70498" lon="1.74439">
        <ele>158.97884</ele>
        <time>2014-08-12T11:04:44Z</time>
      </trkpt>
      <trkpt lat="48.70499" lon="1.74427">
        <ele>158.97884</ele>
        <time>2014-08-12T11:04:49Z</time>
      </trkpt>
      <trkpt lat="48.70493" lon="1.74415">
        <ele>160.10248</ele>
        <time>2014-08-12T11:04:54Z</time>
      </trkpt>
      <trkpt lat="48.7049" lon="1.74402">
        <ele>160.10248</ele>
        <time>2014-08-12T11:04:59Z</time>
      </trkpt>
      <trkpt lat="48.70492" lon="1.74392">
        <ele>161.11697</ele>
        <time>2014-08-12T11:05:04Z</time>
      </trkpt>
      <trkpt lat="48.70492" lon="1.74382">
        <ele>161.11697</ele>
        <time>2014-08-12T11:05:09Z</time>
      </trkpt>
      <trkpt lat="48.70492" lon="1.74372">
        <ele>162.18515</ele>
        <time>2014-08-12T11:05:14Z</time>
      </trkpt>
      <trkpt lat="48.70493" lon="1.74357">
        <ele>163.21286</ele>
        <time>2014-08-12T11:05:19Z</time>
      </trkpt>
      <trkpt lat="48.70494" lon="1.74346">
        <ele>163.21286</ele>
        <time>2014-08-12T11:05:24Z</time>
      </trkpt>
      <trkpt lat="48.70496" lon="1.74338">
        <ele>164.17072</ele>
        <time>2014-08-12T11:05:29Z</time>
      </trkpt>
      <trkpt lat="48.70495" lon="1.74328">
        <ele>164.17072</ele>
        <time>2014-08-12T11:05:34Z</time>
      </trkpt>
      <trkpt lat="48.70495" lon="1.74314">
        <ele>165.01743</ele>
        <time>2014-08-12T11:05:39Z</time>
      </trkpt>
      <trkpt lat="48.70495" lon="1.74307">
        <ele>165.01743</ele>
        <time>2014-08-12T11:05:44Z</time>
      </trkpt>
      <trkpt lat="48.70499" lon="1.74292">
        <ele>165.94571</ele>
        <time>2014-08-12T11:05:49Z</time>
      </trkpt>
      <trkpt lat="48.70499" lon="1.74276">
        <ele>166.77376</ele>
        <time>2014-08-12T11:05:54Z</time>
      </trkpt>
      <trkpt lat="48.705" lon="1.74261">
        <ele>167.4344</ele>
        <time>2014-08-12T11:05:59Z</time>
      </trkpt>
      <trkpt lat="48.705" lon="1.7425">
        <ele>167.4344</ele>
        <time>2014-08-12T11:06:04Z</time>
      </trkpt>
      <trkpt lat="48.70501" lon="1.74236">
        <ele>168.05331</ele>
        <time>2014-08-12T11:06:09Z</time>
      </trkpt>
      <trkpt lat="48.70501" lon="1.74227">
        <ele>168.05331</ele>
        <time>2014-08-12T11:06:14Z</time>
      </trkpt>
      <trkpt lat="48.705" lon="1.74211">
        <ele>168.55984</ele>
        <time>2014-08-12T11:06:19Z</time>
      </trkpt>
      <trkpt lat="48.705" lon="1.74197">
        <ele>168.98982</ele>
        <time>2014-08-12T11:06:24Z</time>
      </trkpt>
      <trkpt lat="48.70501" lon="1.74188">
        <ele>168.98982</ele>
        <time>2014-08-12T11:06:29Z</time>
      </trkpt>
      <trkpt lat="48.70499" lon="1.74178">
        <ele>169.37675</ele>
        <time>2014-08-12T11:06:34Z</time>
      </trkpt>
      <trkpt lat="48.70498" lon="1.74161">
        <ele>169.6943</ele>
        <time>2014-08-12T11:06:39Z</time>
      </trkpt>
      <trkpt lat="48.70498" lon="1.74154">
        <ele>169.6943</ele>
        <time>2014-08-12T11:06:43Z</time>
      </trkpt>
      <trkpt lat="48.705" lon="1.74139">
        <ele>170.00479</ele>
        <time>2014-08-12T11:06:50Z</time>
      </trkpt>
      <trkpt lat="48.70501" lon="1.74135">
        <ele>170.00479</ele>
        <time>2014-08-12T11:06:54Z</time>
      </trkpt>
      <trkpt lat="48.70502" lon="1.74123">
        <ele>170.30841</ele>
        <time>2014-08-12T11:06:59Z</time>
      </trkpt>
      <trkpt lat="48.70503" lon="1.74111">
        <ele>170.30841</ele>
        <time>2014-08-12T11:07:04Z</time>
      </trkpt>
      <trkpt lat="48.70502" lon="1.74095">
        <ele>170.53342</ele>
        <time>2014-08-12T11:07:09Z</time>
      </trkpt>
      <trkpt lat="48.70501" lon="1.7408">
        <ele>170.64244</ele>
        <time>2014-08-12T11:07:14Z</time>
      </trkpt>
      <trkpt lat="48.705" lon="1.74066">
        <ele>170.6445</ele>
        <time>2014-08-12T11:07:19Z</time>
      </trkpt>
      <trkpt lat="48.70501" lon="1.7406">
        <ele>170.6445</ele>
        <time>2014-08-12T11:07:23Z</time>
      </trkpt>
      <trkpt lat="48.705" lon="1.74045">
        <ele>170.433</ele>
        <time>2014-08-12T11:07:30Z</time>
      </trkpt>
      <trkpt lat="48.705" lon="1.74039">
        <ele>170.433</ele>
        <time>2014-08-12T11:07:34Z</time>
      </trkpt>
      <trkpt lat="48.70501" lon="1.74029">
        <ele>170.14044</ele>
        <time>2014-08-12T11:07:38Z</time>
      </trkpt>
      <trkpt lat="48.70499" lon="1.74014">
        <ele>169.8322</ele>
        <time>2014-08-12T11:07:45Z</time>
      </trkpt>
      <trkpt lat="48.70498" lon="1.74009">
        <ele>169.8322</ele>
        <time>2014-08-12T11:07:48Z</time>
      </trkpt>
      <trkpt lat="48.70501" lon="1.73992">
        <ele>169.396</ele>
        <time>2014-08-12T11:07:54Z</time>
      </trkpt>
      <trkpt lat="48.70501" lon="1.73985">
        <ele>169.396</ele>
        <time>2014-08-12T11:07:58Z</time>
      </trkpt>
      <trkpt lat="48.705" lon="1.73969">
        <ele>168.90114</ele>
        <time>2014-08-12T11:08:02Z</time>
      </trkpt>
      <trkpt lat="48.70503" lon="1.7396">
        <ele>168.90114</ele>
        <time>2014-08-12T11:08:09Z</time>
      </trkpt>
      <trkpt lat="48.70504" lon="1.73951">
        <ele>168.2967</ele>
        <time>2014-08-12T11:08:14Z</time>
      </trkpt>
      <trkpt lat="48.70505" lon="1.73946">
        <ele>168.2967</ele>
        <time>2014-08-12T11:08:19Z</time>
      </trkpt>
      <trkpt lat="48.70505" lon="1.73938">
        <ele>168.2967</ele>
        <time>2014-08-12T11:08:24Z</time>
      </trkpt>
      <trkpt lat="48.70505" lon="1.73922">
        <ele>167.65118</ele>
        <time>2014-08-12T11:08:29Z</time>
      </trkpt>
      <trkpt lat="48.70504" lon="1.73915">
        <ele>167.65118</ele>
        <time>2014-08-12T11:08:33Z</time>
      </trkpt>
      <trkpt lat="48.70503" lon="1.73901">
        <ele>166.99928</ele>
        <time>2014-08-12T11:08:38Z</time>
      </trkpt>
      <trkpt lat="48.70507" lon="1.73889">
        <ele>166.99928</ele>
        <time>2014-08-12T11:08:42Z</time>
      </trkpt>
      <trkpt lat="48.70508" lon="1.73875">
        <ele>166.24347</ele>
        <time>2014-08-12T11:08:47Z</time>
      </trkpt>
      <trkpt lat="48.70509" lon="1.73866">
        <ele>166.24347</ele>
        <time>2014-08-12T11:08:52Z</time>
      </trkpt>
      <trkpt lat="48.70507" lon="1.73851">
        <ele>165.42336</ele>
        <time>2014-08-12T11:08:57Z</time>
      </trkpt>
      <trkpt lat="48.70506" lon="1.73838">
        <ele>165.42336</ele>
        <time>2014-08-12T11:09:04Z</time>
      </trkpt>
      <trkpt lat="48.70505" lon="1.73825">
        <ele>164.51819</ele>
        <time>2014-08-12T11:09:09Z</time>
      </trkpt>
      <trkpt lat="48.70506" lon="1.73812">
        <ele>163.62419</ele>
        <time>2014-08-12T11:09:14Z</time>
      </trkpt>
      <trkpt lat="48.70506" lon="1.73799">
        <ele>163.62419</ele>
        <time>2014-08-12T11:09:19Z</time>
      </trkpt>
      <trkpt lat="48.70507" lon="1.73791">
        <ele>162.87372</ele>
        <time>2014-08-12T11:09:24Z</time>
      </trkpt>
      <trkpt lat="48.70506" lon="1.73786">
        <ele>162.87372</ele>
        <time>2014-08-12T11:09:27Z</time>
      </trkpt>
      <trkpt lat="48.70504" lon="1.73775">
        <ele>162.20158</ele>
        <time>2014-08-12T11:09:34Z</time>
      </trkpt>
      <trkpt lat="48.70502" lon="1.7377">
        <ele>162.20158</ele>
        <time>2014-08-12T11:09:39Z</time>
      </trkpt>
      <trkpt lat="48.70495" lon="1.73765">
        <ele>161.69125</ele>
        <time>2014-08-12T11:09:49Z</time>
      </trkpt>
      <trkpt lat="48.70495" lon="1.73762">
        <ele>161.69125</ele>
        <time>2014-08-12T11:09:53Z</time>
      </trkpt>
      <trkpt lat="48.7049" lon="1.73757">
        <ele>161.69125</ele>
        <time>2014-08-12T11:10:00Z</time>
      </trkpt>
      <trkpt lat="48.70487" lon="1.73756">
        <ele>161.21776</ele>
        <time>2014-08-12T11:10:04Z</time>
      </trkpt>
      <trkpt lat="48.70476" lon="1.73755">
        <ele>160.83813</ele>
        <time>2014-08-12T11:10:09Z</time>
      </trkpt>
      <trkpt lat="48.70463" lon="1.73754">
        <ele>160.5472</ele>
        <time>2014-08-12T11:10:14Z</time>
      </trkpt>
      <trkpt lat="48.70451" lon="1.73751">
        <ele>160.32549</ele>
        <time>2014-08-12T11:10:19Z</time>
      </trkpt>
      <trkpt lat="48.70438" lon="1.73749">
        <ele>160.21233</ele>
        <time>2014-08-12T11:10:24Z</time>
      </trkpt>
      <trkpt lat="48.70423" lon="1.73747">
        <ele>160.17172</ele>
        <time>2014-08-12T11:10:29Z</time>
      </trkpt>
      <trkpt lat="48.7041" lon="1.73744">
        <ele>160.19891</ele>
        <time>2014-08-12T11:10:34Z</time>
      </trkpt>
      <trkpt lat="48.70395" lon="1.73742">
        <ele>160.20276</ele>
        <time>2014-08-12T11:10:39Z</time>
      </trkpt>
      <trkpt lat="48.70381" lon="1.73737">
        <ele>160.15646</ele>
        <time>2014-08-12T11:10:44Z</time>
      </trkpt>
      <trkpt lat="48.70357" lon="1.73734">
        <ele>160.10739</ele>
        <time>2014-08-12T11:10:49Z</time>
      </trkpt>
      <trkpt lat="48.70341" lon="1.7373">
        <ele>160.12814</ele>
        <time>2014-08-12T11:10:54Z</time>
      </trkpt>
      <trkpt lat="48.70327" lon="1.73726">
        <ele>160.2714</ele>
        <time>2014-08-12T11:10:59Z</time>
      </trkpt>
      <trkpt lat="48.70315" lon="1.73723">
        <ele>160.47023</ele>
        <time>2014-08-12T11:11:04Z</time>
      </trkpt>
      <trkpt lat="48.70299" lon="1.73722">
        <ele>160.6481</ele>
        <time>2014-08-12T11:11:09Z</time>
      </trkpt>
      <trkpt lat="48.70285" lon="1.73725">
        <ele>160.86377</ele>
        <time>2014-08-12T11:11:14Z</time>
      </trkpt>
      <trkpt lat="48.70268" lon="1.73724">
        <ele>161.12831</ele>
        <time>2014-08-12T11:11:19Z</time>
      </trkpt>
      <trkpt lat="48.70252" lon="1.73721">
        <ele>161.4086</ele>
        <time>2014-08-12T11:11:24Z</time>
      </trkpt>
      <trkpt lat="48.70237" lon="1.73718">
        <ele>161.77475</ele>
        <time>2014-08-12T11:11:29Z</time>
      </trkpt>
      <trkpt lat="48.70219" lon="1.73713">
        <ele>162.11856</ele>
        <time>2014-08-12T11:11:34Z</time>
      </trkpt>
      <trkpt lat="48.70201" lon="1.73711">
        <ele>162.36862</ele>
        <time>2014-08-12T11:11:39Z</time>
      </trkpt>
      <trkpt lat="48.70193" lon="1.73709">
        <ele>162.36862</ele>
        <time>2014-08-12T11:11:42Z</time>
      </trkpt>
      <trkpt lat="48.70178" lon="1.73708">
        <ele>162.76167</ele>
        <time>2014-08-12T11:11:47Z</time>
      </trkpt>
      <trkpt lat="48.7015" lon="1.73706">
        <ele>163.214</ele>
        <time>2014-08-12T11:11:55Z</time>
      </trkpt>
      <trkpt lat="48.70141" lon="1.73707">
        <ele>163.67673</ele>
        <time>2014-08-12T11:11:58Z</time>
      </trkpt>
      <trkpt lat="48.70127" lon="1.73708">
        <ele>164.16214</ele>
        <time>2014-08-12T11:12:03Z</time>
      </trkpt>
      <trkpt lat="48.70104" lon="1.73708">
        <ele>164.6528</ele>
        <time>2014-08-12T11:12:10Z</time>
      </trkpt>
      <trkpt lat="48.70096" lon="1.73707">
        <ele>164.6528</ele>
        <time>2014-08-12T11:12:13Z</time>
      </trkpt>
      <trkpt lat="48.70071" lon="1.73707">
        <ele>165.24777</ele>
        <time>2014-08-12T11:12:20Z</time>
      </trkpt>
      <trkpt lat="48.7006" lon="1.73704">
        <ele>165.80804</ele>
        <time>2014-08-12T11:12:24Z</time>
      </trkpt>
      <trkpt lat="48.70043" lon="1.73702">
        <ele>166.27693</ele>
        <time>2014-08-12T11:12:28Z</time>
      </trkpt>
      <trkpt lat="48.70025" lon="1.73701">
        <ele>166.73195</ele>
        <time>2014-08-12T11:12:34Z</time>
      </trkpt>
      <trkpt lat="48.70006" lon="1.73698">
        <ele>167.0864</ele>
        <time>2014-08-12T11:12:39Z</time>
      </trkpt>
      <trkpt lat="48.69988" lon="1.73694">
        <ele>167.4044</ele>
        <time>2014-08-12T11:12:44Z</time>
      </trkpt>
      <trkpt lat="48.69973" lon="1.73693">
        <ele>167.80313</ele>
        <time>2014-08-12T11:12:49Z</time>
      </trkpt>
      <trkpt lat="48.6996" lon="1.73696">
        <ele>168.24686</ele>
        <time>2014-08-12T11:12:53Z</time>
      </trkpt>
      <trkpt lat="48.6995" lon="1.73696">
        <ele>168.70235</ele>
        <time>2014-08-12T11:12:57Z</time>
      </trkpt>
      <trkpt lat="48.69934" lon="1.73694">
        <ele>169.16765</ele>
        <time>2014-08-12T11:13:02Z</time>
      </trkpt>
      <trkpt lat="48.69919" lon="1.73689">
        <ele>169.68419</ele>
        <time>2014-08-12T11:13:07Z</time>
      </trkpt>
      <trkpt lat="48.69901" lon="1.73686">
        <ele>170.23257</ele>
        <time>2014-08-12T11:13:12Z</time>
      </trkpt>
      <trkpt lat="48.69886" lon="1.7368">
        <ele>170.83804</ele>
        <time>2014-08-12T11:13:17Z</time>
      </trkpt>
      <trkpt lat="48.6987" lon="1.73675">
        <ele>171.48059</ele>
        <time>2014-08-12T11:13:22Z</time>
      </trkpt>
      <trkpt lat="48.69857" lon="1.73672">
        <ele>172.15605</ele>
        <time>2014-08-12T11:13:27Z</time>
      </trkpt>
      <trkpt lat="48.69847" lon="1.73671">
        <ele>172.90372</ele>
        <time>2014-08-12T11:13:32Z</time>
      </trkpt>
      <trkpt lat="48.69833" lon="1.73672">
        <ele>173.70218</ele>
        <time>2014-08-12T11:13:37Z</time>
      </trkpt>
      <trkpt lat="48.69823" lon="1.73674">
        <ele>174.44508</ele>
        <time>2014-08-12T11:13:42Z</time>
      </trkpt>
      <trkpt lat="48.69809" lon="1.73676">
        <ele>175.01962</ele>
        <time>2014-08-12T11:13:49Z</time>
      </trkpt>
      <trkpt lat="48.69801" lon="1.73677">
        <ele>175.01962</ele>
        <time>2014-08-12T11:13:52Z</time>
      </trkpt>
      <trkpt lat="48.69795" lon="1.73679">
        <ele>175.59564</ele>
        <time>2014-08-12T11:13:57Z</time>
      </trkpt>
      <trkpt lat="48.69789" lon="1.73676">
        <ele>175.59564</ele>
        <time>2014-08-12T11:14:02Z</time>
      </trkpt>
      <trkpt lat="48.69779" lon="1.73676">
        <ele>176.15756</ele>
        <time>2014-08-12T11:14:07Z</time>
      </trkpt>
      <trkpt lat="48.69772" lon="1.73681">
        <ele>176.15756</ele>
        <time>2014-08-12T11:14:12Z</time>
      </trkpt>
      <trkpt lat="48.69768" lon="1.73684">
        <ele>176.6767</ele>
        <time>2014-08-12T11:14:17Z</time>
      </trkpt>
      <trkpt lat="48.69765" lon="1.7369">
        <ele>176.6767</ele>
        <time>2014-08-12T11:14:22Z</time>
      </trkpt>
      <trkpt lat="48.69759" lon="1.73695">
        <ele>177.21303</ele>
        <time>2014-08-12T11:14:27Z</time>
      </trkpt>
      <trkpt lat="48.69755" lon="1.73702">
        <ele>177.21303</ele>
        <time>2014-08-12T11:14:32Z</time>
      </trkpt>
      <trkpt lat="48.69749" lon="1.73712">
        <ele>177.7501</ele>
        <time>2014-08-12T11:14:37Z</time>
      </trkpt>
      <trkpt lat="48.69744" lon="1.73723">
        <ele>178.22948</ele>
        <time>2014-08-12T11:14:42Z</time>
      </trkpt>
      <trkpt lat="48.6974" lon="1.73738">
        <ele>178.66928</ele>
        <time>2014-08-12T11:14:47Z</time>
      </trkpt>
      <trkpt lat="48.69736" lon="1.73751">
        <ele>179.01436</ele>
        <time>2014-08-12T11:14:52Z</time>
      </trkpt>
      <trkpt lat="48.6973" lon="1.7376">
        <ele>179.01436</ele>
        <time>2014-08-12T11:14:57Z</time>
      </trkpt>
      <trkpt lat="48.69724" lon="1.73766">
        <ele>179.37245</ele>
        <time>2014-08-12T11:15:02Z</time>
      </trkpt>
      <trkpt lat="48.69721" lon="1.73778">
        <ele>179.37245</ele>
        <time>2014-08-12T11:15:09Z</time>
      </trkpt>
      <trkpt lat="48.69715" lon="1.73786">
        <ele>179.71373</ele>
        <time>2014-08-12T11:15:13Z</time>
      </trkpt>
      <trkpt lat="48.69708" lon="1.73799">
        <ele>180.03938</ele>
        <time>2014-08-12T11:15:20Z</time>
      </trkpt>
      <trkpt lat="48.69704" lon="1.73808">
        <ele>180.03938</ele>
        <time>2014-08-12T11:15:24Z</time>
      </trkpt>
      <trkpt lat="48.69696" lon="1.7382">
        <ele>180.35063</ele>
        <time>2014-08-12T11:15:29Z</time>
      </trkpt>
      <trkpt lat="48.69695" lon="1.7383">
        <ele>180.35063</ele>
        <time>2014-08-12T11:15:34Z</time>
      </trkpt>
      <trkpt lat="48.69692" lon="1.73837">
        <ele>180.23074</ele>
        <time>2014-08-12T11:15:39Z</time>
      </trkpt>
      <trkpt lat="48.69688" lon="1.73845">
        <ele>180.23074</ele>
        <time>2014-08-12T11:15:44Z</time>
      </trkpt>
      <trkpt lat="48.69683" lon="1.73855">
        <ele>180.0442</ele>
        <time>2014-08-12T11:15:49Z</time>
      </trkpt>
      <trkpt lat="48.69678" lon="1.73865">
        <ele>180.0442</ele>
        <time>2014-08-12T11:15:54Z</time>
      </trkpt>
      <trkpt lat="48.69673" lon="1.73876">
        <ele>179.73984</ele>
        <time>2014-08-12T11:15:59Z</time>
      </trkpt>
      <trkpt lat="48.69668" lon="1.73883">
        <ele>179.73984</ele>
        <time>2014-08-12T11:16:04Z</time>
      </trkpt>
      <trkpt lat="48.69661" lon="1.73893">
        <ele>179.37143</ele>
        <time>2014-08-12T11:16:09Z</time>
      </trkpt>
      <trkpt lat="48.69656" lon="1.73903">
        <ele>179.37143</ele>
        <time>2014-08-12T11:16:14Z</time>
      </trkpt>
      <trkpt lat="48.69653" lon="1.73913">
        <ele>179.0899</ele>
        <time>2014-08-12T11:16:19Z</time>
      </trkpt>
      <trkpt lat="48.6965" lon="1.73925">
        <ele>179.0899</ele>
        <time>2014-08-12T11:16:24Z</time>
      </trkpt>
      <trkpt lat="48.69646" lon="1.73936">
        <ele>178.9772</ele>
        <time>2014-08-12T11:16:29Z</time>
      </trkpt>
      <trkpt lat="48.69641" lon="1.73943">
        <ele>178.9772</ele>
        <time>2014-08-12T11:16:34Z</time>
      </trkpt>
      <trkpt lat="48.69635" lon="1.73953">
        <ele>178.86377</ele>
        <time>2014-08-12T11:16:38Z</time>
      </trkpt>
      <trkpt lat="48.69628" lon="1.73961">
        <ele>178.86377</ele>
        <time>2014-08-12T11:16:45Z</time>
      </trkpt>
      <trkpt lat="48.69625" lon="1.73966">
        <ele>178.67897</ele>
        <time>2014-08-12T11:16:49Z</time>
      </trkpt>
      <trkpt lat="48.69617" lon="1.73979">
        <ele>178.50165</ele>
        <time>2014-08-12T11:16:54Z</time>
      </trkpt>
      <trkpt lat="48.69612" lon="1.73987">
        <ele>178.50165</ele>
        <time>2014-08-12T11:16:59Z</time>
      </trkpt>
      <trkpt lat="48.69606" lon="1.73996">
        <ele>178.376</ele>
        <time>2014-08-12T11:17:04Z</time>
      </trkpt>
      <trkpt lat="48.69602" lon="1.74002">
        <ele>178.376</ele>
        <time>2014-08-12T11:17:09Z</time>
      </trkpt>
      <trkpt lat="48.69597" lon="1.74018">
        <ele>178.14108</ele>
        <time>2014-08-12T11:17:14Z</time>
      </trkpt>
      <trkpt lat="48.69592" lon="1.74031">
        <ele>177.74889</ele>
        <time>2014-08-12T11:17:19Z</time>
      </trkpt>
      <trkpt lat="48.69586" lon="1.7404">
        <ele>177.74889</ele>
        <time>2014-08-12T11:17:24Z</time>
      </trkpt>
      <trkpt lat="48.69581" lon="1.74049">
        <ele>177.16978</ele>
        <time>2014-08-12T11:17:29Z</time>
      </trkpt>
      <trkpt lat="48.69575" lon="1.7407">
        <ele>176.56416</ele>
        <time>2014-08-12T11:17:34Z</time>
      </trkpt>
      <trkpt lat="48.69572" lon="1.74082">
        <ele>176.56416</ele>
        <time>2014-08-12T11:17:39Z</time>
      </trkpt>
      <trkpt lat="48.69565" lon="1.74091">
        <ele>175.85008</ele>
        <time>2014-08-12T11:17:44Z</time>
      </trkpt>
      <trkpt lat="48.69558" lon="1.74098">
        <ele>175.85008</ele>
        <time>2014-08-12T11:17:49Z</time>
      </trkpt>
      <trkpt lat="48.69554" lon="1.74105">
        <ele>175.12482</ele>
        <time>2014-08-12T11:17:54Z</time>
      </trkpt>
      <trkpt lat="48.69549" lon="1.74113">
        <ele>175.12482</ele>
        <time>2014-08-12T11:17:59Z</time>
      </trkpt>
      <trkpt lat="48.69543" lon="1.74126">
        <ele>174.47847</ele>
        <time>2014-08-12T11:18:04Z</time>
      </trkpt>
      <trkpt lat="48.69539" lon="1.74139">
        <ele>173.8646</ele>
        <time>2014-08-12T11:18:09Z</time>
      </trkpt>
      <trkpt lat="48.69535" lon="1.7415">
        <ele>173.8646</ele>
        <time>2014-08-12T11:18:14Z</time>
      </trkpt>
      <trkpt lat="48.6953" lon="1.74163">
        <ele>173.18231</ele>
        <time>2014-08-12T11:18:19Z</time>
      </trkpt>
      <trkpt lat="48.69524" lon="1.74173">
        <ele>173.18231</ele>
        <time>2014-08-12T11:18:23Z</time>
      </trkpt>
      <trkpt lat="48.69518" lon="1.74182">
        <ele>172.46803</ele>
        <time>2014-08-12T11:18:29Z</time>
      </trkpt>
      <trkpt lat="48.69513" lon="1.7419">
        <ele>172.46803</ele>
        <time>2014-08-12T11:18:34Z</time>
      </trkpt>
      <trkpt lat="48.69509" lon="1.742">
        <ele>171.61137</ele>
        <time>2014-08-12T11:18:39Z</time>
      </trkpt>
      <trkpt lat="48.69503" lon="1.7421">
        <ele>171.61137</ele>
        <time>2014-08-12T11:18:44Z</time>
      </trkpt>
      <trkpt lat="48.69499" lon="1.74221">
        <ele>170.66893</ele>
        <time>2014-08-12T11:18:49Z</time>
      </trkpt>
      <trkpt lat="48.69493" lon="1.74231">
        <ele>170.66893</ele>
        <time>2014-08-12T11:18:54Z</time>
      </trkpt>
      <trkpt lat="48.69488" lon="1.74241">
        <ele>169.82304</ele>
        <time>2014-08-12T11:18:59Z</time>
      </trkpt>
      <trkpt lat="48.69483" lon="1.7425">
        <ele>169.82304</ele>
        <time>2014-08-12T11:19:04Z</time>
      </trkpt>
      <trkpt lat="48.69477" lon="1.74259">
        <ele>169.01167</ele>
        <time>2014-08-12T11:19:09Z</time>
      </trkpt>
      <trkpt lat="48.69472" lon="1.74269">
        <ele>169.01167</ele>
        <time>2014-08-12T11:19:14Z</time>
      </trkpt>
      <trkpt lat="48.69467" lon="1.74278">
        <ele>168.2781</ele>
        <time>2014-08-12T11:19:19Z</time>
      </trkpt>
      <trkpt lat="48.69463" lon="1.74287">
        <ele>168.2781</ele>
        <time>2014-08-12T11:19:24Z</time>
      </trkpt>
      <trkpt lat="48.69458" lon="1.74296">
        <ele>167.66212</ele>
        <time>2014-08-12T11:19:29Z</time>
      </trkpt>
      <trkpt lat="48.69452" lon="1.74306">
        <ele>167.66212</ele>
        <time>2014-08-12T11:19:34Z</time>
      </trkpt>
      <trkpt lat="48.69448" lon="1.7432">
        <ele>167.18578</ele>
        <time>2014-08-12T11:19:39Z</time>
      </trkpt>
      <trkpt lat="48.69446" lon="1.7433">
        <ele>167.18578</ele>
        <time>2014-08-12T11:19:44Z</time>
      </trkpt>
      <trkpt lat="48.6944" lon="1.74339">
        <ele>166.60962</ele>
        <time>2014-08-12T11:19:49Z</time>
      </trkpt>
      <trkpt lat="48.69435" lon="1.74349">
        <ele>166.60962</ele>
        <time>2014-08-12T11:19:54Z</time>
      </trkpt>
      <trkpt lat="48.6943" lon="1.7436">
        <ele>166.01462</ele>
        <time>2014-08-12T11:19:59Z</time>
      </trkpt>
      <trkpt lat="48.69425" lon="1.74366">
        <ele>166.01462</ele>
        <time>2014-08-12T11:20:04Z</time>
      </trkpt>
      <trkpt lat="48.69419" lon="1.74378">
        <ele>165.30289</ele>
        <time>2014-08-12T11:20:09Z</time>
      </trkpt>
      <trkpt lat="48.69412" lon="1.7439">
        <ele>164.65773</ele>
        <time>2014-08-12T11:20:14Z</time>
      </trkpt>
      <trkpt lat="48.69408" lon="1.74401">
        <ele>164.65773</ele>
        <time>2014-08-12T11:20:18Z</time>
      </trkpt>
      <trkpt lat="48.69401" lon="1.74412">
        <ele>163.91733</ele>
        <time>2014-08-12T11:20:25Z</time>
      </trkpt>
      <trkpt lat="48.69398" lon="1.7442">
        <ele>163.91733</ele>
        <time>2014-08-12T11:20:29Z</time>
      </trkpt>
      <trkpt lat="48.69395" lon="1.74427">
        <ele>163.26335</ele>
        <time>2014-08-12T11:20:33Z</time>
      </trkpt>
      <trkpt lat="48.69389" lon="1.74439">
        <ele>162.59001</ele>
        <time>2014-08-12T11:20:40Z</time>
      </trkpt>
      <trkpt lat="48.69384" lon="1.74444">
        <ele>162.59001</ele>
        <time>2014-08-12T11:20:44Z</time>
      </trkpt>
      <trkpt lat="48.69378" lon="1.74453">
        <ele>161.95782</ele>
        <time>2014-08-12T11:20:49Z</time>
      </trkpt>
      <trkpt lat="48.69372" lon="1.74465">
        <ele>161.39383</ele>
        <time>2014-08-12T11:20:54Z</time>
      </trkpt>
      <trkpt lat="48.69368" lon="1.74473">
        <ele>161.39383</ele>
        <time>2014-08-12T11:20:59Z</time>
      </trkpt>
      <trkpt lat="48.69365" lon="1.7448">
        <ele>160.89398</ele>
        <time>2014-08-12T11:21:04Z</time>
      </trkpt>
      <trkpt lat="48.69359" lon="1.74494">
        <ele>160.35344</ele>
        <time>2014-08-12T11:21:09Z</time>
      </trkpt>
      <trkpt lat="48.69351" lon="1.74502">
        <ele>160.35344</ele>
        <time>2014-08-12T11:21:14Z</time>
      </trkpt>
      <trkpt lat="48.69346" lon="1.74515">
        <ele>159.89127</ele>
        <time>2014-08-12T11:21:19Z</time>
      </trkpt>
      <trkpt lat="48.69342" lon="1.74523">
        <ele>159.89127</ele>
        <time>2014-08-12T11:21:24Z</time>
      </trkpt>
      <trkpt lat="48.69337" lon="1.74531">
        <ele>159.41574</ele>
        <time>2014-08-12T11:21:29Z</time>
      </trkpt>
      <trkpt lat="48.69333" lon="1.74538">
        <ele>159.41574</ele>
        <time>2014-08-12T11:21:34Z</time>
      </trkpt>
      <trkpt lat="48.69329" lon="1.74549">
        <ele>158.92831</ele>
        <time>2014-08-12T11:21:39Z</time>
      </trkpt>
      <trkpt lat="48.69323" lon="1.74561">
        <ele>158.44476</ele>
        <time>2014-08-12T11:21:44Z</time>
      </trkpt>
      <trkpt lat="48.69318" lon="1.74573">
        <ele>157.9796</ele>
        <time>2014-08-12T11:21:49Z</time>
      </trkpt>
      <trkpt lat="48.69311" lon="1.74584">
        <ele>157.53177</ele>
        <time>2014-08-12T11:21:54Z</time>
      </trkpt>
      <trkpt lat="48.69305" lon="1.74593">
        <ele>157.53177</ele>
        <time>2014-08-12T11:21:59Z</time>
      </trkpt>
      <trkpt lat="48.693" lon="1.74604">
        <ele>157.24431</ele>
        <time>2014-08-12T11:22:04Z</time>
      </trkpt>
      <trkpt lat="48.69296" lon="1.74614">
        <ele>157.24431</ele>
        <time>2014-08-12T11:22:09Z</time>
      </trkpt>
      <trkpt lat="48.69291" lon="1.74626">
        <ele>156.96106</ele>
        <time>2014-08-12T11:22:14Z</time>
      </trkpt>
      <trkpt lat="48.69288" lon="1.74636">
        <ele>156.96106</ele>
        <time>2014-08-12T11:22:19Z</time>
      </trkpt>
      <trkpt lat="48.69287" lon="1.74644">
        <ele>156.65251</ele>
        <time>2014-08-12T11:22:24Z</time>
      </trkpt>
      <trkpt lat="48.69282" lon="1.74655">
        <ele>156.65251</ele>
        <time>2014-08-12T11:22:29Z</time>
      </trkpt>
      <trkpt lat="48.69276" lon="1.74664">
        <ele>156.40671</ele>
        <time>2014-08-12T11:22:34Z</time>
      </trkpt>
      <trkpt lat="48.69271" lon="1.74673">
        <ele>156.40671</ele>
        <time>2014-08-12T11:22:39Z</time>
      </trkpt>
      <trkpt lat="48.69265" lon="1.74682">
        <ele>156.14647</ele>
        <time>2014-08-12T11:22:44Z</time>
      </trkpt>
      <trkpt lat="48.69261" lon="1.74692">
        <ele>156.14647</ele>
        <time>2014-08-12T11:22:49Z</time>
      </trkpt>
      <trkpt lat="48.69257" lon="1.74702">
        <ele>155.81471</ele>
        <time>2014-08-12T11:22:54Z</time>
      </trkpt>
      <trkpt lat="48.69253" lon="1.74713">
        <ele>155.81471</ele>
        <time>2014-08-12T11:22:59Z</time>
      </trkpt>
      <trkpt lat="48.69247" lon="1.74724">
        <ele>155.41637</ele>
        <time>2014-08-12T11:23:04Z</time>
      </trkpt>
      <trkpt lat="48.69242" lon="1.74734">
        <ele>155.41637</ele>
        <time>2014-08-12T11:23:09Z</time>
      </trkpt>
      <trkpt lat="48.69237" lon="1.74742">
        <ele>154.95615</ele>
        <time>2014-08-12T11:23:14Z</time>
      </trkpt>
      <trkpt lat="48.69231" lon="1.74752">
        <ele>154.95615</ele>
        <time>2014-08-12T11:23:19Z</time>
      </trkpt>
      <trkpt lat="48.69225" lon="1.74762">
        <ele>154.3233</ele>
        <time>2014-08-12T11:23:24Z</time>
      </trkpt>
      <trkpt lat="48.69221" lon="1.74774">
        <ele>154.3233</ele>
        <time>2014-08-12T11:23:29Z</time>
      </trkpt>
      <trkpt lat="48.69216" lon="1.74785">
        <ele>153.55983</ele>
        <time>2014-08-12T11:23:34Z</time>
      </trkpt>
      <trkpt lat="48.69211" lon="1.74795">
        <ele>153.55983</ele>
        <time>2014-08-12T11:23:39Z</time>
      </trkpt>
      <trkpt lat="48.69206" lon="1.74802">
        <ele>152.74814</ele>
        <time>2014-08-12T11:23:44Z</time>
      </trkpt>
      <trkpt lat="48.69201" lon="1.74811">
        <ele>152.74814</ele>
        <time>2014-08-12T11:23:49Z</time>
      </trkpt>
      <trkpt lat="48.69198" lon="1.74819">
        <ele>151.96478</ele>
        <time>2014-08-12T11:23:54Z</time>
      </trkpt>
      <trkpt lat="48.69195" lon="1.74829">
        <ele>151.96478</ele>
        <time>2014-08-12T11:23:57Z</time>
      </trkpt>
      <trkpt lat="48.69189" lon="1.74841">
        <ele>151.17967</ele>
        <time>2014-08-12T11:24:03Z</time>
      </trkpt>
      <trkpt lat="48.69185" lon="1.74849">
        <ele>151.17967</ele>
        <time>2014-08-12T11:24:07Z</time>
      </trkpt>
      <trkpt lat="48.69177" lon="1.7486">
        <ele>150.40814</ele>
        <time>2014-08-12T11:24:14Z</time>
      </trkpt>
      <trkpt lat="48.69172" lon="1.7487">
        <ele>150.40814</ele>
        <time>2014-08-12T11:24:19Z</time>
      </trkpt>
      <trkpt lat="48.69166" lon="1.74882">
        <ele>149.64996</ele>
        <time>2014-08-12T11:24:24Z</time>
      </trkpt>
      <trkpt lat="48.69161" lon="1.7489">
        <ele>149.64996</ele>
        <time>2014-08-12T11:24:29Z</time>
      </trkpt>
      <trkpt lat="48.69158" lon="1.749">
        <ele>148.876</ele>
        <time>2014-08-12T11:24:34Z</time>
      </trkpt>
      <trkpt lat="48.69153" lon="1.74908">
        <ele>148.876</ele>
        <time>2014-08-12T11:24:39Z</time>
      </trkpt>
      <trkpt lat="48.6915" lon="1.74916">
        <ele>148.05931</ele>
        <time>2014-08-12T11:24:44Z</time>
      </trkpt>
      <trkpt lat="48.69145" lon="1.74925">
        <ele>148.05931</ele>
        <time>2014-08-12T11:24:49Z</time>
      </trkpt>
      <trkpt lat="48.6914" lon="1.74935">
        <ele>147.08855</ele>
        <time>2014-08-12T11:24:54Z</time>
      </trkpt>
      <trkpt lat="48.69138" lon="1.74944">
        <ele>147.08855</ele>
        <time>2014-08-12T11:24:59Z</time>
      </trkpt>
      <trkpt lat="48.69133" lon="1.74954">
        <ele>146.0627</ele>
        <time>2014-08-12T11:25:04Z</time>
      </trkpt>
      <trkpt lat="48.69127" lon="1.74961">
        <ele>146.0627</ele>
        <time>2014-08-12T11:25:09Z</time>
      </trkpt>
      <trkpt lat="48.69123" lon="1.74969">
        <ele>145.0592</ele>
        <time>2014-08-12T11:25:14Z</time>
      </trkpt>
      <trkpt lat="48.69118" lon="1.74973">
        <ele>145.0592</ele>
        <time>2014-08-12T11:25:19Z</time>
      </trkpt>
      <trkpt lat="48.69113" lon="1.74978">
        <ele>143.99121</ele>
        <time>2014-08-12T11:25:23Z</time>
      </trkpt>
      <trkpt lat="48.69108" lon="1.74987">
        <ele>143.99121</ele>
        <time>2014-08-12T11:25:29Z</time>
      </trkpt>
      <trkpt lat="48.69102" lon="1.75004">
        <ele>142.95134</ele>
        <time>2014-08-12T11:25:34Z</time>
      </trkpt>
      <trkpt lat="48.69101" lon="1.75012">
        <ele>142.95134</ele>
        <time>2014-08-12T11:25:39Z</time>
      </trkpt>
      <trkpt lat="48.69094" lon="1.75023">
        <ele>141.93878</ele>
        <time>2014-08-12T11:25:44Z</time>
      </trkpt>
      <trkpt lat="48.69091" lon="1.75029">
        <ele>141.93878</ele>
        <time>2014-08-12T11:25:48Z</time>
      </trkpt>
      <trkpt lat="48.69087" lon="1.75038">
        <ele>140.82304</ele>
        <time>2014-08-12T11:25:55Z</time>
      </trkpt>
      <trkpt lat="48.69087" lon="1.75048">
        <ele>140.82304</ele>
        <time>2014-08-12T11:25:59Z</time>
      </trkpt>
      <trkpt lat="48.69081" lon="1.75058">
        <ele>139.62753</ele>
        <time>2014-08-12T11:26:04Z</time>
      </trkpt>
      <trkpt lat="48.69074" lon="1.7507">
        <ele>138.47504</ele>
        <time>2014-08-12T11:26:09Z</time>
      </trkpt>
      <trkpt lat="48.69068" lon="1.7508">
        <ele>138.47504</ele>
        <time>2014-08-12T11:26:14Z</time>
      </trkpt>
      <trkpt lat="48.69048" lon="1.75119">
        <ele>137.4359</ele>
        <time>2014-08-12T11:26:19Z</time>
      </trkpt>
      <trkpt lat="48.69031" lon="1.7515">
        <ele>136.4885</ele>
        <time>2014-08-12T11:26:24Z</time>
      </trkpt>
      <trkpt lat="48.6902" lon="1.75173">
        <ele>135.71338</ele>
        <time>2014-08-12T11:26:29Z</time>
      </trkpt>
      <trkpt lat="48.69008" lon="1.75194">
        <ele>135.08377</ele>
        <time>2014-08-12T11:26:33Z</time>
      </trkpt>
      <trkpt lat="48.68992" lon="1.75229">
        <ele>134.50233</ele>
        <time>2014-08-12T11:26:38Z</time>
      </trkpt>
      <trkpt lat="48.68976" lon="1.75259">
        <ele>133.96524</ele>
        <time>2014-08-12T11:26:44Z</time>
      </trkpt>
      <trkpt lat="48.68959" lon="1.75283">
        <ele>133.3967</ele>
        <time>2014-08-12T11:26:49Z</time>
      </trkpt>
      <trkpt lat="48.6894" lon="1.75321">
        <ele>132.84181</ele>
        <time>2014-08-12T11:26:54Z</time>
      </trkpt>
      <trkpt lat="48.68928" lon="1.75349">
        <ele>132.31354</ele>
        <time>2014-08-12T11:26:59Z</time>
      </trkpt>
      <trkpt lat="48.68922" lon="1.75369">
        <ele>131.82375</ele>
        <time>2014-08-12T11:27:02Z</time>
      </trkpt>
      <trkpt lat="48.68915" lon="1.75406">
        <ele>131.34009</ele>
        <time>2014-08-12T11:27:07Z</time>
      </trkpt>
      <trkpt lat="48.68905" lon="1.75456">
        <ele>130.83258</ele>
        <time>2014-08-12T11:27:14Z</time>
      </trkpt>
      <trkpt lat="48.68896" lon="1.75488">
        <ele>130.34554</ele>
        <time>2014-08-12T11:27:19Z</time>
      </trkpt>
      <trkpt lat="48.68886" lon="1.75521">
        <ele>129.89111</ele>
        <time>2014-08-12T11:27:24Z</time>
      </trkpt>
      <trkpt lat="48.68881" lon="1.7557">
        <ele>129.45168</ele>
        <time>2014-08-12T11:27:29Z</time>
      </trkpt>
      <trkpt lat="48.68876" lon="1.75605">
        <ele>129.03967</ele>
        <time>2014-08-12T11:27:34Z</time>
      </trkpt>
      <trkpt lat="48.68872" lon="1.7563">
        <ele>128.63771</ele>
        <time>2014-08-12T11:27:39Z</time>
      </trkpt>
      <trkpt lat="48.68871" lon="1.7565">
        <ele>128.2585</ele>
        <time>2014-08-12T11:27:44Z</time>
      </trkpt>
      <trkpt lat="48.68865" lon="1.75672">
        <ele>127.87051</ele>
        <time>2014-08-12T11:27:49Z</time>
      </trkpt>
      <trkpt lat="48.6886" lon="1.75685">
        <ele>127.51662</ele>
        <time>2014-08-12T11:27:54Z</time>
      </trkpt>
      <trkpt lat="48.68857" lon="1.75697">
        <ele>127.51662</ele>
        <time>2014-08-12T11:27:58Z</time>
      </trkpt>
      <trkpt lat="48.68855" lon="1.75714">
        <ele>127.07795</ele>
        <time>2014-08-12T11:28:04Z</time>
      </trkpt>
      <trkpt lat="48.68852" lon="1.75726">
        <ele>126.63196</ele>
        <time>2014-08-12T11:28:09Z</time>
      </trkpt>
      <trkpt lat="48.68854" lon="1.75735">
        <ele>126.63196</ele>
        <time>2014-08-12T11:28:14Z</time>
      </trkpt>
      <trkpt lat="48.68851" lon="1.75755">
        <ele>126.13515</ele>
        <time>2014-08-12T11:28:19Z</time>
      </trkpt>
      <trkpt lat="48.68848" lon="1.75763">
        <ele>126.13515</ele>
        <time>2014-08-12T11:28:24Z</time>
      </trkpt>
      <trkpt lat="48.68843" lon="1.75767">
        <ele>125.64826</ele>
        <time>2014-08-12T11:28:29Z</time>
      </trkpt>
      <trkpt lat="48.68835" lon="1.7577">
        <ele>125.64826</ele>
        <time>2014-08-12T11:28:34Z</time>
      </trkpt>
      <trkpt lat="48.6883" lon="1.75769">
        <ele>125.22756</ele>
        <time>2014-08-12T11:28:39Z</time>
      </trkpt>
      <trkpt lat="48.68819" lon="1.75767">
        <ele>124.85297</ele>
        <time>2014-08-12T11:28:44Z</time>
      </trkpt>
      <trkpt lat="48.68814" lon="1.75767">
        <ele>124.85297</ele>
        <time>2014-08-12T11:28:49Z</time>
      </trkpt>
      <trkpt lat="48.68807" lon="1.75761">
        <ele>124.46252</ele>
        <time>2014-08-12T11:28:54Z</time>
      </trkpt>
      <trkpt lat="48.68804" lon="1.75755">
        <ele>124.46252</ele>
        <time>2014-08-12T11:28:59Z</time>
      </trkpt>
      <trkpt lat="48.68798" lon="1.75751">
        <ele>124.04211</ele>
        <time>2014-08-12T11:29:03Z</time>
      </trkpt>
      <trkpt lat="48.68788" lon="1.75751">
        <ele>123.621994</ele>
        <time>2014-08-12T11:29:10Z</time>
      </trkpt>
      <trkpt lat="48.68785" lon="1.75752">
        <ele>123.621994</ele>
        <time>2014-08-12T11:29:14Z</time>
      </trkpt>
      <trkpt lat="48.68775" lon="1.75755">
        <ele>123.18703</ele>
        <time>2014-08-12T11:29:19Z</time>
      </trkpt>
      <trkpt lat="48.68768" lon="1.75754">
        <ele>123.18703</ele>
        <time>2014-08-12T11:29:24Z</time>
      </trkpt>
      <trkpt lat="48.6876" lon="1.75755">
        <ele>122.70879</ele>
        <time>2014-08-12T11:29:29Z</time>
      </trkpt>
      <trkpt lat="48.68754" lon="1.75757">
        <ele>122.70879</ele>
        <time>2014-08-12T11:29:34Z</time>
      </trkpt>
      <trkpt lat="48.68744" lon="1.75763">
        <ele>122.17553</ele>
        <time>2014-08-12T11:29:39Z</time>
      </trkpt>
      <trkpt lat="48.6873" lon="1.7577">
        <ele>121.69182</ele>
        <time>2014-08-12T11:29:44Z</time>
      </trkpt>
      <trkpt lat="48.68721" lon="1.75777">
        <ele>121.25355</ele>
        <time>2014-08-12T11:29:49Z</time>
      </trkpt>
      <trkpt lat="48.68714" lon="1.75782">
        <ele>121.25355</ele>
        <time>2014-08-12T11:29:54Z</time>
      </trkpt>
      <trkpt lat="48.68707" lon="1.75782">
        <ele>120.84239</ele>
        <time>2014-08-12T11:29:59Z</time>
      </trkpt>
      <trkpt lat="48.68702" lon="1.75787">
        <ele>120.84239</ele>
        <time>2014-08-12T11:30:04Z</time>
      </trkpt>
      <trkpt lat="48.68696" lon="1.75789">
        <ele>120.5278</ele>
        <time>2014-08-12T11:30:10Z</time>
      </trkpt>
      <trkpt lat="48.68689" lon="1.75791">
        <ele>120.5278</ele>
        <time>2014-08-12T11:30:14Z</time>
      </trkpt>
      <trkpt lat="48.68678" lon="1.75788">
        <ele>120.3162</ele>
        <time>2014-08-12T11:30:19Z</time>
      </trkpt>
      <trkpt lat="48.68668" lon="1.7579">
        <ele>120.15567</ele>
        <time>2014-08-12T11:30:24Z</time>
      </trkpt>
      <trkpt lat="48.68663" lon="1.75787">
        <ele>120.15567</ele>
        <time>2014-08-12T11:30:29Z</time>
      </trkpt>
      <trkpt lat="48.68659" lon="1.75784">
        <ele>120.02678</ele>
        <time>2014-08-12T11:30:34Z</time>
      </trkpt>
      <trkpt lat="48.68649" lon="1.75779">
        <ele>119.911476</ele>
        <time>2014-08-12T11:30:39Z</time>
      </trkpt>
      <trkpt lat="48.68641" lon="1.75776">
        <ele>119.911476</ele>
        <time>2014-08-12T11:30:44Z</time>
      </trkpt>
      <trkpt lat="48.68631" lon="1.75775">
        <ele>119.92273</ele>
        <time>2014-08-12T11:30:49Z</time>
      </trkpt>
      <trkpt lat="48.6862" lon="1.75779">
        <ele>120.02075</ele>
        <time>2014-08-12T11:30:54Z</time>
      </trkpt>
      <trkpt lat="48.68612" lon="1.7578">
        <ele>120.02075</ele>
        <time>2014-08-12T11:30:59Z</time>
      </trkpt>
      <trkpt lat="48.68604" lon="1.75785">
        <ele>120.26938</ele>
        <time>2014-08-12T11:31:04Z</time>
      </trkpt>
      <trkpt lat="48.68598" lon="1.75791">
        <ele>120.26938</ele>
        <time>2014-08-12T11:31:09Z</time>
      </trkpt>
      <trkpt lat="48.68592" lon="1.75793">
        <ele>120.59765</ele>
        <time>2014-08-12T11:31:14Z</time>
      </trkpt>
      <trkpt lat="48.68587" lon="1.75794">
        <ele>120.59765</ele>
        <time>2014-08-12T11:31:18Z</time>
      </trkpt>
      <trkpt lat="48.68578" lon="1.758">
        <ele>121.01169</ele>
        <time>2014-08-12T11:31:24Z</time>
      </trkpt>
      <trkpt lat="48.68569" lon="1.75802">
        <ele>121.01169</ele>
        <time>2014-08-12T11:31:29Z</time>
      </trkpt>
      <trkpt lat="48.68564" lon="1.75798">
        <ele>121.43052</ele>
        <time>2014-08-12T11:31:34Z</time>
      </trkpt>
      <trkpt lat="48.68556" lon="1.75796">
        <ele>121.43052</ele>
        <time>2014-08-12T11:31:39Z</time>
      </trkpt>
      <trkpt lat="48.68553" lon="1.75786">
        <ele>121.95207</ele>
        <time>2014-08-12T11:31:44Z</time>
      </trkpt>
      <trkpt lat="48.6855" lon="1.75775">
        <ele>121.95207</ele>
        <time>2014-08-12T11:31:49Z</time>
      </trkpt>
      <trkpt lat="48.68546" lon="1.75771">
        <ele>122.43629</ele>
        <time>2014-08-12T11:31:54Z</time>
      </trkpt>
      <trkpt lat="48.68547" lon="1.75744">
        <ele>122.92646</ele>
        <time>2014-08-12T11:32:04Z</time>
      </trkpt>
      <trkpt lat="48.68546" lon="1.75721">
        <ele>123.39073</ele>
        <time>2014-08-12T11:32:09Z</time>
      </trkpt>
      <trkpt lat="48.6854" lon="1.75691">
        <ele>123.92938</ele>
        <time>2014-08-12T11:32:14Z</time>
      </trkpt>
      <trkpt lat="48.68537" lon="1.75668">
        <ele>124.57757</ele>
        <time>2014-08-12T11:32:19Z</time>
      </trkpt>
      <trkpt lat="48.68533" lon="1.75644">
        <ele>125.237915</ele>
        <time>2014-08-12T11:32:24Z</time>
      </trkpt>
      <trkpt lat="48.68527" lon="1.75608">
        <ele>125.84907</ele>
        <time>2014-08-12T11:32:29Z</time>
      </trkpt>
      <trkpt lat="48.68524" lon="1.75587">
        <ele>126.45526</ele>
        <time>2014-08-12T11:32:33Z</time>
      </trkpt>
      <trkpt lat="48.68518" lon="1.75542">
        <ele>127.14081</ele>
        <time>2014-08-12T11:32:40Z</time>
      </trkpt>
      <trkpt lat="48.68513" lon="1.75511">
        <ele>127.86841</ele>
        <time>2014-08-12T11:32:44Z</time>
      </trkpt>
      <trkpt lat="48.68506" lon="1.75461">
        <ele>128.74756</ele>
        <time>2014-08-12T11:32:49Z</time>
      </trkpt>
      <trkpt lat="48.68505" lon="1.75445">
        <ele>129.62</ele>
        <time>2014-08-12T11:32:54Z</time>
      </trkpt>
      <trkpt lat="48.68498" lon="1.75394">
        <ele>130.74266</ele>
        <time>2014-08-12T11:32:59Z</time>
      </trkpt>
      <trkpt lat="48.68492" lon="1.75349">
        <ele>131.99278</ele>
        <time>2014-08-12T11:33:04Z</time>
      </trkpt>
      <trkpt lat="48.6849" lon="1.75313">
        <ele>133.38599</ele>
        <time>2014-08-12T11:33:09Z</time>
      </trkpt>
      <trkpt lat="48.68484" lon="1.75274">
        <ele>134.89328</ele>
        <time>2014-08-12T11:33:14Z</time>
      </trkpt>
      <trkpt lat="48.68479" lon="1.75248">
        <ele>136.54515</ele>
        <time>2014-08-12T11:33:19Z</time>
      </trkpt>
      <trkpt lat="48.68474" lon="1.75212">
        <ele>138.28316</ele>
        <time>2014-08-12T11:33:24Z</time>
      </trkpt>
      <trkpt lat="48.68467" lon="1.75189">
        <ele>140.03854</ele>
        <time>2014-08-12T11:33:29Z</time>
      </trkpt>
      <trkpt lat="48.68464" lon="1.75175">
        <ele>141.8198</ele>
        <time>2014-08-12T11:33:34Z</time>
      </trkpt>
      <trkpt lat="48.68463" lon="1.75159">
        <ele>143.63478</ele>
        <time>2014-08-12T11:33:39Z</time>
      </trkpt>
      <trkpt lat="48.6846" lon="1.75144">
        <ele>145.49083</ele>
        <time>2014-08-12T11:33:44Z</time>
      </trkpt>
      <trkpt lat="48.68457" lon="1.75133">
        <ele>145.49083</ele>
        <time>2014-08-12T11:33:49Z</time>
      </trkpt>
      <trkpt lat="48.68457" lon="1.75121">
        <ele>147.52448</ele>
        <time>2014-08-12T11:33:54Z</time>
      </trkpt>
      <trkpt lat="48.68457" lon="1.75108">
        <ele>147.52448</ele>
        <time>2014-08-12T11:33:59Z</time>
      </trkpt>
      <trkpt lat="48.68456" lon="1.75095">
        <ele>149.5592</ele>
        <time>2014-08-12T11:34:04Z</time>
      </trkpt>
      <trkpt lat="48.68456" lon="1.75083">
        <ele>149.5592</ele>
        <time>2014-08-12T11:34:09Z</time>
      </trkpt>
      <trkpt lat="48.68455" lon="1.75074">
        <ele>151.51807</ele>
        <time>2014-08-12T11:34:14Z</time>
      </trkpt>
      <trkpt lat="48.68455" lon="1.75057">
        <ele>153.31575</ele>
        <time>2014-08-12T11:34:19Z</time>
      </trkpt>
      <trkpt lat="48.68453" lon="1.75044">
        <ele>153.31575</ele>
        <time>2014-08-12T11:34:24Z</time>
      </trkpt>
      <trkpt lat="48.6845" lon="1.75031">
        <ele>155.11874</ele>
        <time>2014-08-12T11:34:29Z</time>
      </trkpt>
      <trkpt lat="48.6845" lon="1.7502">
        <ele>155.11874</ele>
        <time>2014-08-12T11:34:34Z</time>
      </trkpt>
      <trkpt lat="48.6845" lon="1.75009">
        <ele>156.8221</ele>
        <time>2014-08-12T11:34:39Z</time>
      </trkpt>
      <trkpt lat="48.68447" lon="1.74995">
        <ele>158.45863</ele>
        <time>2014-08-12T11:34:43Z</time>
      </trkpt>
      <trkpt lat="48.68446" lon="1.74986">
        <ele>158.45863</ele>
        <time>2014-08-12T11:34:47Z</time>
      </trkpt>
      <trkpt lat="48.68444" lon="1.74978">
        <ele>160.04474</ele>
        <time>2014-08-12T11:34:52Z</time>
      </trkpt>
      <trkpt lat="48.68443" lon="1.74967">
        <ele>160.04474</ele>
        <time>2014-08-12T11:34:57Z</time>
      </trkpt>
      <trkpt lat="48.68439" lon="1.74945">
        <ele>161.52379</ele>
        <time>2014-08-12T11:35:06Z</time>
      </trkpt>
      <trkpt lat="48.68437" lon="1.7494">
        <ele>161.52379</ele>
        <time>2014-08-12T11:35:08Z</time>
      </trkpt>
      <trkpt lat="48.68433" lon="1.74928">
        <ele>162.94466</ele>
        <time>2014-08-12T11:35:15Z</time>
      </trkpt>
      <trkpt lat="48.68432" lon="1.74921">
        <ele>162.94466</ele>
        <time>2014-08-12T11:35:18Z</time>
      </trkpt>
      <trkpt lat="48.68429" lon="1.749">
        <ele>164.35292</ele>
        <time>2014-08-12T11:35:25Z</time>
      </trkpt>
      <trkpt lat="48.68428" lon="1.74889">
        <ele>164.35292</ele>
        <time>2014-08-12T11:35:29Z</time>
      </trkpt>
      <trkpt lat="48.68426" lon="1.74871">
        <ele>165.61804</ele>
        <time>2014-08-12T11:35:34Z</time>
      </trkpt>
      <trkpt lat="48.68425" lon="1.74855">
        <ele>166.86461</ele>
        <time>2014-08-12T11:35:39Z</time>
      </trkpt>
      <trkpt lat="48.68424" lon="1.74845">
        <ele>166.86461</ele>
        <time>2014-08-12T11:35:44Z</time>
      </trkpt>
      <trkpt lat="48.68423" lon="1.7483">
        <ele>168.02084</ele>
        <time>2014-08-12T11:35:49Z</time>
      </trkpt>
      <trkpt lat="48.6842" lon="1.74815">
        <ele>169.0927</ele>
        <time>2014-08-12T11:35:54Z</time>
      </trkpt>
      <trkpt lat="48.68418" lon="1.74806">
        <ele>169.0927</ele>
        <time>2014-08-12T11:35:59Z</time>
      </trkpt>
      <trkpt lat="48.68417" lon="1.74797">
        <ele>170.21574</ele>
        <time>2014-08-12T11:36:04Z</time>
      </trkpt>
      <trkpt lat="48.68415" lon="1.74787">
        <ele>170.21574</ele>
        <time>2014-08-12T11:36:09Z</time>
      </trkpt>
      <trkpt lat="48.68412" lon="1.74781">
        <ele>171.27052</ele>
        <time>2014-08-12T11:36:14Z</time>
      </trkpt>
      <trkpt lat="48.68408" lon="1.74766">
        <ele>172.1899</ele>
        <time>2014-08-12T11:36:19Z</time>
      </trkpt>
      <trkpt lat="48.6841" lon="1.74756">
        <ele>172.1899</ele>
        <time>2014-08-12T11:36:24Z</time>
      </trkpt>
      <trkpt lat="48.6841" lon="1.74745">
        <ele>172.98419</ele>
        <time>2014-08-12T11:36:29Z</time>
      </trkpt>
      <trkpt lat="48.68411" lon="1.74726">
        <ele>173.72102</ele>
        <time>2014-08-12T11:36:34Z</time>
      </trkpt>
      <trkpt lat="48.68411" lon="1.74717">
        <ele>173.72102</ele>
        <time>2014-08-12T11:36:39Z</time>
      </trkpt>
      <trkpt lat="48.6841" lon="1.74706">
        <ele>174.52092</ele>
        <time>2014-08-12T11:36:44Z</time>
      </trkpt>
      <trkpt lat="48.68414" lon="1.74697">
        <ele>174.52092</ele>
        <time>2014-08-12T11:36:49Z</time>
      </trkpt>
      <trkpt lat="48.68417" lon="1.74686">
        <ele>175.23608</ele>
        <time>2014-08-12T11:36:54Z</time>
      </trkpt>
      <trkpt lat="48.6842" lon="1.74681">
        <ele>175.23608</ele>
        <time>2014-08-12T11:36:57Z</time>
      </trkpt>
      <trkpt lat="48.68428" lon="1.74662">
        <ele>176.01804</ele>
        <time>2014-08-12T11:37:05Z</time>
      </trkpt>
      <trkpt lat="48.6843" lon="1.74654">
        <ele>176.01804</ele>
        <time>2014-08-12T11:37:09Z</time>
      </trkpt>
      <trkpt lat="48.68435" lon="1.74644">
        <ele>176.80531</ele>
        <time>2014-08-12T11:37:14Z</time>
      </trkpt>
      <trkpt lat="48.68436" lon="1.74636">
        <ele>176.80531</ele>
        <time>2014-08-12T11:37:19Z</time>
      </trkpt>
      <trkpt lat="48.68437" lon="1.74631">
        <ele>176.80531</ele>
        <time>2014-08-12T11:37:24Z</time>
      </trkpt>
      <trkpt lat="48.68432" lon="1.74619">
        <ele>177.4689</ele>
        <time>2014-08-12T11:37:29Z</time>
      </trkpt>
      <trkpt lat="48.68428" lon="1.74614">
        <ele>177.4689</ele>
        <time>2014-08-12T11:37:34Z</time>
      </trkpt>
      <trkpt lat="48.68422" lon="1.74613">
        <ele>177.8032</ele>
        <time>2014-08-12T11:37:39Z</time>
      </trkpt>
      <trkpt lat="48.68414" lon="1.74612">
        <ele>177.8032</ele>
        <time>2014-08-12T11:37:44Z</time>
      </trkpt>
      <trkpt lat="48.68405" lon="1.74608">
        <ele>177.69073</ele>
        <time>2014-08-12T11:37:49Z</time>
      </trkpt>
      <trkpt lat="48.68397" lon="1.74608">
        <ele>177.69073</ele>
        <time>2014-08-12T11:37:54Z</time>
      </trkpt>
      <trkpt lat="48.68394" lon="1.74605">
        <ele>177.42738</ele>
        <time>2014-08-12T11:37:58Z</time>
      </trkpt>
      <trkpt lat="48.68385" lon="1.74588">
        <ele>177.07162</ele>
        <time>2014-08-12T11:38:05Z</time>
      </trkpt>
      <trkpt lat="48.68381" lon="1.74583">
        <ele>177.07162</ele>
        <time>2014-08-12T11:38:09Z</time>
      </trkpt>
      <trkpt lat="48.68373" lon="1.74578">
        <ele>176.38959</ele>
        <time>2014-08-12T11:38:14Z</time>
      </trkpt>
      <trkpt lat="48.68367" lon="1.74574">
        <ele>176.38959</ele>
        <time>2014-08-12T11:38:19Z</time>
      </trkpt>
      <trkpt lat="48.6836" lon="1.7457">
        <ele>175.4826</ele>
        <time>2014-08-12T11:38:24Z</time>
      </trkpt>
      <trkpt lat="48.68355" lon="1.74566">
        <ele>175.4826</ele>
        <time>2014-08-12T11:38:29Z</time>
      </trkpt>
      <trkpt lat="48.68352" lon="1.74563">
        <ele>174.50273</ele>
        <time>2014-08-12T11:38:33Z</time>
      </trkpt>
      <trkpt lat="48.68347" lon="1.74557">
        <ele>174.50273</ele>
        <time>2014-08-12T11:38:40Z</time>
      </trkpt>
      <trkpt lat="48.68341" lon="1.74551">
        <ele>173.4181</ele>
        <time>2014-08-12T11:38:44Z</time>
      </trkpt>
      <trkpt lat="48.68332" lon="1.74544">
        <ele>172.28592</ele>
        <time>2014-08-12T11:38:49Z</time>
      </trkpt>
      <trkpt lat="48.68329" lon="1.7454">
        <ele>172.28592</ele>
        <time>2014-08-12T11:38:52Z</time>
      </trkpt>
      <trkpt lat="48.68319" lon="1.74531">
        <ele>171.07274</ele>
        <time>2014-08-12T11:39:00Z</time>
      </trkpt>
      <trkpt lat="48.68313" lon="1.74527">
        <ele>171.07274</ele>
        <time>2014-08-12T11:39:04Z</time>
      </trkpt>
      <trkpt lat="48.68305" lon="1.74524">
        <ele>169.8774</ele>
        <time>2014-08-12T11:39:09Z</time>
      </trkpt>
      <trkpt lat="48.68301" lon="1.74515">
        <ele>169.8774</ele>
        <time>2014-08-12T11:39:14Z</time>
      </trkpt>
      <trkpt lat="48.68299" lon="1.74508">
        <ele>168.54636</ele>
        <time>2014-08-12T11:39:19Z</time>
      </trkpt>
      <trkpt lat="48.68298" lon="1.74498">
        <ele>168.54636</ele>
        <time>2014-08-12T11:39:23Z</time>
      </trkpt>
      <trkpt lat="48.68296" lon="1.74483">
        <ele>167.1826</ele>
        <time>2014-08-12T11:39:30Z</time>
      </trkpt>
      <trkpt lat="48.68295" lon="1.74479">
        <ele>167.1826</ele>
        <time>2014-08-12T11:39:34Z</time>
      </trkpt>
      <trkpt lat="48.68295" lon="1.74467">
        <ele>165.72299</ele>
        <time>2014-08-12T11:39:39Z</time>
      </trkpt>
      <trkpt lat="48.68294" lon="1.74458">
        <ele>165.72299</ele>
        <time>2014-08-12T11:39:44Z</time>
      </trkpt>
      <trkpt lat="48.68295" lon="1.74451">
        <ele>164.2821</ele>
        <time>2014-08-12T11:39:49Z</time>
      </trkpt>
      <trkpt lat="48.68294" lon="1.74441">
        <ele>164.2821</ele>
        <time>2014-08-12T11:39:54Z</time>
      </trkpt>
      <trkpt lat="48.68292" lon="1.74429">
        <ele>162.92267</ele>
        <time>2014-08-12T11:39:59Z</time>
      </trkpt>
      <trkpt lat="48.68291" lon="1.74414">
        <ele>161.67357</ele>
        <time>2014-08-12T11:40:04Z</time>
      </trkpt>
      <trkpt lat="48.6829" lon="1.74404">
        <ele>161.67357</ele>
        <time>2014-08-12T11:40:09Z</time>
      </trkpt>
      <trkpt lat="48.68285" lon="1.74388">
        <ele>160.58997</ele>
        <time>2014-08-12T11:40:14Z</time>
      </trkpt>
      <trkpt lat="48.68283" lon="1.74381">
        <ele>160.58997</ele>
        <time>2014-08-12T11:40:19Z</time>
      </trkpt>
      <trkpt lat="48.68278" lon="1.74365">
        <ele>159.57819</ele>
        <time>2014-08-12T11:40:24Z</time>
      </trkpt>
      <trkpt lat="48.68277" lon="1.74359">
        <ele>159.57819</ele>
        <time>2014-08-12T11:40:29Z</time>
      </trkpt>
      <trkpt lat="48.68277" lon="1.74347">
        <ele>158.62318</ele>
        <time>2014-08-12T11:40:34Z</time>
      </trkpt>
      <trkpt lat="48.68277" lon="1.74338">
        <ele>158.62318</ele>
        <time>2014-08-12T11:40:39Z</time>
      </trkpt>
      <trkpt lat="48.68275" lon="1.74327">
        <ele>157.78267</ele>
        <time>2014-08-12T11:40:44Z</time>
      </trkpt>
      <trkpt lat="48.68273" lon="1.74319">
        <ele>157.78267</ele>
        <time>2014-08-12T11:40:49Z</time>
      </trkpt>
      <trkpt lat="48.6827" lon="1.74309">
        <ele>156.92235</ele>
        <time>2014-08-12T11:40:54Z</time>
      </trkpt>
      <trkpt lat="48.6827" lon="1.74303">
        <ele>156.92235</ele>
        <time>2014-08-12T11:40:58Z</time>
      </trkpt>
      <trkpt lat="48.68267" lon="1.74285">
        <ele>156.17703</ele>
        <time>2014-08-12T11:41:05Z</time>
      </trkpt>
      <trkpt lat="48.68264" lon="1.74278">
        <ele>156.17703</ele>
        <time>2014-08-12T11:41:09Z</time>
      </trkpt>
      <trkpt lat="48.68261" lon="1.7426">
        <ele>155.52707</ele>
        <time>2014-08-12T11:41:14Z</time>
      </trkpt>
      <trkpt lat="48.6826" lon="1.74249">
        <ele>155.52707</ele>
        <time>2014-08-12T11:41:19Z</time>
      </trkpt>
      <trkpt lat="48.68259" lon="1.74238">
        <ele>154.99702</ele>
        <time>2014-08-12T11:41:23Z</time>
      </trkpt>
      <trkpt lat="48.68255" lon="1.74222">
        <ele>154.49388</ele>
        <time>2014-08-12T11:41:30Z</time>
      </trkpt>
      <trkpt lat="48.68254" lon="1.74212">
        <ele>154.49388</ele>
        <time>2014-08-12T11:41:34Z</time>
      </trkpt>
      <trkpt lat="48.6825" lon="1.74201">
        <ele>154.1474</ele>
        <time>2014-08-12T11:41:39Z</time>
      </trkpt>
      <trkpt lat="48.68246" lon="1.74192">
        <ele>154.1474</ele>
        <time>2014-08-12T11:41:44Z</time>
      </trkpt>
      <trkpt lat="48.68244" lon="1.7418">
        <ele>153.8899</ele>
        <time>2014-08-12T11:41:49Z</time>
      </trkpt>
      <trkpt lat="48.68244" lon="1.74172">
        <ele>153.8899</ele>
        <time>2014-08-12T11:41:54Z</time>
      </trkpt>
      <trkpt lat="48.68242" lon="1.74165">
        <ele>153.70145</ele>
        <time>2014-08-12T11:41:59Z</time>
      </trkpt>
      <trkpt lat="48.68241" lon="1.74159">
        <ele>153.70145</ele>
        <time>2014-08-12T11:42:02Z</time>
      </trkpt>
      <trkpt lat="48.68238" lon="1.74149">
        <ele>153.6498</ele>
        <time>2014-08-12T11:42:07Z</time>
      </trkpt>
      <trkpt lat="48.68236" lon="1.74135">
        <ele>153.75392</ele>
        <time>2014-08-12T11:42:12Z</time>
      </trkpt>
      <trkpt lat="48.68233" lon="1.74127">
        <ele>153.75392</ele>
        <time>2014-08-12T11:42:17Z</time>
      </trkpt>
      <trkpt lat="48.68232" lon="1.74114">
        <ele>153.84352</ele>
        <time>2014-08-12T11:42:22Z</time>
      </trkpt>
      <trkpt lat="48.68234" lon="1.74099">
        <ele>153.87607</ele>
        <time>2014-08-12T11:42:28Z</time>
      </trkpt>
      <trkpt lat="48.68233" lon="1.74093">
        <ele>153.87607</ele>
        <time>2014-08-12T11:42:33Z</time>
      </trkpt>
      <trkpt lat="48.6823" lon="1.74081">
        <ele>154.0139</ele>
        <time>2014-08-12T11:42:40Z</time>
      </trkpt>
      <trkpt lat="48.6823" lon="1.74069">
        <ele>154.0139</ele>
        <time>2014-08-12T11:42:44Z</time>
      </trkpt>
      <trkpt lat="48.68227" lon="1.74058">
        <ele>154.06123</ele>
        <time>2014-08-12T11:42:49Z</time>
      </trkpt>
      <trkpt lat="48.68224" lon="1.74047">
        <ele>154.06123</ele>
        <time>2014-08-12T11:42:54Z</time>
      </trkpt>
      <trkpt lat="48.6822" lon="1.74035">
        <ele>154.00977</ele>
        <time>2014-08-12T11:42:59Z</time>
      </trkpt>
      <trkpt lat="48.68217" lon="1.74023">
        <ele>154.00977</ele>
        <time>2014-08-12T11:43:04Z</time>
      </trkpt>
      <trkpt lat="48.68212" lon="1.74013">
        <ele>154.01053</ele>
        <time>2014-08-12T11:43:09Z</time>
      </trkpt>
      <trkpt lat="48.68209" lon="1.74006">
        <ele>154.01053</ele>
        <time>2014-08-12T11:43:14Z</time>
      </trkpt>
      <trkpt lat="48.6821" lon="1.73992">
        <ele>154.04471</ele>
        <time>2014-08-12T11:43:19Z</time>
      </trkpt>
      <trkpt lat="48.68209" lon="1.73983">
        <ele>154.04471</ele>
        <time>2014-08-12T11:43:24Z</time>
      </trkpt>
      <trkpt lat="48.68213" lon="1.73976">
        <ele>154.0515</ele>
        <time>2014-08-12T11:43:29Z</time>
      </trkpt>
      <trkpt lat="48.68214" lon="1.73968">
        <ele>154.0515</ele>
        <time>2014-08-12T11:43:34Z</time>
      </trkpt>
      <trkpt lat="48.68215" lon="1.73962">
        <ele>154.01782</ele>
        <time>2014-08-12T11:43:39Z</time>
      </trkpt>
      <trkpt lat="48.68217" lon="1.73947">
        <ele>153.98927</ele>
        <time>2014-08-12T11:43:44Z</time>
      </trkpt>
      <trkpt lat="48.68218" lon="1.73937">
        <ele>153.98927</ele>
        <time>2014-08-12T11:43:49Z</time>
      </trkpt>
      <trkpt lat="48.68221" lon="1.73923">
        <ele>154.05125</ele>
        <time>2014-08-12T11:43:54Z</time>
      </trkpt>
      <trkpt lat="48.68219" lon="1.73915">
        <ele>154.05125</ele>
        <time>2014-08-12T11:43:57Z</time>
      </trkpt>
      <trkpt lat="48.68224" lon="1.73898">
        <ele>154.26823</ele>
        <time>2014-08-12T11:44:03Z</time>
      </trkpt>
      <trkpt lat="48.68234" lon="1.73879">
        <ele>154.5121</ele>
        <time>2014-08-12T11:44:10Z</time>
      </trkpt>
      <trkpt lat="48.68235" lon="1.73872">
        <ele>154.5121</ele>
        <time>2014-08-12T11:44:13Z</time>
      </trkpt>
      <trkpt lat="48.68241" lon="1.73861">
        <ele>154.70729</ele>
        <time>2014-08-12T11:44:20Z</time>
      </trkpt>
      <trkpt lat="48.68241" lon="1.73857">
        <ele>154.70729</ele>
        <time>2014-08-12T11:44:24Z</time>
      </trkpt>
      <trkpt lat="48.6824" lon="1.73847">
        <ele>154.91364</ele>
        <time>2014-08-12T11:44:29Z</time>
      </trkpt>
      <trkpt lat="48.68243" lon="1.73841">
        <ele>154.91364</ele>
        <time>2014-08-12T11:44:32Z</time>
      </trkpt>
      <trkpt lat="48.68251" lon="1.73825">
        <ele>155.08563</ele>
        <time>2014-08-12T11:44:39Z</time>
      </trkpt>
      <trkpt lat="48.68253" lon="1.73817">
        <ele>155.08563</ele>
        <time>2014-08-12T11:44:44Z</time>
      </trkpt>
      <trkpt lat="48.68256" lon="1.73808">
        <ele>155.19562</ele>
        <time>2014-08-12T11:44:48Z</time>
      </trkpt>
      <trkpt lat="48.68259" lon="1.73796">
        <ele>155.19562</ele>
        <time>2014-08-12T11:44:55Z</time>
      </trkpt>
      <trkpt lat="48.6826" lon="1.7379">
        <ele>155.31902</ele>
        <time>2014-08-12T11:44:58Z</time>
      </trkpt>
      <trkpt lat="48.68265" lon="1.73778">
        <ele>155.45363</ele>
        <time>2014-08-12T11:45:04Z</time>
      </trkpt>
      <trkpt lat="48.68267" lon="1.73769">
        <ele>155.45363</ele>
        <time>2014-08-12T11:45:08Z</time>
      </trkpt>
      <trkpt lat="48.68272" lon="1.73758">
        <ele>155.56856</ele>
        <time>2014-08-12T11:45:15Z</time>
      </trkpt>
      <trkpt lat="48.68274" lon="1.7375">
        <ele>155.56856</ele>
        <time>2014-08-12T11:45:19Z</time>
      </trkpt>
      <trkpt lat="48.68277" lon="1.73744">
        <ele>155.67847</ele>
        <time>2014-08-12T11:45:23Z</time>
      </trkpt>
      <trkpt lat="48.68279" lon="1.73738">
        <ele>155.67847</ele>
        <time>2014-08-12T11:45:27Z</time>
      </trkpt>
      <trkpt lat="48.68276" lon="1.73729">
        <ele>155.96992</ele>
        <time>2014-08-12T11:45:32Z</time>
      </trkpt>
      <trkpt lat="48.68276" lon="1.73726">
        <ele>155.96992</ele>
        <time>2014-08-12T11:45:37Z</time>
      </trkpt>
      <trkpt lat="48.68275" lon="1.73722">
        <ele>155.96992</ele>
        <time>2014-08-12T11:45:46Z</time>
      </trkpt>
      <trkpt lat="48.68272" lon="1.73727">
        <ele>156.21176</ele>
        <time>2014-08-12T11:46:04Z</time>
      </trkpt>
      <trkpt lat="48.68272" lon="1.73726">
        <ele>156.21176</ele>
        <time>2014-08-12T11:46:09Z</time>
      </trkpt>
      <trkpt lat="48.68273" lon="1.73722">
        <ele>156.21176</ele>
        <time>2014-08-12T11:46:19Z</time>
      </trkpt>
      <trkpt lat="48.68273" lon="1.73722">
        <ele>156.21176</ele>
        <time>2014-08-12T11:46:24Z</time>
      </trkpt>
      <trkpt lat="48.68275" lon="1.7372">
        <ele>156.21176</ele>
        <time>2014-08-12T11:46:34Z</time>
      </trkpt>
      <trkpt lat="48.68275" lon="1.7372">
        <ele>156.21176</ele>
        <time>2014-08-12T11:46:39Z</time>
      </trkpt>
      <trkpt lat="48.68275" lon="1.7372">
        <ele>156.21176</ele>
        <time>2014-08-12T11:46:44Z</time>
      </trkpt>
      <trkpt lat="48.68281" lon="1.73712">
        <ele>156.17557</ele>
        <time>2014-08-12T11:46:49Z</time>
      </trkpt>
      <trkpt lat="48.68281" lon="1.7371">
        <ele>156.17557</ele>
        <time>2014-08-12T11:46:54Z</time>
      </trkpt>
      <trkpt lat="48.68279" lon="1.73709">
        <ele>156.17557</ele>
        <time>2014-08-12T11:46:59Z</time>
      </trkpt>
      <trkpt lat="48.68277" lon="1.73709">
        <ele>156.17557</ele>
        <time>2014-08-12T11:47:04Z</time>
      </trkpt>
      <trkpt lat="48.68269" lon="1.737">
        <ele>156.12605</ele>
        <time>2014-08-12T11:47:39Z</time>
      </trkpt>
      <trkpt lat="48.68272" lon="1.73698">
        <ele>156.12605</ele>
        <time>2014-08-12T11:47:49Z</time>
      </trkpt>
      <trkpt lat="48.68276" lon="1.73696">
        <ele>156.12605</ele>
        <time>2014-08-12T11:47:59Z</time>
      </trkpt>
      <trkpt lat="48.68278" lon="1.73698">
        <ele>156.06355</ele>
        <time>2014-08-12T11:48:04Z</time>
      </trkpt>
      <trkpt lat="48.68281" lon="1.73702">
        <ele>156.06355</ele>
        <time>2014-08-12T11:48:09Z</time>
      </trkpt>
      <trkpt lat="48.68282" lon="1.73704">
        <ele>156.06355</ele>
        <time>2014-08-12T11:48:14Z</time>
      </trkpt>
      <trkpt lat="48.68282" lon="1.73709">
        <ele>155.6714</ele>
        <time>2014-08-12T11:48:19Z</time>
      </trkpt>
      <trkpt lat="48.68278" lon="1.73704">
        <ele>155.6714</ele>
        <time>2014-08-12T11:48:24Z</time>
      </trkpt>
      <trkpt lat="48.68281" lon="1.73701">
        <ele>155.06065</ele>
        <time>2014-08-12T11:48:29Z</time>
      </trkpt>
      <trkpt lat="48.68283" lon="1.73697">
        <ele>155.06065</ele>
        <time>2014-08-12T11:48:34Z</time>
      </trkpt>
      <trkpt lat="48.68286" lon="1.73691">
        <ele>155.06065</ele>
        <time>2014-08-12T11:48:39Z</time>
      </trkpt>
      <trkpt lat="48.68291" lon="1.73685">
        <ele>154.306</ele>
        <time>2014-08-12T11:48:43Z</time>
      </trkpt>
      <trkpt lat="48.68293" lon="1.73675">
        <ele>154.306</ele>
        <time>2014-08-12T11:48:50Z</time>
      </trkpt>
      <trkpt lat="48.68295" lon="1.7367">
        <ele>153.52032</ele>
        <time>2014-08-12T11:48:54Z</time>
      </trkpt>
      <trkpt lat="48.68299" lon="1.73662">
        <ele>153.52032</ele>
        <time>2014-08-12T11:48:59Z</time>
      </trkpt>
      <trkpt lat="48.68302" lon="1.73656">
        <ele>152.76503</ele>
        <time>2014-08-12T11:49:04Z</time>
      </trkpt>
      <trkpt lat="48.68305" lon="1.73644">
        <ele>152.76503</ele>
        <time>2014-08-12T11:49:09Z</time>
      </trkpt>
      <trkpt lat="48.68309" lon="1.73631">
        <ele>151.93846</ele>
        <time>2014-08-12T11:49:14Z</time>
      </trkpt>
      <trkpt lat="48.68313" lon="1.7362">
        <ele>151.93846</ele>
        <time>2014-08-12T11:49:19Z</time>
      </trkpt>
      <trkpt lat="48.68313" lon="1.73613">
        <ele>151.00426</ele>
        <time>2014-08-12T11:49:24Z</time>
      </trkpt>
      <trkpt lat="48.68314" lon="1.73605">
        <ele>151.00426</ele>
        <time>2014-08-12T11:49:29Z</time>
      </trkpt>
      <trkpt lat="48.68316" lon="1.73598">
        <ele>149.98663</ele>
        <time>2014-08-12T11:49:34Z</time>
      </trkpt>
      <trkpt lat="48.68316" lon="1.7359">
        <ele>149.98663</ele>
        <time>2014-08-12T11:49:39Z</time>
      </trkpt>
      <trkpt lat="48.68319" lon="1.73581">
        <ele>149.09566</ele>
        <time>2014-08-12T11:49:44Z</time>
      </trkpt>
      <trkpt lat="48.68323" lon="1.73569">
        <ele>149.09566</ele>
        <time>2014-08-12T11:49:49Z</time>
      </trkpt>
      <trkpt lat="48.68325" lon="1.73558">
        <ele>148.36702</ele>
        <time>2014-08-12T11:49:54Z</time>
      </trkpt>
      <trkpt lat="48.68329" lon="1.73549">
        <ele>148.36702</ele>
        <time>2014-08-12T11:49:59Z</time>
      </trkpt>
      <trkpt lat="48.6833" lon="1.73537">
        <ele>147.71805</ele>
        <time>2014-08-12T11:50:04Z</time>
      </trkpt>
      <trkpt lat="48.68335" lon="1.73529">
        <ele>147.71805</ele>
        <time>2014-08-12T11:50:09Z</time>
      </trkpt>
      <trkpt lat="48.68335" lon="1.73526">
        <ele>147.0863</ele>
        <time>2014-08-12T11:50:14Z</time>
      </trkpt>
      <trkpt lat="48.68334" lon="1.73512">
        <ele>146.50032</ele>
        <time>2014-08-12T11:50:24Z</time>
      </trkpt>
      <trkpt lat="48.68337" lon="1.73512">
        <ele>146.50032</ele>
        <time>2014-08-12T11:50:29Z</time>
      </trkpt>
      <trkpt lat="48.68338" lon="1.73512">
        <ele>146.50032</ele>
        <time>2014-08-12T11:50:33Z</time>
      </trkpt>
      <trkpt lat="48.68339" lon="1.73503">
        <ele>146.1017</ele>
        <time>2014-08-12T11:50:40Z</time>
      </trkpt>
      <trkpt lat="48.68341" lon="1.73499">
        <ele>146.1017</ele>
        <time>2014-08-12T11:50:44Z</time>
      </trkpt>
      <trkpt lat="48.68341" lon="1.73498">
        <ele>146.1017</ele>
        <time>2014-08-12T11:50:49Z</time>
      </trkpt>
      <trkpt lat="48.68341" lon="1.73494">
        <ele>146.1017</ele>
        <time>2014-08-12T11:51:04Z</time>
      </trkpt>
      <trkpt lat="48.68341" lon="1.73494">
        <ele>146.1017</ele>
        <time>2014-08-12T11:51:09Z</time>
      </trkpt>
      <trkpt lat="48.68347" lon="1.73491">
        <ele>145.77608</ele>
        <time>2014-08-12T11:51:19Z</time>
      </trkpt>
      <trkpt lat="48.68353" lon="1.73488">
        <ele>145.77608</ele>
        <time>2014-08-12T11:51:24Z</time>
      </trkpt>
      <trkpt lat="48.68358" lon="1.73482">
        <ele>145.44608</ele>
        <time>2014-08-12T11:51:29Z</time>
      </trkpt>
      <trkpt lat="48.68363" lon="1.73476">
        <ele>145.44608</ele>
        <time>2014-08-12T11:51:34Z</time>
      </trkpt>
      <trkpt lat="48.68367" lon="1.73471">
        <ele>145.18413</ele>
        <time>2014-08-12T11:51:39Z</time>
      </trkpt>
      <trkpt lat="48.68371" lon="1.73465">
        <ele>145.18413</ele>
        <time>2014-08-12T11:51:44Z</time>
      </trkpt>
      <trkpt lat="48.68379" lon="1.73459">
        <ele>144.99948</ele>
        <time>2014-08-12T11:51:49Z</time>
      </trkpt>
      <trkpt lat="48.68384" lon="1.73453">
        <ele>144.99948</ele>
        <time>2014-08-12T11:51:54Z</time>
      </trkpt>
      <trkpt lat="48.68391" lon="1.73447">
        <ele>144.81398</ele>
        <time>2014-08-12T11:51:59Z</time>
      </trkpt>
      <trkpt lat="48.68396" lon="1.7344">
        <ele>144.81398</ele>
        <time>2014-08-12T11:52:04Z</time>
      </trkpt>
      <trkpt lat="48.684" lon="1.73429">
        <ele>144.68492</ele>
        <time>2014-08-12T11:52:09Z</time>
      </trkpt>
      <trkpt lat="48.68406" lon="1.7342">
        <ele>144.68492</ele>
        <time>2014-08-12T11:52:14Z</time>
      </trkpt>
      <trkpt lat="48.68411" lon="1.73409">
        <ele>144.57875</ele>
        <time>2014-08-12T11:52:19Z</time>
      </trkpt>
      <trkpt lat="48.68416" lon="1.73398">
        <ele>144.57875</ele>
        <time>2014-08-12T11:52:24Z</time>
      </trkpt>
      <trkpt lat="48.68421" lon="1.73387">
        <ele>144.53635</ele>
        <time>2014-08-12T11:52:29Z</time>
      </trkpt>
      <trkpt lat="48.68427" lon="1.73378">
        <ele>144.53635</ele>
        <time>2014-08-12T11:52:34Z</time>
      </trkpt>
      <trkpt lat="48.68431" lon="1.73371">
        <ele>144.50893</ele>
        <time>2014-08-12T11:52:39Z</time>
      </trkpt>
      <trkpt lat="48.68436" lon="1.73363">
        <ele>144.50893</ele>
        <time>2014-08-12T11:52:44Z</time>
      </trkpt>
      <trkpt lat="48.68441" lon="1.73355">
        <ele>144.53773</ele>
        <time>2014-08-12T11:52:49Z</time>
      </trkpt>
      <trkpt lat="48.68447" lon="1.73342">
        <ele>144.67523</ele>
        <time>2014-08-12T11:52:54Z</time>
      </trkpt>
      <trkpt lat="48.68452" lon="1.73335">
        <ele>144.67523</ele>
        <time>2014-08-12T11:52:59Z</time>
      </trkpt>
      <trkpt lat="48.68455" lon="1.73328">
        <ele>144.79675</ele>
        <time>2014-08-12T11:53:04Z</time>
      </trkpt>
      <trkpt lat="48.68463" lon="1.73319">
        <ele>144.90219</ele>
        <time>2014-08-12T11:53:09Z</time>
      </trkpt>
      <trkpt lat="48.68469" lon="1.7331">
        <ele>144.90219</ele>
        <time>2014-08-12T11:53:14Z</time>
      </trkpt>
      <trkpt lat="48.68475" lon="1.73304">
        <ele>144.93379</ele>
        <time>2014-08-12T11:53:19Z</time>
      </trkpt>
      <trkpt lat="48.68478" lon="1.73293">
        <ele>144.93379</ele>
        <time>2014-08-12T11:53:24Z</time>
      </trkpt>
      <trkpt lat="48.68484" lon="1.73282">
        <ele>144.99684</ele>
        <time>2014-08-12T11:53:29Z</time>
      </trkpt>
      <trkpt lat="48.68489" lon="1.73275">
        <ele>144.99684</ele>
        <time>2014-08-12T11:53:34Z</time>
      </trkpt>
      <trkpt lat="48.68493" lon="1.73265">
        <ele>145.04466</ele>
        <time>2014-08-12T11:53:39Z</time>
      </trkpt>
      <trkpt lat="48.68497" lon="1.73258">
        <ele>145.04466</ele>
        <time>2014-08-12T11:53:44Z</time>
      </trkpt>
      <trkpt lat="48.68502" lon="1.73251">
        <ele>145.0341</ele>
        <time>2014-08-12T11:53:49Z</time>
      </trkpt>
      <trkpt lat="48.68508" lon="1.73244">
        <ele>145.0341</ele>
        <time>2014-08-12T11:53:54Z</time>
      </trkpt>
      <trkpt lat="48.68514" lon="1.73237">
        <ele>145.11266</ele>
        <time>2014-08-12T11:53:59Z</time>
      </trkpt>
      <trkpt lat="48.68518" lon="1.73229">
        <ele>145.11266</ele>
        <time>2014-08-12T11:54:04Z</time>
      </trkpt>
      <trkpt lat="48.68523" lon="1.73222">
        <ele>145.143</ele>
        <time>2014-08-12T11:54:09Z</time>
      </trkpt>
      <trkpt lat="48.68528" lon="1.73216">
        <ele>145.143</ele>
        <time>2014-08-12T11:54:14Z</time>
      </trkpt>
      <trkpt lat="48.68532" lon="1.7321">
        <ele>145.21419</ele>
        <time>2014-08-12T11:54:19Z</time>
      </trkpt>
      <trkpt lat="48.68535" lon="1.73205">
        <ele>145.21419</ele>
        <time>2014-08-12T11:54:24Z</time>
      </trkpt>
      <trkpt lat="48.68541" lon="1.73198">
        <ele>145.19246</ele>
        <time>2014-08-12T11:54:29Z</time>
      </trkpt>
      <trkpt lat="48.68537" lon="1.73194">
        <ele>145.19246</ele>
        <time>2014-08-12T11:54:34Z</time>
      </trkpt>
      <trkpt lat="48.68539" lon="1.73201">
        <ele>145.53065</ele>
        <time>2014-08-12T11:54:39Z</time>
      </trkpt>
      <trkpt lat="48.68542" lon="1.7321">
        <ele>145.53065</ele>
        <time>2014-08-12T11:54:44Z</time>
      </trkpt>
      <trkpt lat="48.68542" lon="1.7322">
        <ele>145.78267</ele>
        <time>2014-08-12T11:54:49Z</time>
      </trkpt>
      <trkpt lat="48.68544" lon="1.73233">
        <ele>145.78267</ele>
        <time>2014-08-12T11:54:54Z</time>
      </trkpt>
      <trkpt lat="48.68544" lon="1.73245">
        <ele>145.8813</ele>
        <time>2014-08-12T11:54:59Z</time>
      </trkpt>
      <trkpt lat="48.68544" lon="1.73254">
        <ele>145.8813</ele>
        <time>2014-08-12T11:55:04Z</time>
      </trkpt>
      <trkpt lat="48.68552" lon="1.7327">
        <ele>145.60622</ele>
        <time>2014-08-12T11:55:09Z</time>
      </trkpt>
      <trkpt lat="48.68556" lon="1.73282">
        <ele>145.2732</ele>
        <time>2014-08-12T11:55:14Z</time>
      </trkpt>
      <trkpt lat="48.68558" lon="1.73291">
        <ele>145.2732</ele>
        <time>2014-08-12T11:55:18Z</time>
      </trkpt>
      <trkpt lat="48.68558" lon="1.73307">
        <ele>144.7426</ele>
        <time>2014-08-12T11:55:25Z</time>
      </trkpt>
      <trkpt lat="48.68558" lon="1.73312">
        <ele>144.7426</ele>
        <time>2014-08-12T11:55:29Z</time>
      </trkpt>
      <trkpt lat="48.68564" lon="1.73326">
        <ele>144.10185</ele>
        <time>2014-08-12T11:55:34Z</time>
      </trkpt>
      <trkpt lat="48.68567" lon="1.73337">
        <ele>144.10185</ele>
        <time>2014-08-12T11:55:39Z</time>
      </trkpt>
      <trkpt lat="48.68569" lon="1.73348">
        <ele>143.37462</ele>
        <time>2014-08-12T11:55:44Z</time>
      </trkpt>
      <trkpt lat="48.68569" lon="1.73363">
        <ele>142.64075</ele>
        <time>2014-08-12T11:55:49Z</time>
      </trkpt>
      <trkpt lat="48.68569" lon="1.73375">
        <ele>142.64075</ele>
        <time>2014-08-12T11:55:54Z</time>
      </trkpt>
      <trkpt lat="48.68569" lon="1.73387">
        <ele>141.77245</ele>
        <time>2014-08-12T11:55:59Z</time>
      </trkpt>
      <trkpt lat="48.68572" lon="1.734">
        <ele>141.77245</ele>
        <time>2014-08-12T11:56:04Z</time>
      </trkpt>
      <trkpt lat="48.68571" lon="1.73407">
        <ele>140.78145</ele>
        <time>2014-08-12T11:56:07Z</time>
      </trkpt>
      <trkpt lat="48.6857" lon="1.7342">
        <ele>140.78145</ele>
        <time>2014-08-12T11:56:12Z</time>
      </trkpt>
      <trkpt lat="48.6857" lon="1.73431">
        <ele>139.69334</ele>
        <time>2014-08-12T11:56:17Z</time>
      </trkpt>
      <trkpt lat="48.6857" lon="1.73443">
        <ele>139.69334</ele>
        <time>2014-08-12T11:56:22Z</time>
      </trkpt>
      <trkpt lat="48.68573" lon="1.73456">
        <ele>138.46007</ele>
        <time>2014-08-12T11:56:28Z</time>
      </trkpt>
      <trkpt lat="48.68575" lon="1.73463">
        <ele>138.46007</ele>
        <time>2014-08-12T11:56:33Z</time>
      </trkpt>
      <trkpt lat="48.68577" lon="1.73478">
        <ele>137.09512</ele>
        <time>2014-08-12T11:56:40Z</time>
      </trkpt>
      <trkpt lat="48.68578" lon="1.73483">
        <ele>137.09512</ele>
        <time>2014-08-12T11:56:43Z</time>
      </trkpt>
      <trkpt lat="48.68577" lon="1.73499">
        <ele>135.65459</ele>
        <time>2014-08-12T11:56:52Z</time>
      </trkpt>
      <trkpt lat="48.68575" lon="1.73506">
        <ele>135.65459</ele>
        <time>2014-08-12T11:56:52Z</time>
      </trkpt>
      <trkpt lat="48.68577" lon="1.7352">
        <ele>134.06091</ele>
        <time>2014-08-12T11:56:59Z</time>
      </trkpt>
      <trkpt lat="48.68576" lon="1.73526">
        <ele>134.06091</ele>
        <time>2014-08-12T11:57:03Z</time>
      </trkpt>
      <trkpt lat="48.68575" lon="1.73532">
        <ele>134.06091</ele>
        <time>2014-08-12T11:57:07Z</time>
      </trkpt>
      <trkpt lat="48.68582" lon="1.73541">
        <ele>132.27145</ele>
        <time>2014-08-12T11:57:13Z</time>
      </trkpt>
      <trkpt lat="48.68598" lon="1.73542">
        <ele>130.59308</ele>
        <time>2014-08-12T11:57:18Z</time>
      </trkpt>
      <trkpt lat="48.68615" lon="1.73542">
        <ele>128.92065</ele>
        <time>2014-08-12T11:57:25Z</time>
      </trkpt>
      <trkpt lat="48.68623" lon="1.73544">
        <ele>128.92065</ele>
        <time>2014-08-12T11:57:29Z</time>
      </trkpt>
      <trkpt lat="48.68633" lon="1.73546">
        <ele>127.27194</ele>
        <time>2014-08-12T11:57:34Z</time>
      </trkpt>
      <trkpt lat="48.68646" lon="1.7355">
        <ele>125.73536</ele>
        <time>2014-08-12T11:57:39Z</time>
      </trkpt>
      <trkpt lat="48.68653" lon="1.73551">
        <ele>125.73536</ele>
        <time>2014-08-12T11:57:44Z</time>
      </trkpt>
      <trkpt lat="48.68662" lon="1.73552">
        <ele>124.21948</ele>
        <time>2014-08-12T11:57:49Z</time>
      </trkpt>
      <trkpt lat="48.68669" lon="1.73554">
        <ele>124.21948</ele>
        <time>2014-08-12T11:57:54Z</time>
      </trkpt>
      <trkpt lat="48.68676" lon="1.73553">
        <ele>122.84123</ele>
        <time>2014-08-12T11:57:58Z</time>
      </trkpt>
      <trkpt lat="48.68687" lon="1.73557">
        <ele>121.95346</ele>
        <time>2014-08-12T11:58:04Z</time>
      </trkpt>
      <trkpt lat="48.68693" lon="1.73559">
        <ele>121.95346</ele>
        <time>2014-08-12T11:58:09Z</time>
      </trkpt>
      <trkpt lat="48.68704" lon="1.73561">
        <ele>121.55019</ele>
        <time>2014-08-12T11:58:14Z</time>
      </trkpt>
      <trkpt lat="48.68713" lon="1.73562">
        <ele>121.55019</ele>
        <time>2014-08-12T11:58:19Z</time>
      </trkpt>
      <trkpt lat="48.6872" lon="1.73561">
        <ele>121.696495</ele>
        <time>2014-08-12T11:58:24Z</time>
      </trkpt>
      <trkpt lat="48.68729" lon="1.73562">
        <ele>122.018715</ele>
        <time>2014-08-12T11:58:29Z</time>
      </trkpt>
      <trkpt lat="48.68738" lon="1.73563">
        <ele>122.57361</ele>
        <time>2014-08-12T11:58:34Z</time>
      </trkpt>
      <trkpt lat="48.68748" lon="1.73566">
        <ele>123.39864</ele>
        <time>2014-08-12T11:58:39Z</time>
      </trkpt>
      <trkpt lat="48.68756" lon="1.73566">
        <ele>123.39864</ele>
        <time>2014-08-12T11:58:44Z</time>
      </trkpt>
      <trkpt lat="48.68768" lon="1.73566">
        <ele>124.700676</ele>
        <time>2014-08-12T11:58:49Z</time>
      </trkpt>
      <trkpt lat="48.68774" lon="1.73568">
        <ele>124.700676</ele>
        <time>2014-08-12T11:58:54Z</time>
      </trkpt>
      <trkpt lat="48.68778" lon="1.73571">
        <ele>126.45383</ele>
        <time>2014-08-12T11:58:59Z</time>
      </trkpt>
      <trkpt lat="48.68787" lon="1.73572">
        <ele>126.45383</ele>
        <time>2014-08-12T11:59:03Z</time>
      </trkpt>
      <trkpt lat="48.68801" lon="1.73575">
        <ele>128.532</ele>
        <time>2014-08-12T11:59:10Z</time>
      </trkpt>
      <trkpt lat="48.68806" lon="1.73577">
        <ele>128.532</ele>
        <time>2014-08-12T11:59:14Z</time>
      </trkpt>
      <trkpt lat="48.68815" lon="1.73578">
        <ele>130.5148</ele>
        <time>2014-08-12T11:59:19Z</time>
      </trkpt>
      <trkpt lat="48.68823" lon="1.73577">
        <ele>130.5148</ele>
        <time>2014-08-12T11:59:24Z</time>
      </trkpt>
      <trkpt lat="48.68828" lon="1.73577">
        <ele>132.44537</ele>
        <time>2014-08-12T11:59:29Z</time>
      </trkpt>
      <trkpt lat="48.68835" lon="1.73578">
        <ele>132.44537</ele>
        <time>2014-08-12T11:59:34Z</time>
      </trkpt>
      <trkpt lat="48.68844" lon="1.73579">
        <ele>134.69534</ele>
        <time>2014-08-12T11:59:39Z</time>
      </trkpt>
      <trkpt lat="48.68854" lon="1.73578">
        <ele>136.94528</ele>
        <time>2014-08-12T11:59:44Z</time>
      </trkpt>
      <trkpt lat="48.6886" lon="1.73578">
        <ele>136.94528</ele>
        <time>2014-08-12T11:59:49Z</time>
      </trkpt>
      <trkpt lat="48.68868" lon="1.73578">
        <ele>139.20198</ele>
        <time>2014-08-12T11:59:54Z</time>
      </trkpt>
      <trkpt lat="48.68874" lon="1.73579">
        <ele>139.20198</ele>
        <time>2014-08-12T11:59:59Z</time>
      </trkpt>
      <trkpt lat="48.68878" lon="1.7358">
        <ele>141.44296</ele>
        <time>2014-08-12T12:00:02Z</time>
      </trkpt>
      <trkpt lat="48.68889" lon="1.7358">
        <ele>143.83493</ele>
        <time>2014-08-12T12:00:07Z</time>
      </trkpt>
      <trkpt lat="48.68905" lon="1.73581">
        <ele>146.28706</ele>
        <time>2014-08-12T12:00:15Z</time>
      </trkpt>
      <trkpt lat="48.68909" lon="1.7358">
        <ele>146.28706</ele>
        <time>2014-08-12T12:00:19Z</time>
      </trkpt>
      <trkpt lat="48.6892" lon="1.73581">
        <ele>147.38934</ele>
        <time>2014-08-12T12:00:24Z</time>
      </trkpt>
      <trkpt lat="48.68929" lon="1.73584">
        <ele>147.38934</ele>
        <time>2014-08-12T12:00:29Z</time>
      </trkpt>
      <trkpt lat="48.68934" lon="1.73585">
        <ele>148.27477</ele>
        <time>2014-08-12T12:00:33Z</time>
      </trkpt>
      <trkpt lat="48.68944" lon="1.73586">
        <ele>148.9995</ele>
        <time>2014-08-12T12:00:40Z</time>
      </trkpt>
      <trkpt lat="48.68948" lon="1.73587">
        <ele>148.9995</ele>
        <time>2014-08-12T12:00:44Z</time>
      </trkpt>
      <trkpt lat="48.68958" lon="1.73588">
        <ele>150.03409</ele>
        <time>2014-08-12T12:00:49Z</time>
      </trkpt>
      <trkpt lat="48.68968" lon="1.73587">
        <ele>151.3959</ele>
        <time>2014-08-12T12:00:54Z</time>
      </trkpt>
      <trkpt lat="48.68975" lon="1.73587">
        <ele>151.3959</ele>
        <time>2014-08-12T12:00:59Z</time>
      </trkpt>
      <trkpt lat="48.68978" lon="1.73589">
        <ele>152.71114</ele>
        <time>2014-08-12T12:01:02Z</time>
      </trkpt>
      <trkpt lat="48.68986" lon="1.73589">
        <ele>152.71114</ele>
        <time>2014-08-12T12:01:08Z</time>
      </trkpt>
      <trkpt lat="48.69" lon="1.73592">
        <ele>154.12372</ele>
        <time>2014-08-12T12:01:15Z</time>
      </trkpt>
      <trkpt lat="48.69003" lon="1.73594">
        <ele>154.12372</ele>
        <time>2014-08-12T12:01:18Z</time>
      </trkpt>
      <trkpt lat="48.69013" lon="1.73596">
        <ele>155.39221</ele>
        <time>2014-08-12T12:01:25Z</time>
      </trkpt>
      <trkpt lat="48.69019" lon="1.73597">
        <ele>155.39221</ele>
        <time>2014-08-12T12:01:29Z</time>
      </trkpt>
      <trkpt lat="48.69026" lon="1.73598">
        <ele>156.37988</ele>
        <time>2014-08-12T12:01:33Z</time>
      </trkpt>
      <trkpt lat="48.69036" lon="1.73599">
        <ele>157.00424</ele>
        <time>2014-08-12T12:01:40Z</time>
      </trkpt>
      <trkpt lat="48.69042" lon="1.73598">
        <ele>157.00424</ele>
        <time>2014-08-12T12:01:44Z</time>
      </trkpt>
      <trkpt lat="48.6905" lon="1.73599">
        <ele>157.52147</ele>
        <time>2014-08-12T12:01:49Z</time>
      </trkpt>
      <trkpt lat="48.69056" lon="1.73603">
        <ele>157.52147</ele>
        <time>2014-08-12T12:01:54Z</time>
      </trkpt>
      <trkpt lat="48.69063" lon="1.73605">
        <ele>158.29907</ele>
        <time>2014-08-12T12:01:59Z</time>
      </trkpt>
      <trkpt lat="48.69066" lon="1.73603">
        <ele>158.29907</ele>
        <time>2014-08-12T12:02:03Z</time>
      </trkpt>
      <trkpt lat="48.69081" lon="1.73605">
        <ele>158.76903</ele>
        <time>2014-08-12T12:02:09Z</time>
      </trkpt>
      <trkpt lat="48.69093" lon="1.73607">
        <ele>159.1266</ele>
        <time>2014-08-12T12:02:14Z</time>
      </trkpt>
      <trkpt lat="48.69101" lon="1.73607">
        <ele>159.1266</ele>
        <time>2014-08-12T12:02:19Z</time>
      </trkpt>
      <trkpt lat="48.6911" lon="1.73607">
        <ele>159.30815</ele>
        <time>2014-08-12T12:02:24Z</time>
      </trkpt>
      <trkpt lat="48.69115" lon="1.73607">
        <ele>159.30815</ele>
        <time>2014-08-12T12:02:29Z</time>
      </trkpt>
      <trkpt lat="48.69121" lon="1.73605">
        <ele>159.58675</ele>
        <time>2014-08-12T12:02:33Z</time>
      </trkpt>
      <trkpt lat="48.69134" lon="1.73607">
        <ele>159.91261</ele>
        <time>2014-08-12T12:02:40Z</time>
      </trkpt>
      <trkpt lat="48.69141" lon="1.73607">
        <ele>159.91261</ele>
        <time>2014-08-12T12:02:44Z</time>
      </trkpt>
      <trkpt lat="48.69151" lon="1.73609">
        <ele>160.61423</ele>
        <time>2014-08-12T12:02:49Z</time>
      </trkpt>
      <trkpt lat="48.69159" lon="1.73609">
        <ele>160.61423</ele>
        <time>2014-08-12T12:02:54Z</time>
      </trkpt>
      <trkpt lat="48.69168" lon="1.73609">
        <ele>161.24564</ele>
        <time>2014-08-12T12:02:59Z</time>
      </trkpt>
      <trkpt lat="48.69174" lon="1.7361">
        <ele>161.24564</ele>
        <time>2014-08-12T12:03:03Z</time>
      </trkpt>
      <trkpt lat="48.69189" lon="1.7361">
        <ele>162.14326</ele>
        <time>2014-08-12T12:03:10Z</time>
      </trkpt>
      <trkpt lat="48.69193" lon="1.73611">
        <ele>162.14326</ele>
        <time>2014-08-12T12:03:14Z</time>
      </trkpt>
      <trkpt lat="48.692" lon="1.73613">
        <ele>162.98405</ele>
        <time>2014-08-12T12:03:19Z</time>
      </trkpt>
      <trkpt lat="48.69204" lon="1.73614">
        <ele>162.98405</ele>
        <time>2014-08-12T12:03:23Z</time>
      </trkpt>
      <trkpt lat="48.69216" lon="1.73617">
        <ele>163.98772</ele>
        <time>2014-08-12T12:03:30Z</time>
      </trkpt>
      <trkpt lat="48.69219" lon="1.73619">
        <ele>163.98772</ele>
        <time>2014-08-12T12:03:34Z</time>
      </trkpt>
      <trkpt lat="48.69227" lon="1.7362">
        <ele>164.91068</ele>
        <time>2014-08-12T12:03:39Z</time>
      </trkpt>
      <trkpt lat="48.69236" lon="1.73622">
        <ele>165.72928</ele>
        <time>2014-08-12T12:03:44Z</time>
      </trkpt>
      <trkpt lat="48.69246" lon="1.73624">
        <ele>166.46523</ele>
        <time>2014-08-12T12:03:49Z</time>
      </trkpt>
      <trkpt lat="48.69253" lon="1.73623">
        <ele>166.46523</ele>
        <time>2014-08-12T12:03:54Z</time>
      </trkpt>
      <trkpt lat="48.69258" lon="1.73623">
        <ele>167.00917</ele>
        <time>2014-08-12T12:03:58Z</time>
      </trkpt>
      <trkpt lat="48.69266" lon="1.73622">
        <ele>167.00917</ele>
        <time>2014-08-12T12:04:02Z</time>
      </trkpt>
      <trkpt lat="48.69274" lon="1.73622">
        <ele>167.53421</ele>
        <time>2014-08-12T12:04:09Z</time>
      </trkpt>
      <trkpt lat="48.69284" lon="1.73622">
        <ele>167.98468</ele>
        <time>2014-08-12T12:04:14Z</time>
      </trkpt>
      <trkpt lat="48.69293" lon="1.73626">
        <ele>167.92014</ele>
        <time>2014-08-12T12:04:19Z</time>
      </trkpt>
      <trkpt lat="48.69301" lon="1.73627">
        <ele>167.92014</ele>
        <time>2014-08-12T12:04:24Z</time>
      </trkpt>
      <trkpt lat="48.69306" lon="1.73627">
        <ele>167.71214</ele>
        <time>2014-08-12T12:04:28Z</time>
      </trkpt>
      <trkpt lat="48.69317" lon="1.7363">
        <ele>167.28752</ele>
        <time>2014-08-12T12:04:35Z</time>
      </trkpt>
      <trkpt lat="48.69323" lon="1.7363">
        <ele>167.28752</ele>
        <time>2014-08-12T12:04:39Z</time>
      </trkpt>
      <trkpt lat="48.69332" lon="1.7363">
        <ele>166.69434</ele>
        <time>2014-08-12T12:04:44Z</time>
      </trkpt>
      <trkpt lat="48.69339" lon="1.73632">
        <ele>166.69434</ele>
        <time>2014-08-12T12:04:49Z</time>
      </trkpt>
      <trkpt lat="48.69347" lon="1.73632">
        <ele>166.36673</ele>
        <time>2014-08-12T12:04:54Z</time>
      </trkpt>
      <trkpt lat="48.69358" lon="1.73635">
        <ele>165.92796</ele>
        <time>2014-08-12T12:04:59Z</time>
      </trkpt>
      <trkpt lat="48.69365" lon="1.73636">
        <ele>165.92796</ele>
        <time>2014-08-12T12:05:04Z</time>
      </trkpt>
      <trkpt lat="48.69372" lon="1.73637">
        <ele>165.23105</ele>
        <time>2014-08-12T12:05:09Z</time>
      </trkpt>
      <trkpt lat="48.69379" lon="1.73638">
        <ele>165.23105</ele>
        <time>2014-08-12T12:05:14Z</time>
      </trkpt>
      <trkpt lat="48.69388" lon="1.73639">
        <ele>164.6305</ele>
        <time>2014-08-12T12:05:19Z</time>
      </trkpt>
      <trkpt lat="48.69398" lon="1.7364">
        <ele>164.15176</ele>
        <time>2014-08-12T12:05:24Z</time>
      </trkpt>
      <trkpt lat="48.69411" lon="1.73639">
        <ele>163.80371</ele>
        <time>2014-08-12T12:05:29Z</time>
      </trkpt>
      <trkpt lat="48.69422" lon="1.73635">
        <ele>162.98883</ele>
        <time>2014-08-12T12:05:34Z</time>
      </trkpt>
      <trkpt lat="48.69431" lon="1.73633">
        <ele>162.20679</ele>
        <time>2014-08-12T12:05:39Z</time>
      </trkpt>
      <trkpt lat="48.69439" lon="1.73634">
        <ele>162.20679</ele>
        <time>2014-08-12T12:05:44Z</time>
      </trkpt>
      <trkpt lat="48.69444" lon="1.73634">
        <ele>161.27185</ele>
        <time>2014-08-12T12:05:48Z</time>
      </trkpt>
      <trkpt lat="48.69452" lon="1.73636">
        <ele>161.27185</ele>
        <time>2014-08-12T12:05:54Z</time>
      </trkpt>
      <trkpt lat="48.69461" lon="1.73638">
        <ele>160.01231</ele>
        <time>2014-08-12T12:05:59Z</time>
      </trkpt>
      <trkpt lat="48.69469" lon="1.7364">
        <ele>160.01231</ele>
        <time>2014-08-12T12:06:04Z</time>
      </trkpt>
      <trkpt lat="48.6948" lon="1.73641">
        <ele>158.57256</ele>
        <time>2014-08-12T12:06:09Z</time>
      </trkpt>
      <trkpt lat="48.69486" lon="1.73643">
        <ele>158.57256</ele>
        <time>2014-08-12T12:06:14Z</time>
      </trkpt>
      <trkpt lat="48.69496" lon="1.73643">
        <ele>157.33174</ele>
        <time>2014-08-12T12:06:19Z</time>
      </trkpt>
      <trkpt lat="48.69504" lon="1.73644">
        <ele>157.33174</ele>
        <time>2014-08-12T12:06:24Z</time>
      </trkpt>
      <trkpt lat="48.69511" lon="1.73643">
        <ele>156.2226</ele>
        <time>2014-08-12T12:06:29Z</time>
      </trkpt>
      <trkpt lat="48.69518" lon="1.73641">
        <ele>156.2226</ele>
        <time>2014-08-12T12:06:34Z</time>
      </trkpt>
      <trkpt lat="48.69525" lon="1.73641">
        <ele>155.36964</ele>
        <time>2014-08-12T12:06:39Z</time>
      </trkpt>
      <trkpt lat="48.69529" lon="1.73642">
        <ele>155.36964</ele>
        <time>2014-08-12T12:06:44Z</time>
      </trkpt>
      <trkpt lat="48.69532" lon="1.73644">
        <ele>155.36964</ele>
        <time>2014-08-12T12:06:47Z</time>
      </trkpt>
      <trkpt lat="48.69535" lon="1.73644">
        <ele>154.81543</ele>
        <time>2014-08-12T12:06:52Z</time>
      </trkpt>
      <trkpt lat="48.69538" lon="1.73645">
        <ele>154.81543</ele>
        <time>2014-08-12T12:06:58Z</time>
      </trkpt>
      <trkpt lat="48.69551" lon="1.73646">
        <ele>154.7713</ele>
        <time>2014-08-12T12:07:05Z</time>
      </trkpt>
      <trkpt lat="48.69555" lon="1.73644">
        <ele>154.7713</ele>
        <time>2014-08-12T12:07:08Z</time>
      </trkpt>
      <trkpt lat="48.69562" lon="1.73644">
        <ele>154.76866</ele>
        <time>2014-08-12T12:07:15Z</time>
      </trkpt>
      <trkpt lat="48.69566" lon="1.73644">
        <ele>154.76866</ele>
        <time>2014-08-12T12:07:19Z</time>
      </trkpt>
      <trkpt lat="48.69572" lon="1.73644">
        <ele>154.56042</ele>
        <time>2014-08-12T12:07:24Z</time>
      </trkpt>
      <trkpt lat="48.69575" lon="1.73642">
        <ele>154.56042</ele>
        <time>2014-08-12T12:07:29Z</time>
      </trkpt>
      <trkpt lat="48.69579" lon="1.73642">
        <ele>154.56042</ele>
        <time>2014-08-12T12:07:34Z</time>
      </trkpt>
      <trkpt lat="48.69578" lon="1.73637">
        <ele>154.99898</ele>
        <time>2014-08-12T12:07:54Z</time>
      </trkpt>
      <trkpt lat="48.69578" lon="1.73637">
        <ele>154.99898</ele>
        <time>2014-08-12T12:07:59Z</time>
      </trkpt>
      <trkpt lat="48.69586" lon="1.73637">
        <ele>154.99898</ele>
        <time>2014-08-12T12:08:14Z</time>
      </trkpt>
      <trkpt lat="48.69593" lon="1.73635">
        <ele>155.7049</ele>
        <time>2014-08-12T12:08:24Z</time>
      </trkpt>
      <trkpt lat="48.69596" lon="1.73645">
        <ele>155.7049</ele>
        <time>2014-08-12T12:08:29Z</time>
      </trkpt>
      <trkpt lat="48.69598" lon="1.73646">
        <ele>156.31136</ele>
        <time>2014-08-12T12:08:33Z</time>
      </trkpt>
      <trkpt lat="48.69602" lon="1.73648">
        <ele>156.31136</ele>
        <time>2014-08-12T12:08:40Z</time>
      </trkpt>
      <trkpt lat="48.69606" lon="1.73649">
        <ele>156.31136</ele>
        <time>2014-08-12T12:08:44Z</time>
      </trkpt>
      <trkpt lat="48.69605" lon="1.73649">
        <ele>156.31136</ele>
        <time>2014-08-12T12:08:59Z</time>
      </trkpt>
      <trkpt lat="48.69605" lon="1.73649">
        <ele>156.31136</ele>
        <time>2014-08-12T12:09:04Z</time>
      </trkpt>
      <trkpt lat="48.69608" lon="1.73647">
        <ele>156.59395</ele>
        <time>2014-08-12T12:09:09Z</time>
      </trkpt>
      <trkpt lat="48.69613" lon="1.73644">
        <ele>156.59395</ele>
        <time>2014-08-12T12:09:14Z</time>
      </trkpt>
      <trkpt lat="48.69617" lon="1.73648">
        <ele>156.80678</ele>
        <time>2014-08-12T12:09:19Z</time>
      </trkpt>
      <trkpt lat="48.69622" lon="1.73654">
        <ele>156.80678</ele>
        <time>2014-08-12T12:09:24Z</time>
      </trkpt>
      <trkpt lat="48.69627" lon="1.73659">
        <ele>156.91159</ele>
        <time>2014-08-12T12:09:29Z</time>
      </trkpt>
      <trkpt lat="48.69635" lon="1.73659">
        <ele>156.91159</ele>
        <time>2014-08-12T12:09:34Z</time>
      </trkpt>
      <trkpt lat="48.6964" lon="1.7366">
        <ele>157.03168</ele>
        <time>2014-08-12T12:09:39Z</time>
      </trkpt>
      <trkpt lat="48.69644" lon="1.73661">
        <ele>157.03168</ele>
        <time>2014-08-12T12:09:44Z</time>
      </trkpt>
      <trkpt lat="48.69649" lon="1.73663">
        <ele>157.18036</ele>
        <time>2014-08-12T12:09:49Z</time>
      </trkpt>
      <trkpt lat="48.69658" lon="1.73663">
        <ele>157.18036</ele>
        <time>2014-08-12T12:09:54Z</time>
      </trkpt>
      <trkpt lat="48.69664" lon="1.73663">
        <ele>157.22566</ele>
        <time>2014-08-12T12:09:59Z</time>
      </trkpt>
      <trkpt lat="48.69673" lon="1.73663">
        <ele>157.22566</ele>
        <time>2014-08-12T12:10:04Z</time>
      </trkpt>
      <trkpt lat="48.69677" lon="1.73664">
        <ele>157.23294</ele>
        <time>2014-08-12T12:10:08Z</time>
      </trkpt>
      <trkpt lat="48.69683" lon="1.73662">
        <ele>157.23294</ele>
        <time>2014-08-12T12:10:12Z</time>
      </trkpt>
      <trkpt lat="48.69691" lon="1.73658">
        <ele>157.20517</ele>
        <time>2014-08-12T12:10:18Z</time>
      </trkpt>
      <trkpt lat="48.69698" lon="1.73659">
        <ele>157.20517</ele>
        <time>2014-08-12T12:10:25Z</time>
      </trkpt>
      <trkpt lat="48.69703" lon="1.7366">
        <ele>156.9722</ele>
        <time>2014-08-12T12:10:28Z</time>
      </trkpt>
      <trkpt lat="48.6971" lon="1.73662">
        <ele>156.9722</ele>
        <time>2014-08-12T12:10:34Z</time>
      </trkpt>
      <trkpt lat="48.69715" lon="1.73662">
        <ele>156.63632</ele>
        <time>2014-08-12T12:10:38Z</time>
      </trkpt>
      <trkpt lat="48.69728" lon="1.73664">
        <ele>156.1773</ele>
        <time>2014-08-12T12:10:44Z</time>
      </trkpt>
      <trkpt lat="48.69734" lon="1.73665">
        <ele>156.1773</ele>
        <time>2014-08-12T12:10:48Z</time>
      </trkpt>
      <trkpt lat="48.69741" lon="1.73666">
        <ele>155.74963</ele>
        <time>2014-08-12T12:10:53Z</time>
      </trkpt>
      <trkpt lat="48.69748" lon="1.73666">
        <ele>155.74963</ele>
        <time>2014-08-12T12:10:59Z</time>
      </trkpt>
      <trkpt lat="48.69755" lon="1.73664">
        <ele>155.5251</ele>
        <time>2014-08-12T12:11:04Z</time>
      </trkpt>
      <trkpt lat="48.6976" lon="1.73673">
        <ele>155.5251</ele>
        <time>2014-08-12T12:11:09Z</time>
      </trkpt>
      <trkpt lat="48.69771" lon="1.73676">
        <ele>155.08586</ele>
        <time>2014-08-12T12:11:14Z</time>
      </trkpt>
      <trkpt lat="48.69779" lon="1.73676">
        <ele>155.08586</ele>
        <time>2014-08-12T12:11:19Z</time>
      </trkpt>
      <trkpt lat="48.69791" lon="1.73676">
        <ele>154.75148</ele>
        <time>2014-08-12T12:11:24Z</time>
      </trkpt>
      <trkpt lat="48.69799" lon="1.73676">
        <ele>154.75148</ele>
        <time>2014-08-12T12:11:29Z</time>
      </trkpt>
      <trkpt lat="48.69808" lon="1.73675">
        <ele>154.41418</ele>
        <time>2014-08-12T12:11:34Z</time>
      </trkpt>
      <trkpt lat="48.69817" lon="1.73676">
        <ele>154.13263</ele>
        <time>2014-08-12T12:11:39Z</time>
      </trkpt>
      <trkpt lat="48.69824" lon="1.73677">
        <ele>154.13263</ele>
        <time>2014-08-12T12:11:44Z</time>
      </trkpt>
      <trkpt lat="48.69828" lon="1.73675">
        <ele>153.94652</ele>
        <time>2014-08-12T12:11:49Z</time>
      </trkpt>
      <trkpt lat="48.69836" lon="1.73677">
        <ele>153.94652</ele>
        <time>2014-08-12T12:11:54Z</time>
      </trkpt>
      <trkpt lat="48.6984" lon="1.73677">
        <ele>153.9212</ele>
        <time>2014-08-12T12:11:59Z</time>
      </trkpt>
      <trkpt lat="48.69843" lon="1.73678">
        <ele>153.9212</ele>
        <time>2014-08-12T12:12:02Z</time>
      </trkpt>
      <trkpt lat="48.69853" lon="1.7368">
        <ele>153.85732</ele>
        <time>2014-08-12T12:12:07Z</time>
      </trkpt>
      <trkpt lat="48.69864" lon="1.73686">
        <ele>153.74316</ele>
        <time>2014-08-12T12:12:15Z</time>
      </trkpt>
      <trkpt lat="48.69869" lon="1.73687">
        <ele>153.74316</ele>
        <time>2014-08-12T12:12:19Z</time>
      </trkpt>
      <trkpt lat="48.69877" lon="1.73689">
        <ele>153.4095</ele>
        <time>2014-08-12T12:12:24Z</time>
      </trkpt>
      <trkpt lat="48.69883" lon="1.7369">
        <ele>153.4095</ele>
        <time>2014-08-12T12:12:29Z</time>
      </trkpt>
      <trkpt lat="48.69892" lon="1.73689">
        <ele>153.03154</ele>
        <time>2014-08-12T12:12:34Z</time>
      </trkpt>
      <trkpt lat="48.69901" lon="1.73691">
        <ele>153.03154</ele>
        <time>2014-08-12T12:12:39Z</time>
      </trkpt>
      <trkpt lat="48.69906" lon="1.73692">
        <ele>152.62764</ele>
        <time>2014-08-12T12:12:44Z</time>
      </trkpt>
      <trkpt lat="48.69914" lon="1.7369">
        <ele>152.62764</ele>
        <time>2014-08-12T12:12:49Z</time>
      </trkpt>
      <trkpt lat="48.69922" lon="1.7369">
        <ele>152.186</ele>
        <time>2014-08-12T12:12:54Z</time>
      </trkpt>
      <trkpt lat="48.69926" lon="1.73691">
        <ele>152.186</ele>
        <time>2014-08-12T12:12:58Z</time>
      </trkpt>
      <trkpt lat="48.69933" lon="1.7369">
        <ele>151.82549</ele>
        <time>2014-08-12T12:13:04Z</time>
      </trkpt>
      <trkpt lat="48.69944" lon="1.73689">
        <ele>151.59834</ele>
        <time>2014-08-12T12:13:09Z</time>
      </trkpt>
      <trkpt lat="48.69949" lon="1.73689">
        <ele>151.59834</ele>
        <time>2014-08-12T12:13:13Z</time>
      </trkpt>
      <trkpt lat="48.69954" lon="1.7369">
        <ele>151.39403</ele>
        <time>2014-08-12T12:13:17Z</time>
      </trkpt>
      <trkpt lat="48.6996" lon="1.73689">
        <ele>151.39403</ele>
        <time>2014-08-12T12:13:22Z</time>
      </trkpt>
      <trkpt lat="48.69969" lon="1.73691">
        <ele>151.19652</ele>
        <time>2014-08-12T12:13:27Z</time>
      </trkpt>
      <trkpt lat="48.69978" lon="1.73692">
        <ele>150.9765</ele>
        <time>2014-08-12T12:13:32Z</time>
      </trkpt>
      <trkpt lat="48.69988" lon="1.73692">
        <ele>150.72128</ele>
        <time>2014-08-12T12:13:37Z</time>
      </trkpt>
      <trkpt lat="48.69995" lon="1.73694">
        <ele>150.72128</ele>
        <time>2014-08-12T12:13:43Z</time>
      </trkpt>
      <trkpt lat="48.70005" lon="1.73696">
        <ele>150.3039</ele>
        <time>2014-08-12T12:13:50Z</time>
      </trkpt>
      <trkpt lat="48.7001" lon="1.73697">
        <ele>150.3039</ele>
        <time>2014-08-12T12:13:54Z</time>
      </trkpt>
      <trkpt lat="48.70019" lon="1.73697">
        <ele>149.7224</ele>
        <time>2014-08-12T12:13:59Z</time>
      </trkpt>
      <trkpt lat="48.70025" lon="1.73697">
        <ele>149.7224</ele>
        <time>2014-08-12T12:14:03Z</time>
      </trkpt>
      <trkpt lat="48.70027" lon="1.73696">
        <ele>149.7224</ele>
        <time>2014-08-12T12:14:10Z</time>
      </trkpt>
      <trkpt lat="48.70036" lon="1.73695">
        <ele>148.68723</ele>
        <time>2014-08-12T12:14:14Z</time>
      </trkpt>
      <trkpt lat="48.70046" lon="1.73695">
        <ele>147.69513</ele>
        <time>2014-08-12T12:14:19Z</time>
      </trkpt>
      <trkpt lat="48.70051" lon="1.73694">
        <ele>147.69513</ele>
        <time>2014-08-12T12:14:24Z</time>
      </trkpt>
      <trkpt lat="48.70056" lon="1.73698">
        <ele>146.58652</ele>
        <time>2014-08-12T12:14:29Z</time>
      </trkpt>
      <trkpt lat="48.7006" lon="1.73699">
        <ele>146.58652</ele>
        <time>2014-08-12T12:14:33Z</time>
      </trkpt>
      <trkpt lat="48.70069" lon="1.73699">
        <ele>145.34357</ele>
        <time>2014-08-12T12:14:40Z</time>
      </trkpt>
      <trkpt lat="48.70079" lon="1.73702">
        <ele>144.31033</ele>
        <time>2014-08-12T12:14:44Z</time>
      </trkpt>
      <trkpt lat="48.70088" lon="1.73703">
        <ele>144.31033</ele>
        <time>2014-08-12T12:14:49Z</time>
      </trkpt>
      <trkpt lat="48.70095" lon="1.73703">
        <ele>143.27177</ele>
        <time>2014-08-12T12:14:54Z</time>
      </trkpt>
      <trkpt lat="48.70106" lon="1.73702">
        <ele>142.37448</ele>
        <time>2014-08-12T12:14:59Z</time>
      </trkpt>
      <trkpt lat="48.70118" lon="1.73701">
        <ele>141.65298</ele>
        <time>2014-08-12T12:15:04Z</time>
      </trkpt>
      <trkpt lat="48.70128" lon="1.73702">
        <ele>141.08105</ele>
        <time>2014-08-12T12:15:09Z</time>
      </trkpt>
      <trkpt lat="48.70136" lon="1.73703">
        <ele>141.08105</ele>
        <time>2014-08-12T12:15:14Z</time>
      </trkpt>
      <trkpt lat="48.70145" lon="1.73706">
        <ele>140.64836</ele>
        <time>2014-08-12T12:15:19Z</time>
      </trkpt>
      <trkpt lat="48.70157" lon="1.7371">
        <ele>140.79161</ele>
        <time>2014-08-12T12:15:24Z</time>
      </trkpt>
      <trkpt lat="48.70164" lon="1.73711">
        <ele>140.79161</ele>
        <time>2014-08-12T12:15:29Z</time>
      </trkpt>
      <trkpt lat="48.70169" lon="1.73715">
        <ele>141.15002</ele>
        <time>2014-08-12T12:15:34Z</time>
      </trkpt>
      <trkpt lat="48.70177" lon="1.73716">
        <ele>141.15002</ele>
        <time>2014-08-12T12:15:39Z</time>
      </trkpt>
      <trkpt lat="48.70185" lon="1.73717">
        <ele>141.74893</ele>
        <time>2014-08-12T12:15:44Z</time>
      </trkpt>
      <trkpt lat="48.70194" lon="1.73715">
        <ele>141.74893</ele>
        <time>2014-08-12T12:15:49Z</time>
      </trkpt>
      <trkpt lat="48.70202" lon="1.73715">
        <ele>142.40936</ele>
        <time>2014-08-12T12:15:54Z</time>
      </trkpt>
      <trkpt lat="48.7021" lon="1.73716">
        <ele>142.40936</ele>
        <time>2014-08-12T12:15:59Z</time>
      </trkpt>
      <trkpt lat="48.70218" lon="1.73716">
        <ele>142.9797</ele>
        <time>2014-08-12T12:16:04Z</time>
      </trkpt>
      <trkpt lat="48.70226" lon="1.73718">
        <ele>142.9797</ele>
        <time>2014-08-12T12:16:08Z</time>
      </trkpt>
      <trkpt lat="48.70238" lon="1.73717">
        <ele>143.49269</ele>
        <time>2014-08-12T12:16:15Z</time>
      </trkpt>
      <trkpt lat="48.70242" lon="1.73717">
        <ele>143.49269</ele>
        <time>2014-08-12T12:16:19Z</time>
      </trkpt>
      <trkpt lat="48.70249" lon="1.73718">
        <ele>144.1373</ele>
        <time>2014-08-12T12:16:24Z</time>
      </trkpt>
      <trkpt lat="48.70256" lon="1.73717">
        <ele>144.1373</ele>
        <time>2014-08-12T12:16:28Z</time>
      </trkpt>
      <trkpt lat="48.70264" lon="1.73716">
        <ele>144.7424</ele>
        <time>2014-08-12T12:16:35Z</time>
      </trkpt>
      <trkpt lat="48.70268" lon="1.73718">
        <ele>144.7424</ele>
        <time>2014-08-12T12:16:39Z</time>
      </trkpt>
      <trkpt lat="48.7027" lon="1.73723">
        <ele>144.7424</ele>
        <time>2014-08-12T12:16:42Z</time>
      </trkpt>
      <trkpt lat="48.70273" lon="1.73725">
        <ele>145.1352</ele>
        <time>2014-08-12T12:16:47Z</time>
      </trkpt>
      <trkpt lat="48.70273" lon="1.73731">
        <ele>145.1352</ele>
        <time>2014-08-12T12:16:52Z</time>
      </trkpt>
      <trkpt lat="48.70278" lon="1.73734">
        <ele>145.68935</ele>
        <time>2014-08-12T12:17:00Z</time>
      </trkpt>
      <trkpt lat="48.7028" lon="1.73737">
        <ele>145.68935</ele>
        <time>2014-08-12T12:17:04Z</time>
      </trkpt>
      <trkpt lat="48.70281" lon="1.73747">
        <ele>146.79395</ele>
        <time>2014-08-12T12:17:09Z</time>
      </trkpt>
      <trkpt lat="48.7028" lon="1.7376">
        <ele>146.79395</ele>
        <time>2014-08-12T12:17:14Z</time>
      </trkpt>
      <trkpt lat="48.70277" lon="1.73772">
        <ele>147.79918</ele>
        <time>2014-08-12T12:17:19Z</time>
      </trkpt>
      <trkpt lat="48.70274" lon="1.73784">
        <ele>147.79918</ele>
        <time>2014-08-12T12:17:24Z</time>
      </trkpt>
      <trkpt lat="48.70272" lon="1.73791">
        <ele>148.24739</ele>
        <time>2014-08-12T12:17:27Z</time>
      </trkpt>
      <trkpt lat="48.70268" lon="1.738">
        <ele>148.24739</ele>
        <time>2014-08-12T12:17:32Z</time>
      </trkpt>
      <trkpt lat="48.70265" lon="1.73809">
        <ele>148.33588</ele>
        <time>2014-08-12T12:17:37Z</time>
      </trkpt>
      <trkpt lat="48.70263" lon="1.73822">
        <ele>148.33588</ele>
        <time>2014-08-12T12:17:42Z</time>
      </trkpt>
      <trkpt lat="48.70261" lon="1.73833">
        <ele>148.3061</ele>
        <time>2014-08-12T12:17:50Z</time>
      </trkpt>
      <trkpt lat="48.70261" lon="1.73838">
        <ele>148.3061</ele>
        <time>2014-08-12T12:17:54Z</time>
      </trkpt>
      <trkpt lat="48.7026" lon="1.73851">
        <ele>148.28133</ele>
        <time>2014-08-12T12:17:59Z</time>
      </trkpt>
      <trkpt lat="48.70261" lon="1.73857">
        <ele>148.28133</ele>
        <time>2014-08-12T12:18:05Z</time>
      </trkpt>
      <trkpt lat="48.70259" lon="1.73866">
        <ele>148.28932</ele>
        <time>2014-08-12T12:18:08Z</time>
      </trkpt>
      <trkpt lat="48.70255" lon="1.73878">
        <ele>148.28932</ele>
        <time>2014-08-12T12:18:15Z</time>
      </trkpt>
      <trkpt lat="48.70254" lon="1.73885">
        <ele>148.21167</ele>
        <time>2014-08-12T12:18:19Z</time>
      </trkpt>
      <trkpt lat="48.7025" lon="1.73898">
        <ele>148.08305</ele>
        <time>2014-08-12T12:18:24Z</time>
      </trkpt>
      <trkpt lat="48.70243" lon="1.73907">
        <ele>147.87813</ele>
        <time>2014-08-12T12:18:29Z</time>
      </trkpt>
      <trkpt lat="48.70239" lon="1.73913">
        <ele>147.87813</ele>
        <time>2014-08-12T12:18:34Z</time>
      </trkpt>
      <trkpt lat="48.70235" lon="1.7392">
        <ele>147.64577</ele>
        <time>2014-08-12T12:18:39Z</time>
      </trkpt>
      <trkpt lat="48.70227" lon="1.73929">
        <ele>147.56105</ele>
        <time>2014-08-12T12:18:49Z</time>
      </trkpt>
      <trkpt lat="48.70224" lon="1.73935">
        <ele>147.56105</ele>
        <time>2014-08-12T12:18:54Z</time>
      </trkpt>
      <trkpt lat="48.70223" lon="1.73939">
        <ele>147.56105</ele>
        <time>2014-08-12T12:18:58Z</time>
      </trkpt>
      <trkpt lat="48.70219" lon="1.73948">
        <ele>147.71375</ele>
        <time>2014-08-12T12:19:04Z</time>
      </trkpt>
      <trkpt lat="48.70212" lon="1.73957">
        <ele>147.82614</ele>
        <time>2014-08-12T12:19:09Z</time>
      </trkpt>
      <trkpt lat="48.70202" lon="1.73966">
        <ele>147.9437</ele>
        <time>2014-08-12T12:19:14Z</time>
      </trkpt>
      <trkpt lat="48.70194" lon="1.73976">
        <ele>148.02211</ele>
        <time>2014-08-12T12:19:19Z</time>
      </trkpt>
      <trkpt lat="48.70187" lon="1.73986">
        <ele>148.12134</ele>
        <time>2014-08-12T12:19:24Z</time>
      </trkpt>
      <trkpt lat="48.70183" lon="1.73996">
        <ele>148.12134</ele>
        <time>2014-08-12T12:19:29Z</time>
      </trkpt>
      <trkpt lat="48.70182" lon="1.74002">
        <ele>148.196</ele>
        <time>2014-08-12T12:19:33Z</time>
      </trkpt>
      <trkpt lat="48.7018" lon="1.74016">
        <ele>148.20421</ele>
        <time>2014-08-12T12:19:40Z</time>
      </trkpt>
      <trkpt lat="48.70176" lon="1.74023">
        <ele>148.20421</ele>
        <time>2014-08-12T12:19:44Z</time>
      </trkpt>
      <trkpt lat="48.70175" lon="1.74038">
        <ele>148.23701</ele>
        <time>2014-08-12T12:19:49Z</time>
      </trkpt>
      <trkpt lat="48.70173" lon="1.74049">
        <ele>148.23701</ele>
        <time>2014-08-12T12:19:54Z</time>
      </trkpt>
      <trkpt lat="48.70174" lon="1.74062">
        <ele>148.3788</ele>
        <time>2014-08-12T12:19:58Z</time>
      </trkpt>
      <trkpt lat="48.70176" lon="1.74079">
        <ele>148.49124</ele>
        <time>2014-08-12T12:20:05Z</time>
      </trkpt>
      <trkpt lat="48.70178" lon="1.74084">
        <ele>148.49124</ele>
        <time>2014-08-12T12:20:08Z</time>
      </trkpt>
      <trkpt lat="48.70183" lon="1.74096">
        <ele>148.53279</ele>
        <time>2014-08-12T12:20:15Z</time>
      </trkpt>
      <trkpt lat="48.70183" lon="1.74103">
        <ele>148.53279</ele>
        <time>2014-08-12T12:20:19Z</time>
      </trkpt>
      <trkpt lat="48.70185" lon="1.74115">
        <ele>148.45078</ele>
        <time>2014-08-12T12:20:24Z</time>
      </trkpt>
      <trkpt lat="48.70188" lon="1.74125">
        <ele>148.45078</ele>
        <time>2014-08-12T12:20:29Z</time>
      </trkpt>
      <trkpt lat="48.70191" lon="1.7413">
        <ele>148.29762</ele>
        <time>2014-08-12T12:20:33Z</time>
      </trkpt>
      <trkpt lat="48.70193" lon="1.74146">
        <ele>148.10771</ele>
        <time>2014-08-12T12:20:39Z</time>
      </trkpt>
      <trkpt lat="48.70194" lon="1.7416">
        <ele>147.91304</ele>
        <time>2014-08-12T12:20:44Z</time>
      </trkpt>
      <trkpt lat="48.70194" lon="1.74168">
        <ele>147.91304</ele>
        <time>2014-08-12T12:20:49Z</time>
      </trkpt>
      <trkpt lat="48.70197" lon="1.7418">
        <ele>147.59918</ele>
        <time>2014-08-12T12:20:54Z</time>
      </trkpt>
      <trkpt lat="48.70198" lon="1.74191">
        <ele>147.59918</ele>
        <time>2014-08-12T12:20:59Z</time>
      </trkpt>
      <trkpt lat="48.70203" lon="1.74204">
        <ele>147.19012</ele>
        <time>2014-08-12T12:21:04Z</time>
      </trkpt>
      <trkpt lat="48.70209" lon="1.74212">
        <ele>147.19012</ele>
        <time>2014-08-12T12:21:09Z</time>
      </trkpt>
      <trkpt lat="48.70214" lon="1.74219">
        <ele>146.66518</ele>
        <time>2014-08-12T12:21:14Z</time>
      </trkpt>
      <trkpt lat="48.70218" lon="1.74225">
        <ele>146.66518</ele>
        <time>2014-08-12T12:21:19Z</time>
      </trkpt>
      <trkpt lat="48.7022" lon="1.7423">
        <ele>146.0343</ele>
        <time>2014-08-12T12:21:24Z</time>
      </trkpt>
      <trkpt lat="48.70225" lon="1.74239">
        <ele>146.0343</ele>
        <time>2014-08-12T12:21:29Z</time>
      </trkpt>
      <trkpt lat="48.70232" lon="1.74248">
        <ele>145.27823</ele>
        <time>2014-08-12T12:21:34Z</time>
      </trkpt>
      <trkpt lat="48.70237" lon="1.74256">
        <ele>145.27823</ele>
        <time>2014-08-12T12:21:39Z</time>
      </trkpt>
      <trkpt lat="48.7024" lon="1.74265">
        <ele>144.50911</ele>
        <time>2014-08-12T12:21:44Z</time>
      </trkpt>
      <trkpt lat="48.70244" lon="1.74272">
        <ele>144.50911</ele>
        <time>2014-08-12T12:21:49Z</time>
      </trkpt>
      <trkpt lat="48.70245" lon="1.74285">
        <ele>143.75888</ele>
        <time>2014-08-12T12:21:55Z</time>
      </trkpt>
      <trkpt lat="48.70245" lon="1.74293">
        <ele>143.75888</ele>
        <time>2014-08-12T12:21:59Z</time>
      </trkpt>
      <trkpt lat="48.70245" lon="1.74308">
        <ele>142.94174</ele>
        <time>2014-08-12T12:22:04Z</time>
      </trkpt>
      <trkpt lat="48.70252" lon="1.74318">
        <ele>142.12247</ele>
        <time>2014-08-12T12:22:09Z</time>
      </trkpt>
      <trkpt lat="48.70251" lon="1.74328">
        <ele>142.12247</ele>
        <time>2014-08-12T12:22:14Z</time>
      </trkpt>
      <trkpt lat="48.70249" lon="1.74335">
        <ele>141.3755</ele>
        <time>2014-08-12T12:22:19Z</time>
      </trkpt>
      <trkpt lat="48.70252" lon="1.74339">
        <ele>141.3755</ele>
        <time>2014-08-12T12:22:24Z</time>
      </trkpt>
      <trkpt lat="48.70256" lon="1.74342">
        <ele>141.3755</ele>
        <time>2014-08-12T12:22:29Z</time>
      </trkpt>
      <trkpt lat="48.70261" lon="1.74346">
        <ele>140.92807</ele>
        <time>2014-08-12T12:22:34Z</time>
      </trkpt>
      <trkpt lat="48.70264" lon="1.74357">
        <ele>140.92807</ele>
        <time>2014-08-12T12:22:39Z</time>
      </trkpt>
      <trkpt lat="48.70266" lon="1.74363">
        <ele>140.47107</ele>
        <time>2014-08-12T12:22:44Z</time>
      </trkpt>
      <trkpt lat="48.70266" lon="1.74372">
        <ele>140.47107</ele>
        <time>2014-08-12T12:22:49Z</time>
      </trkpt>
      <trkpt lat="48.70264" lon="1.74383">
        <ele>140.04951</ele>
        <time>2014-08-12T12:22:54Z</time>
      </trkpt>
      <trkpt lat="48.70264" lon="1.74392">
        <ele>140.04951</ele>
        <time>2014-08-12T12:22:59Z</time>
      </trkpt>
      <trkpt lat="48.70266" lon="1.74402">
        <ele>139.51767</ele>
        <time>2014-08-12T12:23:04Z</time>
      </trkpt>
      <trkpt lat="48.70269" lon="1.74412">
        <ele>139.51767</ele>
        <time>2014-08-12T12:23:09Z</time>
      </trkpt>
      <trkpt lat="48.70272" lon="1.74421">
        <ele>138.9425</ele>
        <time>2014-08-12T12:23:14Z</time>
      </trkpt>
      <trkpt lat="48.70269" lon="1.74434">
        <ele>138.9425</ele>
        <time>2014-08-12T12:23:19Z</time>
      </trkpt>
      <trkpt lat="48.70267" lon="1.74442">
        <ele>138.25647</ele>
        <time>2014-08-12T12:23:24Z</time>
      </trkpt>
      <trkpt lat="48.70269" lon="1.74452">
        <ele>138.25647</ele>
        <time>2014-08-12T12:23:29Z</time>
      </trkpt>
      <trkpt lat="48.70272" lon="1.74461">
        <ele>137.49814</ele>
        <time>2014-08-12T12:23:34Z</time>
      </trkpt>
      <trkpt lat="48.70269" lon="1.74472">
        <ele>137.49814</ele>
        <time>2014-08-12T12:23:39Z</time>
      </trkpt>
      <trkpt lat="48.70267" lon="1.74481">
        <ele>136.77544</ele>
        <time>2014-08-12T12:23:44Z</time>
      </trkpt>
      <trkpt lat="48.70265" lon="1.74492">
        <ele>136.77544</ele>
        <time>2014-08-12T12:23:49Z</time>
      </trkpt>
      <trkpt lat="48.70266" lon="1.74504">
        <ele>135.92885</ele>
        <time>2014-08-12T12:23:54Z</time>
      </trkpt>
      <trkpt lat="48.70268" lon="1.74511">
        <ele>135.92885</ele>
        <time>2014-08-12T12:23:59Z</time>
      </trkpt>
      <trkpt lat="48.70275" lon="1.74524">
        <ele>135.02704</ele>
        <time>2014-08-12T12:24:04Z</time>
      </trkpt>
      <trkpt lat="48.70276" lon="1.74535">
        <ele>135.02704</ele>
        <time>2014-08-12T12:24:09Z</time>
      </trkpt>
      <trkpt lat="48.70277" lon="1.7454">
        <ele>134.1049</ele>
        <time>2014-08-12T12:24:14Z</time>
      </trkpt>
      <trkpt lat="48.70278" lon="1.74558">
        <ele>133.13716</ele>
        <time>2014-08-12T12:24:19Z</time>
      </trkpt>
      <trkpt lat="48.70277" lon="1.74569">
        <ele>133.13716</ele>
        <time>2014-08-12T12:24:24Z</time>
      </trkpt>
      <trkpt lat="48.70275" lon="1.7458">
        <ele>132.25896</ele>
        <time>2014-08-12T12:24:29Z</time>
      </trkpt>
      <trkpt lat="48.70277" lon="1.7459">
        <ele>132.25896</ele>
        <time>2014-08-12T12:24:34Z</time>
      </trkpt>
      <trkpt lat="48.7028" lon="1.74601">
        <ele>131.47995</ele>
        <time>2014-08-12T12:24:39Z</time>
      </trkpt>
      <trkpt lat="48.70286" lon="1.74607">
        <ele>131.47995</ele>
        <time>2014-08-12T12:24:44Z</time>
      </trkpt>
      <trkpt lat="48.70294" lon="1.74618">
        <ele>130.72226</ele>
        <time>2014-08-12T12:24:49Z</time>
      </trkpt>
      <trkpt lat="48.70296" lon="1.74628">
        <ele>130.72226</ele>
        <time>2014-08-12T12:24:54Z</time>
      </trkpt>
      <trkpt lat="48.70292" lon="1.74633">
        <ele>129.97127</ele>
        <time>2014-08-12T12:24:59Z</time>
      </trkpt>
      <trkpt lat="48.70288" lon="1.74637">
        <ele>129.97127</ele>
        <time>2014-08-12T12:25:04Z</time>
      </trkpt>
      <trkpt lat="48.70283" lon="1.7464">
        <ele>129.29982</ele>
        <time>2014-08-12T12:25:09Z</time>
      </trkpt>
      <trkpt lat="48.7028" lon="1.74655">
        <ele>128.61662</ele>
        <time>2014-08-12T12:25:14Z</time>
      </trkpt>
      <trkpt lat="48.70279" lon="1.74666">
        <ele>128.61662</ele>
        <time>2014-08-12T12:25:19Z</time>
      </trkpt>
      <trkpt lat="48.70276" lon="1.74678">
        <ele>128.03882</ele>
        <time>2014-08-12T12:25:24Z</time>
      </trkpt>
      <trkpt lat="48.70271" lon="1.74692">
        <ele>127.631355</ele>
        <time>2014-08-12T12:25:29Z</time>
      </trkpt>
      <trkpt lat="48.7027" lon="1.74705">
        <ele>127.631355</ele>
        <time>2014-08-12T12:25:34Z</time>
      </trkpt>
      <trkpt lat="48.70273" lon="1.74716">
        <ele>127.41066</ele>
        <time>2014-08-12T12:25:39Z</time>
      </trkpt>
      <trkpt lat="48.70272" lon="1.74726">
        <ele>127.41066</ele>
        <time>2014-08-12T12:25:44Z</time>
      </trkpt>
      <trkpt lat="48.70268" lon="1.74738">
        <ele>127.23284</ele>
        <time>2014-08-12T12:25:49Z</time>
      </trkpt>
      <trkpt lat="48.70266" lon="1.74748">
        <ele>127.23284</ele>
        <time>2014-08-12T12:25:54Z</time>
      </trkpt>
      <trkpt lat="48.70266" lon="1.7476">
        <ele>127.06532</ele>
        <time>2014-08-12T12:25:59Z</time>
      </trkpt>
      <trkpt lat="48.70263" lon="1.74771">
        <ele>127.06532</ele>
        <time>2014-08-12T12:26:04Z</time>
      </trkpt>
      <trkpt lat="48.70264" lon="1.74779">
        <ele>126.86342</ele>
        <time>2014-08-12T12:26:09Z</time>
      </trkpt>
      <trkpt lat="48.70261" lon="1.74788">
        <ele>126.86342</ele>
        <time>2014-08-12T12:26:14Z</time>
      </trkpt>
      <trkpt lat="48.70257" lon="1.74801">
        <ele>126.68669</ele>
        <time>2014-08-12T12:26:19Z</time>
      </trkpt>
      <trkpt lat="48.70256" lon="1.74813">
        <ele>126.68669</ele>
        <time>2014-08-12T12:26:24Z</time>
      </trkpt>
      <trkpt lat="48.70254" lon="1.74822">
        <ele>126.38844</ele>
        <time>2014-08-12T12:26:29Z</time>
      </trkpt>
      <trkpt lat="48.70256" lon="1.74829">
        <ele>126.38844</ele>
        <time>2014-08-12T12:26:33Z</time>
      </trkpt>
      <trkpt lat="48.70254" lon="1.74845">
        <ele>126.10691</ele>
        <time>2014-08-12T12:26:40Z</time>
      </trkpt>
      <trkpt lat="48.70252" lon="1.74857">
        <ele>126.10691</ele>
        <time>2014-08-12T12:26:44Z</time>
      </trkpt>
      <trkpt lat="48.70248" lon="1.74873">
        <ele>125.854805</ele>
        <time>2014-08-12T12:26:49Z</time>
      </trkpt>
      <trkpt lat="48.70246" lon="1.74885">
        <ele>125.854805</ele>
        <time>2014-08-12T12:26:54Z</time>
      </trkpt>
      <trkpt lat="48.70247" lon="1.74893">
        <ele>125.71585</ele>
        <time>2014-08-12T12:26:59Z</time>
      </trkpt>
      <trkpt lat="48.70245" lon="1.74903">
        <ele>125.71585</ele>
        <time>2014-08-12T12:27:02Z</time>
      </trkpt>
      <trkpt lat="48.70241" lon="1.74912">
        <ele>125.68085</ele>
        <time>2014-08-12T12:27:07Z</time>
      </trkpt>
      <trkpt lat="48.70239" lon="1.74924">
        <ele>125.68085</ele>
        <time>2014-08-12T12:27:12Z</time>
      </trkpt>
      <trkpt lat="48.70238" lon="1.74935">
        <ele>125.740944</ele>
        <time>2014-08-12T12:27:17Z</time>
      </trkpt>
      <trkpt lat="48.70232" lon="1.74955">
        <ele>125.84446</ele>
        <time>2014-08-12T12:27:25Z</time>
      </trkpt>
      <trkpt lat="48.70228" lon="1.74968">
        <ele>126.001</ele>
        <time>2014-08-12T12:27:29Z</time>
      </trkpt>
      <trkpt lat="48.70229" lon="1.74981">
        <ele>126.001</ele>
        <time>2014-08-12T12:27:34Z</time>
      </trkpt>
      <trkpt lat="48.70229" lon="1.74992">
        <ele>126.27699</ele>
        <time>2014-08-12T12:27:39Z</time>
      </trkpt>
      <trkpt lat="48.70231" lon="1.74998">
        <ele>126.27699</ele>
        <time>2014-08-12T12:27:44Z</time>
      </trkpt>
      <trkpt lat="48.70231" lon="1.75004">
        <ele>126.27699</ele>
        <time>2014-08-12T12:27:49Z</time>
      </trkpt>
      <trkpt lat="48.70232" lon="1.75009">
        <ele>126.63277</ele>
        <time>2014-08-12T12:27:54Z</time>
      </trkpt>
      <trkpt lat="48.70231" lon="1.75017">
        <ele>126.63277</ele>
        <time>2014-08-12T12:27:58Z</time>
      </trkpt>
      <trkpt lat="48.70231" lon="1.75028">
        <ele>126.90167</ele>
        <time>2014-08-12T12:28:03Z</time>
      </trkpt>
      <trkpt lat="48.70229" lon="1.75035">
        <ele>126.90167</ele>
        <time>2014-08-12T12:28:07Z</time>
      </trkpt>
      <trkpt lat="48.70226" lon="1.7505">
        <ele>127.08806</ele>
        <time>2014-08-12T12:28:14Z</time>
      </trkpt>
      <trkpt lat="48.70222" lon="1.75065">
        <ele>127.31152</ele>
        <time>2014-08-12T12:28:19Z</time>
      </trkpt>
      <trkpt lat="48.70219" lon="1.75075">
        <ele>127.31152</ele>
        <time>2014-08-12T12:28:24Z</time>
      </trkpt>
      <trkpt lat="48.70219" lon="1.75085">
        <ele>127.39458</ele>
        <time>2014-08-12T12:28:29Z</time>
      </trkpt>
      <trkpt lat="48.70215" lon="1.75096">
        <ele>127.39458</ele>
        <time>2014-08-12T12:28:34Z</time>
      </trkpt>
      <trkpt lat="48.70209" lon="1.75114">
        <ele>127.30288</ele>
        <time>2014-08-12T12:28:39Z</time>
      </trkpt>
      <trkpt lat="48.70202" lon="1.75128">
        <ele>127.192505</ele>
        <time>2014-08-12T12:28:44Z</time>
      </trkpt>
      <trkpt lat="48.70199" lon="1.75141">
        <ele>127.00636</ele>
        <time>2014-08-12T12:28:49Z</time>
      </trkpt>
      <trkpt lat="48.702" lon="1.75148">
        <ele>127.00636</ele>
        <time>2014-08-12T12:28:54Z</time>
      </trkpt>
      <trkpt lat="48.70199" lon="1.75156">
        <ele>126.64859</ele>
        <time>2014-08-12T12:28:58Z</time>
      </trkpt>
      <trkpt lat="48.70199" lon="1.75162">
        <ele>126.64859</ele>
        <time>2014-08-12T12:29:03Z</time>
      </trkpt>
      <trkpt lat="48.70196" lon="1.75178">
        <ele>126.11733</ele>
        <time>2014-08-12T12:29:10Z</time>
      </trkpt>
      <trkpt lat="48.70193" lon="1.75183">
        <ele>126.11733</ele>
        <time>2014-08-12T12:29:14Z</time>
      </trkpt>
      <trkpt lat="48.70188" lon="1.752">
        <ele>125.48345</ele>
        <time>2014-08-12T12:29:19Z</time>
      </trkpt>
      <trkpt lat="48.7019" lon="1.75209">
        <ele>125.48345</ele>
        <time>2014-08-12T12:29:24Z</time>
      </trkpt>
      <trkpt lat="48.70192" lon="1.75222">
        <ele>124.85614</ele>
        <time>2014-08-12T12:29:29Z</time>
      </trkpt>
      <trkpt lat="48.70197" lon="1.75226">
        <ele>124.85614</ele>
        <time>2014-08-12T12:29:34Z</time>
      </trkpt>
      <trkpt lat="48.70209" lon="1.75227">
        <ele>124.2069</ele>
        <time>2014-08-12T12:29:39Z</time>
      </trkpt>
      <trkpt lat="48.70216" lon="1.75233">
        <ele>124.2069</ele>
        <time>2014-08-12T12:29:44Z</time>
      </trkpt>
      <trkpt lat="48.70221" lon="1.75237">
        <ele>123.52378</ele>
        <time>2014-08-12T12:29:49Z</time>
      </trkpt>
      <trkpt lat="48.70226" lon="1.75239">
        <ele>123.52378</ele>
        <time>2014-08-12T12:29:54Z</time>
      </trkpt>
      <trkpt lat="48.70231" lon="1.75245">
        <ele>122.853485</ele>
        <time>2014-08-12T12:29:59Z</time>
      </trkpt>
      <trkpt lat="48.70238" lon="1.7525">
        <ele>122.853485</ele>
        <time>2014-08-12T12:30:04Z</time>
      </trkpt>
      <trkpt lat="48.70249" lon="1.75256">
        <ele>122.19602</ele>
        <time>2014-08-12T12:30:09Z</time>
      </trkpt>
      <trkpt lat="48.70255" lon="1.75261">
        <ele>122.19602</ele>
        <time>2014-08-12T12:30:14Z</time>
      </trkpt>
      <trkpt lat="48.70262" lon="1.75269">
        <ele>121.55138</ele>
        <time>2014-08-12T12:30:19Z</time>
      </trkpt>
      <trkpt lat="48.70268" lon="1.75274">
        <ele>121.55138</ele>
        <time>2014-08-12T12:30:24Z</time>
      </trkpt>
      <trkpt lat="48.70273" lon="1.75278">
        <ele>120.905075</ele>
        <time>2014-08-12T12:30:29Z</time>
      </trkpt>
      <trkpt lat="48.7028" lon="1.75284">
        <ele>120.905075</ele>
        <time>2014-08-12T12:30:34Z</time>
      </trkpt>
      <trkpt lat="48.70287" lon="1.75293">
        <ele>120.142845</ele>
        <time>2014-08-12T12:30:39Z</time>
      </trkpt>
      <trkpt lat="48.70291" lon="1.75297">
        <ele>120.142845</ele>
        <time>2014-08-12T12:30:44Z</time>
      </trkpt>
      <trkpt lat="48.70291" lon="1.7531">
        <ele>119.36089</ele>
        <time>2014-08-12T12:30:49Z</time>
      </trkpt>
      <trkpt lat="48.70294" lon="1.75319">
        <ele>119.36089</ele>
        <time>2014-08-12T12:30:54Z</time>
      </trkpt>
      <trkpt lat="48.70298" lon="1.75329">
        <ele>118.61957</ele>
        <time>2014-08-12T12:30:59Z</time>
      </trkpt>
      <trkpt lat="48.70301" lon="1.75333">
        <ele>118.61957</ele>
        <time>2014-08-12T12:31:04Z</time>
      </trkpt>
      <trkpt lat="48.70303" lon="1.75338">
        <ele>118.61957</ele>
        <time>2014-08-12T12:31:09Z</time>
      </trkpt>
      <trkpt lat="48.7031" lon="1.75341">
        <ele>117.81615</ele>
        <time>2014-08-12T12:31:14Z</time>
      </trkpt>
      <trkpt lat="48.70319" lon="1.75355">
        <ele>117.04298</ele>
        <time>2014-08-12T12:31:19Z</time>
      </trkpt>
      <trkpt lat="48.70329" lon="1.75365">
        <ele>116.31344</ele>
        <time>2014-08-12T12:31:24Z</time>
      </trkpt>
      <trkpt lat="48.70332" lon="1.75372">
        <ele>116.31344</ele>
        <time>2014-08-12T12:31:29Z</time>
      </trkpt>
      <trkpt lat="48.70336" lon="1.75378">
        <ele>115.59657</ele>
        <time>2014-08-12T12:31:34Z</time>
      </trkpt>
      <trkpt lat="48.70341" lon="1.75382">
        <ele>115.59657</ele>
        <time>2014-08-12T12:31:39Z</time>
      </trkpt>
      <trkpt lat="48.70346" lon="1.7539">
        <ele>114.892456</ele>
        <time>2014-08-12T12:31:44Z</time>
      </trkpt>
      <trkpt lat="48.7035" lon="1.75394">
        <ele>114.892456</ele>
        <time>2014-08-12T12:31:49Z</time>
      </trkpt>
      <trkpt lat="48.70358" lon="1.75401">
        <ele>114.21552</ele>
        <time>2014-08-12T12:31:54Z</time>
      </trkpt>
      <trkpt lat="48.70365" lon="1.75402">
        <ele>114.21552</ele>
        <time>2014-08-12T12:31:58Z</time>
      </trkpt>
      <trkpt lat="48.70379" lon="1.75404">
        <ele>113.593445</ele>
        <time>2014-08-12T12:32:05Z</time>
      </trkpt>
      <trkpt lat="48.70381" lon="1.75405">
        <ele>113.593445</ele>
        <time>2014-08-12T12:32:09Z</time>
      </trkpt>
      <trkpt lat="48.70387" lon="1.7541">
        <ele>113.593445</ele>
        <time>2014-08-12T12:32:14Z</time>
      </trkpt>
      <trkpt lat="48.70397" lon="1.7541">
        <ele>113.03728</ele>
        <time>2014-08-12T12:32:19Z</time>
      </trkpt>
      <trkpt lat="48.70403" lon="1.75415">
        <ele>113.03728</ele>
        <time>2014-08-12T12:32:24Z</time>
      </trkpt>
      <trkpt lat="48.70411" lon="1.7542">
        <ele>112.60031</ele>
        <time>2014-08-12T12:32:29Z</time>
      </trkpt>
      <trkpt lat="48.70415" lon="1.75424">
        <ele>112.60031</ele>
        <time>2014-08-12T12:32:32Z</time>
      </trkpt>
      <trkpt lat="48.70428" lon="1.75431">
        <ele>112.259476</ele>
        <time>2014-08-12T12:32:40Z</time>
      </trkpt>
      <trkpt lat="48.70432" lon="1.75435">
        <ele>112.259476</ele>
        <time>2014-08-12T12:32:44Z</time>
      </trkpt>
      <trkpt lat="48.70438" lon="1.7544">
        <ele>111.935486</ele>
        <time>2014-08-12T12:32:49Z</time>
      </trkpt>
      <trkpt lat="48.70446" lon="1.75443">
        <ele>111.935486</ele>
        <time>2014-08-12T12:32:54Z</time>
      </trkpt>
      <trkpt lat="48.70453" lon="1.75448">
        <ele>111.6845</ele>
        <time>2014-08-12T12:32:59Z</time>
      </trkpt>
      <trkpt lat="48.70454" lon="1.75455">
        <ele>111.6845</ele>
        <time>2014-08-12T12:33:04Z</time>
      </trkpt>
      <trkpt lat="48.70456" lon="1.7546">
        <ele>111.6845</ele>
        <time>2014-08-12T12:33:09Z</time>
      </trkpt>
      <trkpt lat="48.70464" lon="1.75468">
        <ele>111.428635</ele>
        <time>2014-08-12T12:33:14Z</time>
      </trkpt>
      <trkpt lat="48.70472" lon="1.75474">
        <ele>111.428635</ele>
        <time>2014-08-12T12:33:19Z</time>
      </trkpt>
      <trkpt lat="48.70476" lon="1.75482">
        <ele>111.21101</ele>
        <time>2014-08-12T12:33:24Z</time>
      </trkpt>
      <trkpt lat="48.70481" lon="1.75486">
        <ele>111.21101</ele>
        <time>2014-08-12T12:33:29Z</time>
      </trkpt>
      <trkpt lat="48.70484" lon="1.75492">
        <ele>110.985016</ele>
        <time>2014-08-12T12:33:34Z</time>
      </trkpt>
      <trkpt lat="48.7049" lon="1.75498">
        <ele>110.985016</ele>
        <time>2014-08-12T12:33:39Z</time>
      </trkpt>
      <trkpt lat="48.70495" lon="1.75501">
        <ele>110.88037</ele>
        <time>2014-08-12T12:33:44Z</time>
      </trkpt>
      <trkpt lat="48.705" lon="1.75511">
        <ele>110.88037</ele>
        <time>2014-08-12T12:33:49Z</time>
      </trkpt>
      <trkpt lat="48.70506" lon="1.75516">
        <ele>110.88726</ele>
        <time>2014-08-12T12:33:54Z</time>
      </trkpt>
      <trkpt lat="48.7051" lon="1.75521">
        <ele>110.88726</ele>
        <time>2014-08-12T12:33:59Z</time>
      </trkpt>
      <trkpt lat="48.70517" lon="1.75527">
        <ele>110.90978</ele>
        <time>2014-08-12T12:34:04Z</time>
      </trkpt>
      <trkpt lat="48.70528" lon="1.75533">
        <ele>111.01757</ele>
        <time>2014-08-12T12:34:09Z</time>
      </trkpt>
      <trkpt lat="48.70536" lon="1.75537">
        <ele>111.01757</ele>
        <time>2014-08-12T12:34:14Z</time>
      </trkpt>
      <trkpt lat="48.70539" lon="1.7554">
        <ele>111.20284</ele>
        <time>2014-08-12T12:34:18Z</time>
      </trkpt>
      <trkpt lat="48.70547" lon="1.75547">
        <ele>111.20284</ele>
        <time>2014-08-12T12:34:24Z</time>
      </trkpt>
      <trkpt lat="48.70557" lon="1.75553">
        <ele>111.357315</ele>
        <time>2014-08-12T12:34:29Z</time>
      </trkpt>
      <trkpt lat="48.70562" lon="1.7556">
        <ele>111.357315</ele>
        <time>2014-08-12T12:34:34Z</time>
      </trkpt>
      <trkpt lat="48.70571" lon="1.75565">
        <ele>111.62573</ele>
        <time>2014-08-12T12:34:39Z</time>
      </trkpt>
      <trkpt lat="48.70572" lon="1.75571">
        <ele>111.62573</ele>
        <time>2014-08-12T12:34:44Z</time>
      </trkpt>
      <trkpt lat="48.70578" lon="1.7558">
        <ele>111.92575</ele>
        <time>2014-08-12T12:34:49Z</time>
      </trkpt>
      <trkpt lat="48.70582" lon="1.75585">
        <ele>111.92575</ele>
        <time>2014-08-12T12:34:54Z</time>
      </trkpt>
      <trkpt lat="48.70589" lon="1.7559">
        <ele>112.32511</ele>
        <time>2014-08-12T12:34:59Z</time>
      </trkpt>
      <trkpt lat="48.70594" lon="1.75599">
        <ele>112.32511</ele>
        <time>2014-08-12T12:35:04Z</time>
      </trkpt>
      <trkpt lat="48.70599" lon="1.75603">
        <ele>112.742226</ele>
        <time>2014-08-12T12:35:08Z</time>
      </trkpt>
      <trkpt lat="48.70604" lon="1.75612">
        <ele>112.742226</ele>
        <time>2014-08-12T12:35:14Z</time>
      </trkpt>
      <trkpt lat="48.7061" lon="1.75617">
        <ele>113.21674</ele>
        <time>2014-08-12T12:35:19Z</time>
      </trkpt>
      <trkpt lat="48.70609" lon="1.75623">
        <ele>113.21674</ele>
        <time>2014-08-12T12:35:23Z</time>
      </trkpt>
      <trkpt lat="48.70606" lon="1.75628">
        <ele>113.21674</ele>
        <time>2014-08-12T12:35:30Z</time>
      </trkpt>
      <trkpt lat="48.70609" lon="1.75627">
        <ele>114.015884</ele>
        <time>2014-08-12T12:35:34Z</time>
      </trkpt>
      <trkpt lat="48.70612" lon="1.75633">
        <ele>114.015884</ele>
        <time>2014-08-12T12:35:39Z</time>
      </trkpt>
      <trkpt lat="48.70603" lon="1.75634">
        <ele>115.08372</ele>
        <time>2014-08-12T12:35:44Z</time>
      </trkpt>
      <trkpt lat="48.70606" lon="1.75635">
        <ele>115.08372</ele>
        <time>2014-08-12T12:35:49Z</time>
      </trkpt>
      <trkpt lat="48.70619" lon="1.75637">
        <ele>116.32449</ele>
        <time>2014-08-12T12:35:54Z</time>
      </trkpt>
      <trkpt lat="48.70623" lon="1.75632">
        <ele>116.32449</ele>
        <time>2014-08-12T12:35:59Z</time>
      </trkpt>
      <trkpt lat="48.70624" lon="1.75625">
        <ele>117.67788</ele>
        <time>2014-08-12T12:36:04Z</time>
      </trkpt>
      <trkpt lat="48.70628" lon="1.75618">
        <ele>117.67788</ele>
        <time>2014-08-12T12:36:08Z</time>
      </trkpt>
      <trkpt lat="48.70633" lon="1.75608">
        <ele>119.289474</ele>
        <time>2014-08-12T12:36:15Z</time>
      </trkpt>
      <trkpt lat="48.70636" lon="1.75604">
        <ele>119.289474</ele>
        <time>2014-08-12T12:36:19Z</time>
      </trkpt>
      <trkpt lat="48.70641" lon="1.75592">
        <ele>121.10621</ele>
        <time>2014-08-12T12:36:24Z</time>
      </trkpt>
      <trkpt lat="48.70646" lon="1.75583">
        <ele>121.10621</ele>
        <time>2014-08-12T12:36:29Z</time>
      </trkpt>
      <trkpt lat="48.70657" lon="1.75579">
        <ele>123.94306</ele>
        <time>2014-08-12T12:36:34Z</time>
      </trkpt>
      <trkpt lat="48.70662" lon="1.75574">
        <ele>123.94306</ele>
        <time>2014-08-12T12:36:39Z</time>
      </trkpt>
      <trkpt lat="48.7067" lon="1.75572">
        <ele>126.895134</ele>
        <time>2014-08-12T12:36:44Z</time>
      </trkpt>
      <trkpt lat="48.70673" lon="1.75564">
        <ele>126.895134</ele>
        <time>2014-08-12T12:36:49Z</time>
      </trkpt>
      <trkpt lat="48.70672" lon="1.75555">
        <ele>130.0749</ele>
        <time>2014-08-12T12:36:54Z</time>
      </trkpt>
      <trkpt lat="48.70681" lon="1.75547">
        <ele>133.51402</ele>
        <time>2014-08-12T12:36:59Z</time>
      </trkpt>
      <trkpt lat="48.70682" lon="1.7554">
        <ele>133.51402</ele>
        <time>2014-08-12T12:37:04Z</time>
      </trkpt>
      <trkpt lat="48.70685" lon="1.75534">
        <ele>136.99625</ele>
        <time>2014-08-12T12:37:09Z</time>
      </trkpt>
      <trkpt lat="48.70688" lon="1.75526">
        <ele>136.99625</ele>
        <time>2014-08-12T12:37:14Z</time>
      </trkpt>
      <trkpt lat="48.70695" lon="1.75521">
        <ele>140.63835</ele>
        <time>2014-08-12T12:37:19Z</time>
      </trkpt>
      <trkpt lat="48.70699" lon="1.75513">
        <ele>140.63835</ele>
        <time>2014-08-12T12:37:24Z</time>
      </trkpt>
      <trkpt lat="48.70702" lon="1.75508">
        <ele>144.44733</ele>
        <time>2014-08-12T12:37:29Z</time>
      </trkpt>
      <trkpt lat="48.70704" lon="1.75498">
        <ele>144.44733</ele>
        <time>2014-08-12T12:37:34Z</time>
      </trkpt>
      <trkpt lat="48.70707" lon="1.75489">
        <ele>148.06915</ele>
        <time>2014-08-12T12:37:39Z</time>
      </trkpt>
      <trkpt lat="48.7071" lon="1.75482">
        <ele>148.06915</ele>
        <time>2014-08-12T12:37:44Z</time>
      </trkpt>
      <trkpt lat="48.70711" lon="1.7548">
        <ele>148.06915</ele>
        <time>2014-08-12T12:37:49Z</time>
      </trkpt>
      <trkpt lat="48.70706" lon="1.75477">
        <ele>151.55122</ele>
        <time>2014-08-12T12:37:54Z</time>
      </trkpt>
      <trkpt lat="48.70705" lon="1.75471">
        <ele>151.55122</ele>
        <time>2014-08-12T12:37:59Z</time>
      </trkpt>
      <trkpt lat="48.70706" lon="1.75465">
        <ele>151.55122</ele>
        <time>2014-08-12T12:38:04Z</time>
      </trkpt>
      <trkpt lat="48.70704" lon="1.75456">
        <ele>154.85161</ele>
        <time>2014-08-12T12:38:19Z</time>
      </trkpt>
      <trkpt lat="48.70697" lon="1.75454">
        <ele>154.85161</ele>
        <time>2014-08-12T12:38:24Z</time>
      </trkpt>
      <trkpt lat="48.70693" lon="1.7545">
        <ele>157.84575</ele>
        <time>2014-08-12T12:38:29Z</time>
      </trkpt>
      <trkpt lat="48.70688" lon="1.75448">
        <ele>157.84575</ele>
        <time>2014-08-12T12:38:33Z</time>
      </trkpt>
      <trkpt lat="48.70681" lon="1.75441">
        <ele>160.52017</ele>
        <time>2014-08-12T12:38:39Z</time>
      </trkpt>
      <trkpt lat="48.70677" lon="1.75439">
        <ele>160.52017</ele>
        <time>2014-08-12T12:38:42Z</time>
      </trkpt>
      <trkpt lat="48.70671" lon="1.75438">
        <ele>162.83478</ele>
        <time>2014-08-12T12:38:47Z</time>
      </trkpt>
      <trkpt lat="48.70663" lon="1.75439">
        <ele>162.83478</ele>
        <time>2014-08-12T12:38:56Z</time>
      </trkpt>
      <trkpt lat="48.70663" lon="1.75438">
        <ele>164.82567</ele>
        <time>2014-08-12T12:38:58Z</time>
      </trkpt>
    </trkseg>
  </trk>
</gpx>